Behrens, Klaus (2017): Radiosonde measurements from station Lindenberg (2010-03) [dataset]. Meteorologisches Observatorium Potsdam, PANGAEA, https://doi.org/10.1594/PANGAEA.875446
Always quote citation above when using data! You can download the citation in several formats below.
Published: 2017-05-18 • DOI registered: 2017-06-15
Other version:
Behrens, Klaus (2017): BSRN Station-to-archive file for station Lindenberg (2010-03) [dataset]. ftp://ftp.bsrn.awi.de/lin/lin0310.dat.gz
Project(s):
Coverage:
Latitude: 52.210000 * Longitude: 14.122000
Date/Time Start: 2010-03-01T00:00:00 * Date/Time End: 2010-03-31T18:00:00
Minimum ALTITUDE: 112 m * Maximum ALTITUDE: 37398 m
Event(s):
LIN (Lindenberg) * Latitude: 52.210000 * Longitude: 14.122000 * Date/Time: 1994-09-01T00:00:00 * Elevation: 125.0 m * Location: Germany * Method/Device: Monitoring station (MONS) * Comment: BSRN station no: 12; Surface type: cultivated; Topography type: hilly, rural; Horizon: doi:10.1594/PANGAEA.669521; Station scientist: Stefan Wacker (Stefan.Wacker@dwd.de)
Parameter(s):
| # | Name | Short Name | Unit | Principal Investigator | Method/Device | Comment |
|---|---|---|---|---|---|---|
| 1 | DATE/TIME | Date/Time | Behrens, Klaus | Geocode | ||
| 2 | ALTITUDE | Altitude | m | Behrens, Klaus | Geocode | |
| 3 | Pressure, at given altitude | PPPP | hPa | Behrens, Klaus | Radiosonde, Vaisala, RS92 | |
| 4 | Temperature, air | TTT | °C | Behrens, Klaus | Radiosonde, Vaisala, RS92 | |
| 5 | Dew/frost point | TdTdTd | °C | Behrens, Klaus | Radiosonde, Vaisala, RS92 | |
| 6 | Wind direction | dd | deg | Behrens, Klaus | Radiosonde, Vaisala, RS92 | |
| 7 | Wind speed | ff | m/s | Behrens, Klaus | Radiosonde, Vaisala, RS92 | |
| 8 | Ozone, partial pressure | pO3 | mPa | Behrens, Klaus | Radiosonde, Vaisala, RS92 |
License:
Size:
802529 data points
Data
| 1 Date/Time | 2 Altitude [m] | 3 PPPP [hPa] | 4 TTT [°C] | 5 TdTdTd [°C] | 6 dd [deg] | 7 ff [m/s] | 8 pO3 [mPa] |
|---|---|---|---|---|---|---|---|
| 2010-03-01T00:00 | 112 | 976 | 9.2 | 0.1 | 230 | 15 | |
| 2010-03-01T00:00 | 137 | 973 | 9.2 | -0.1 | 231 | 9 | |
| 2010-03-01T00:00 | 160 | 970 | 9.1 | -0.2 | 229 | 12 | |
| 2010-03-01T00:00 | 184 | 968 | 8.9 | -0.4 | 228 | 16 | |
| 2010-03-01T00:00 | 216 | 964 | 8.6 | -0.4 | 227 | 18 | |
| 2010-03-01T00:00 | 236 | 962 | 8.4 | -0.6 | 227 | 21 | |
| 2010-03-01T00:00 | 260 | 959 | 8.2 | -0.5 | 228 | 23 | |
| 2010-03-01T00:00 | 294 | 955 | 7.9 | -0.5 | 228 | 25 | |
| 2010-03-01T00:00 | 317 | 952 | 7.7 | -0.7 | 229 | 27 | |
| 2010-03-01T00:00 | 335 | 950 | 7.5 | -0.6 | 231 | 28 | |
| 2010-03-01T00:00 | 347 | 949 | 7.4 | -0.7 | 232 | 29 | |
| 2010-03-01T00:00 | 367 | 946 | 7.2 | -0.7 | 232 | 30 | |
| 2010-03-01T00:00 | 386 | 944 | 7.0 | -0.8 | 232 | 31 | |
| 2010-03-01T00:00 | 404 | 942 | 6.8 | -0.8 | 232 | 31 | |
| 2010-03-01T00:00 | 423 | 940 | 6.6 | -0.7 | 231 | 31 | |
| 2010-03-01T00:00 | 444 | 938 | 6.4 | -0.9 | 231 | 31 | |
| 2010-03-01T00:00 | 467 | 935 | 6.2 | -0.9 | 231 | 31 | |
| 2010-03-01T00:00 | 498 | 931 | 5.9 | -0.9 | 232 | 31 | |
| 2010-03-01T00:00 | 526 | 928 | 5.7 | -0.9 | 233 | 30 | |
| 2010-03-01T00:00 | 552 | 925 | 5.4 | -1.1 | 235 | 30 | |
| 2010-03-01T00:00 | 575 | 923 | 5.2 | -1.1 | 235 | 29 | |
| 2010-03-01T00:00 | 595 | 920 | 5.0 | -1.1 | 236 | 29 | |
| 2010-03-01T00:00 | 614 | 918 | 4.8 | -1.1 | 236 | 29 | |
| 2010-03-01T00:00 | 632 | 916 | 4.6 | -1.2 | 236 | 28 | |
| 2010-03-01T00:00 | 649 | 914 | 4.5 | -1.1 | 236 | 27 | |
| 2010-03-01T00:00 | 673 | 912 | 4.2 | -1.2 | 236 | 27 | |
| 2010-03-01T00:00 | 688 | 910 | 4.1 | -1.3 | 237 | 27 | |
| 2010-03-01T00:00 | 703 | 908 | 4.0 | -1.2 | 237 | 26 | |
| 2010-03-01T00:00 | 716 | 907 | 3.8 | -1.2 | 238 | 27 | |
| 2010-03-01T00:00 | 732 | 905 | 3.7 | -1.3 | 239 | 27 | |
| 2010-03-01T00:00 | 743 | 904 | 3.6 | -1.4 | 239 | 27 | |
| 2010-03-01T00:00 | 757 | 902 | 3.4 | -1.4 | 240 | 27 | |
| 2010-03-01T00:00 | 772 | 901 | 3.2 | -1.5 | 240 | 28 | |
| 2010-03-01T00:00 | 783 | 899 | 3.2 | -1.4 | 241 | 28 | |
| 2010-03-01T00:00 | 790 | 899 | 3.1 | -1.5 | 241 | 29 | |
| 2010-03-01T00:00 | 800 | 897 | 3.1 | -1.8 | 242 | 30 | |
| 2010-03-01T00:00 | 807 | 897 | 3.0 | -1.7 | 242 | 30 | |
| 2010-03-01T00:00 | 816 | 896 | 2.9 | -1.6 | 242 | 31 | |
| 2010-03-01T00:00 | 831 | 894 | 2.7 | -1.8 | 242 | 31 | |
| 2010-03-01T00:00 | 842 | 893 | 2.7 | -1.8 | 241 | 31 | |
| 2010-03-01T00:00 | 851 | 892 | 2.6 | -1.7 | 241 | 31 | |
| 2010-03-01T00:00 | 864 | 890 | 2.4 | -1.9 | 241 | 31 | |
| 2010-03-01T00:00 | 880 | 889 | 2.2 | -2.1 | 241 | 31 | |
| 2010-03-01T00:00 | 894 | 887 | 2.2 | -1.9 | 241 | 31 | |
| 2010-03-01T00:00 | 909 | 885 | 2.0 | -1.9 | 241 | 31 | |
| 2010-03-01T00:00 | 927 | 884 | 1.9 | -2.1 | 241 | 31 | |
| 2010-03-01T00:00 | 945 | 882 | 1.8 | -2.1 | 241 | 31 | |
| 2010-03-01T00:00 | 964 | 879 | 1.6 | -2.1 | 241 | 32 | |
| 2010-03-01T00:00 | 981 | 878 | 1.5 | -2.3 | 242 | 32 | |
| 2010-03-01T00:00 | 1005 | 875 | 1.2 | -2.4 | 243 | 31 | |
| 2010-03-01T00:00 | 1023 | 873 | 1.0 | -2.4 | 243 | 31 | |
| 2010-03-01T00:00 | 1047 | 870 | 0.8 | -2.5 | 244 | 31 | |
| 2010-03-01T00:00 | 1068 | 868 | 0.6 | -2.5 | 244 | 31 | |
| 2010-03-01T00:00 | 1083 | 867 | 0.4 | -2.2 | 245 | 31 | |
| 2010-03-01T00:00 | 1100 | 865 | 0.1 | -2.3 | 245 | 31 | |
| 2010-03-01T00:00 | 1116 | 863 | 0.0 | -2.2 | 245 | 32 | |
| 2010-03-01T00:00 | 1135 | 861 | -0.1 | -2.3 | 245 | 32 | |
| 2010-03-01T00:00 | 1154 | 859 | -0.2 | -2.6 | 245 | 32 | |
| 2010-03-01T00:00 | 1172 | 857 | -0.4 | -2.8 | 245 | 32 | |
| 2010-03-01T00:00 | 1194 | 855 | -0.6 | -2.7 | 244 | 31 | |
| 2010-03-01T00:00 | 1217 | 852 | -0.9 | -2.7 | 244 | 30 | |
| 2010-03-01T00:00 | 1239 | 850 | -1.2 | -2.7 | 243 | 30 | |
| 2010-03-01T00:00 | 1259 | 848 | -1.3 | -2.7 | 243 | 29 | |
| 2010-03-01T00:00 | 1286 | 845 | -1.6 | -2.7 | 242 | 29 | |
| 2010-03-01T00:00 | 1312 | 842 | -1.9 | -2.9 | 242 | 29 | |
| 2010-03-01T00:00 | 1339 | 839 | -2.1 | -3.0 | 241 | 29 | |
| 2010-03-01T00:00 | 1372 | 836 | -2.3 | -3.3 | 240 | 29 | |
| 2010-03-01T00:00 | 1409 | 832 | -2.8 | -3.4 | 240 | 29 | |
| 2010-03-01T00:00 | 1445 | 828 | -3.1 | -3.6 | 240 | 29 | |
| 2010-03-01T00:00 | 1474 | 825 | -3.4 | -3.5 | 240 | 29 | |
| 2010-03-01T00:00 | 1506 | 822 | -3.6 | -3.6 | 241 | 30 | |
| 2010-03-01T00:00 | 1531 | 819 | -3.8 | -3.8 | 242 | 30 | |
| 2010-03-01T00:00 | 1559 | 816 | -3.9 | -3.9 | 244 | 31 | |
| 2010-03-01T00:00 | 1585 | 813 | -4.1 | -4.1 | 245 | 31 | |
| 2010-03-01T00:00 | 1624 | 810 | -4.4 | -4.4 | 245 | 32 | |
| 2010-03-01T00:00 | 1663 | 805 | -4.6 | -4.6 | 246 | 32 | |
| 2010-03-01T00:00 | 1698 | 802 | -4.8 | -4.8 | 246 | 33 | |
| 2010-03-01T00:00 | 1726 | 799 | -5.1 | -5.1 | 246 | 33 | |
| 2010-03-01T00:00 | 1751 | 797 | -5.3 | -5.3 | 247 | 34 | |
| 2010-03-01T00:00 | 1780 | 794 | -5.5 | -5.5 | 248 | 34 | |
| 2010-03-01T00:00 | 1806 | 791 | -5.8 | -5.8 | 248 | 34 | |
| 2010-03-01T00:00 | 1833 | 788 | -6.0 | -6.0 | 249 | 34 | |
| 2010-03-01T00:00 | 1866 | 785 | -6.2 | -6.2 | 250 | 34 | |
| 2010-03-01T00:00 | 1905 | 781 | -6.5 | -6.7 | 252 | 34 | |
| 2010-03-01T00:00 | 1939 | 778 | -6.8 | -7.0 | 253 | 34 | |
| 2010-03-01T00:00 | 1963 | 775 | -7.0 | -7.1 | 254 | 34 | |
| 2010-03-01T00:00 | 1984 | 773 | -7.1 | -7.2 | 255 | 34 | |
| 2010-03-01T00:00 | 2007 | 771 | -7.3 | -7.4 | 256 | 34 | |
| 2010-03-01T00:00 | 2029 | 769 | -7.4 | -7.6 | 257 | 34 | |
| 2010-03-01T00:00 | 2052 | 766 | -7.6 | -8.0 | 257 | 33 | |
| 2010-03-01T00:00 | 2076 | 764 | -7.8 | -8.3 | 257 | 33 | |
| 2010-03-01T00:00 | 2103 | 761 | -7.9 | -8.4 | 257 | 32 | |
| 2010-03-01T00:00 | 2131 | 759 | -8.1 | -8.7 | 257 | 32 | |
| 2010-03-01T00:00 | 2161 | 756 | -8.2 | -8.9 | 258 | 32 | |
| 2010-03-01T00:00 | 2187 | 753 | -8.3 | -9.1 | 258 | 32 | |
| 2010-03-01T00:00 | 2208 | 751 | -8.5 | -9.6 | 259 | 32 | |
| 2010-03-01T00:00 | 2228 | 749 | -8.6 | -9.6 | 258 | 33 | |
| 2010-03-01T00:00 | 2248 | 747 | -8.8 | -9.7 | 258 | 32 | |
| 2010-03-01T00:00 | 2272 | 745 | -8.9 | -9.8 | 258 | 32 | |
| 2010-03-01T00:00 | 2300 | 742 | -9.1 | -10.0 | 257 | 32 | |
| 2010-03-01T00:00 | 2326 | 740 | -9.2 | -10.1 | 257 | 31 | |
| 2010-03-01T00:00 | 2351 | 738 | -9.2 | -10.4 | 257 | 31 | |
| 2010-03-01T00:00 | 2378 | 735 | -9.4 | -10.5 | 256 | 30 | |
| 2010-03-01T00:00 | 2402 | 733 | -9.3 | -10.5 | 255 | 30 | |
| 2010-03-01T00:00 | 2428 | 730 | -9.4 | -10.6 | 254 | 30 | |
| 2010-03-01T00:00 | 2454 | 728 | -9.6 | -10.7 | 253 | 30 | |
| 2010-03-01T00:00 | 2477 | 726 | -9.8 | -10.9 | 253 | 30 | |
| 2010-03-01T00:00 | 2504 | 723 | -9.9 | -11.0 | 252 | 31 | |
| 2010-03-01T00:00 | 2534 | 720 | -10.0 | -11.1 | 252 | 32 | |
| 2010-03-01T00:00 | 2558 | 718 | -10.0 | -11.1 | 251 | 32 | |
| 2010-03-01T00:00 | 2577 | 716 | -10.2 | -11.3 | 251 | 33 | |
| 2010-03-01T00:00 | 2601 | 714 | -10.3 | -11.4 | 250 | 33 | |
| 2010-03-01T00:00 | 2625 | 712 | -10.4 | -11.5 | 250 | 33 | |
| 2010-03-01T00:00 | 2651 | 709 | -10.6 | -11.7 | 250 | 33 | |
| 2010-03-01T00:00 | 2676 | 707 | -10.8 | -11.9 | 250 | 33 | |
| 2010-03-01T00:00 | 2701 | 705 | -10.9 | -12.1 | 250 | 33 | |
| 2010-03-01T00:00 | 2734 | 702 | -11.1 | -12.3 | 250 | 33 | |
| 2010-03-01T00:00 | 2761 | 699 | -11.3 | -12.5 | 250 | 33 | |
| 2010-03-01T00:00 | 2785 | 697 | -11.4 | -12.6 | 249 | 33 | |
| 2010-03-01T00:00 | 2807 | 695 | -11.5 | -12.7 | 249 | 33 | |
| 2010-03-01T00:00 | 2827 | 693 | -11.6 | -12.8 | 248 | 33 | |
| 2010-03-01T00:00 | 2847 | 692 | -11.8 | -13.0 | 248 | 33 | |
| 2010-03-01T00:00 | 2866 | 690 | -11.9 | -13.1 | 247 | 33 | |
| 2010-03-01T00:00 | 2886 | 688 | -11.9 | -13.2 | 248 | 33 | |
| 2010-03-01T00:00 | 2908 | 686 | -12.0 | -13.3 | 248 | 33 | |
| 2010-03-01T00:00 | 2935 | 684 | -12.2 | -13.5 | 250 | 33 | |
| 2010-03-01T00:00 | 2955 | 682 | -12.3 | -13.5 | 251 | 33 | |
| 2010-03-01T00:00 | 2974 | 680 | -12.4 | -13.6 | 251 | 34 | |
| 2010-03-01T00:00 | 2995 | 678 | -12.5 | -13.7 | 251 | 34 | |
| 2010-03-01T00:00 | 3020 | 676 | -12.6 | -13.8 | 251 | 33 | |
| 2010-03-01T00:00 | 3044 | 674 | -12.6 | -13.9 | 250 | 33 | |
| 2010-03-01T00:00 | 3064 | 672 | -12.8 | -14.1 | 250 | 33 | |
| 2010-03-01T00:00 | 3093 | 670 | -12.9 | -14.1 | 249 | 32 | |
| 2010-03-01T00:00 | 3116 | 668 | -13.0 | -14.0 | 249 | 32 | |
| 2010-03-01T00:00 | 3137 | 666 | -13.1 | -14.1 | 248 | 32 | |
| 2010-03-01T00:00 | 3160 | 664 | -13.1 | -14.1 | 248 | 32 | |
| 2010-03-01T00:00 | 3192 | 661 | -13.3 | -14.5 | 248 | 32 | |
| 2010-03-01T00:00 | 3223 | 658 | -13.4 | -14.6 | 247 | 32 | |
| 2010-03-01T00:00 | 3251 | 656 | -13.6 | -14.8 | 247 | 32 | |
| 2010-03-01T00:00 | 3274 | 654 | -13.8 | -14.8 | 246 | 32 | |
| 2010-03-01T00:00 | 3302 | 651 | -13.9 | -15.1 | 246 | 31 | |
| 2010-03-01T00:00 | 3331 | 649 | -14.1 | 247 | 31 | ||
| 2010-03-01T00:00 | 3352 | 647 | -14.1 | 247 | 31 | ||
| 2010-03-01T00:00 | 3377 | 645 | -14.2 | -15.2 | 248 | 31 | |
| 2010-03-01T00:00 | 3404 | 643 | -14.3 | -15.4 | 249 | 30 | |
| 2010-03-01T00:00 | 3434 | 640 | -14.5 | -15.6 | 249 | 29 | |
| 2010-03-01T00:00 | 3459 | 638 | -14.6 | -15.7 | 248 | 29 | |
| 2010-03-01T00:00 | 3484 | 636 | -14.8 | -15.9 | 248 | 28 | |
| 2010-03-01T00:00 | 3508 | 634 | -14.8 | -15.9 | 248 | 28 | |
| 2010-03-01T00:00 | 3531 | 632 | -14.9 | -16.0 | 247 | 28 | |
| 2010-03-01T00:00 | 3554 | 630 | -15.1 | -16.1 | 247 | 28 | |
| 2010-03-01T00:00 | 3580 | 628 | -15.3 | -16.2 | 246 | 28 | |
| 2010-03-01T00:00 | 3607 | 626 | -15.5 | -16.2 | 245 | 28 | |
| 2010-03-01T00:00 | 3633 | 624 | -15.8 | -16.5 | 244 | 28 | |
| 2010-03-01T00:00 | 3663 | 621 | -15.8 | -16.7 | 244 | 28 | |
| 2010-03-01T00:00 | 3689 | 619 | -16.0 | -17.0 | 243 | 28 | |
| 2010-03-01T00:00 | 3715 | 617 | -16.2 | -17.2 | 243 | 29 | |
| 2010-03-01T00:00 | 3738 | 615 | -16.3 | -17.2 | 242 | 29 | |
| 2010-03-01T00:00 | 3766 | 613 | -16.5 | -17.3 | 242 | 29 | |
| 2010-03-01T00:00 | 3791 | 611 | -16.8 | -17.5 | 242 | 29 | |
| 2010-03-01T00:00 | 3814 | 609 | -16.8 | -17.7 | 242 | 29 | |
| 2010-03-01T00:00 | 3839 | 607 | -16.8 | -18.2 | 242 | 29 | |
| 2010-03-01T00:00 | 3865 | 605 | -16.8 | -18.4 | 242 | 29 | |
| 2010-03-01T00:00 | 3890 | 603 | -16.8 | -18.8 | 242 | 29 | |
| 2010-03-01T00:00 | 3913 | 601 | -16.9 | -18.8 | 242 | 29 | |
| 2010-03-01T00:00 | 3939 | 599 | -17.1 | -18.8 | 242 | 29 | |
| 2010-03-01T00:00 | 3963 | 597 | -17.3 | -19.0 | 242 | 29 | |
| 2010-03-01T00:00 | 3985 | 595 | -17.4 | -19.0 | 242 | 29 | |
| 2010-03-01T00:00 | 4017 | 593 | -17.5 | -19.1 | 242 | 29 | |
| 2010-03-01T00:00 | 4049 | 590 | -17.7 | -19.4 | 241 | 29 | |
| 2010-03-01T00:00 | 4077 | 588 | -17.6 | -19.8 | 240 | 29 | |
| 2010-03-01T00:00 | 4100 | 586 | -17.7 | -20.4 | 239 | 29 | |
| 2010-03-01T00:00 | 4127 | 584 | -17.7 | -21.4 | 239 | 28 | |
| 2010-03-01T00:00 | 4154 | 582 | -17.8 | -21.7 | 240 | 28 | |
| 2010-03-01T00:00 | 4175 | 580 | -18.0 | -21.7 | 241 | 28 | |
| 2010-03-01T00:00 | 4197 | 578 | -18.1 | -21.8 | 241 | 27 | |
| 2010-03-01T00:00 | 4222 | 577 | -18.1 | -22.1 | 240 | 27 | |
| 2010-03-01T00:00 | 4250 | 574 | -18.1 | -22.1 | 239 | 26 | |
| 2010-03-01T00:00 | 4275 | 572 | -18.2 | -22.2 | 238 | 26 | |
| 2010-03-01T00:00 | 4304 | 570 | -18.4 | 238 | 25 | ||
| 2010-03-01T00:00 | 4329 | 568 | -18.5 | -22.5 | 237 | 24 | |
| 2010-03-01T00:00 | 4353 | 566 | -18.7 | -22.6 | 236 | 24 | |
| 2010-03-01T00:00 | 4373 | 565 | -18.7 | -23.0 | 236 | 24 | |
| 2010-03-01T00:00 | 4394 | 563 | -18.8 | -23.3 | 235 | 24 | |
| 2010-03-01T00:00 | 4418 | 562 | -19.0 | -23.4 | 236 | 24 | |
| 2010-03-01T00:00 | 4444 | 560 | -19.1 | -23.7 | 237 | 24 | |
| 2010-03-01T00:00 | 4476 | 557 | -19.3 | -24.1 | 239 | 24 | |
| 2010-03-01T00:00 | 4508 | 555 | -19.2 | -24.3 | 240 | 23 | |
| 2010-03-01T00:00 | 4531 | 553 | -19.3 | -24.5 | 240 | 23 | |
| 2010-03-01T00:00 | 4556 | 551 | -19.4 | -24.8 | 240 | 22 | |
| 2010-03-01T00:00 | 4583 | 549 | -19.4 | -25.5 | 239 | 22 | |
| 2010-03-01T00:00 | 4616 | 547 | -19.7 | -26.0 | 237 | 23 | |
| 2010-03-01T00:00 | 4649 | 544 | -19.9 | -26.2 | 236 | 23 | |
| 2010-03-01T00:00 | 4681 | 542 | -20.3 | -26.7 | 236 | 23 | |
| 2010-03-01T00:00 | 4709 | 540 | -20.5 | -27.1 | 236 | 24 | |
| 2010-03-01T00:00 | 4745 | 537 | -20.9 | -27.9 | 235 | 24 | |
| 2010-03-01T00:00 | 4777 | 535 | -21.2 | -27.8 | 235 | 24 | |
| 2010-03-01T00:00 | 4808 | 533 | -21.4 | -28.0 | 235 | 24 | |
| 2010-03-01T00:00 | 4837 | 531 | -21.7 | -28.1 | 235 | 24 | |
| 2010-03-01T00:00 | 4871 | 528 | -22.1 | -28.1 | 234 | 24 | |
| 2010-03-01T00:00 | 4899 | 526 | -22.4 | -28.2 | 234 | 24 | |
| 2010-03-01T00:00 | 4928 | 524 | -22.6 | -28.0 | 233 | 24 | |
| 2010-03-01T00:00 | 4956 | 522 | -22.9 | -27.8 | 232 | 25 | |
| 2010-03-01T00:00 | 4980 | 520 | -23.1 | -27.7 | 231 | 25 | |
| 2010-03-01T00:00 | 5007 | 519 | -23.4 | -28.0 | 231 | 25 | |
| 2010-03-01T00:00 | 5035 | 517 | -23.7 | -28.0 | 231 | 25 | |
| 2010-03-01T00:00 | 5064 | 515 | -24.0 | -28.1 | 231 | 25 | |
| 2010-03-01T00:00 | 5095 | 512 | -24.3 | -28.3 | 231 | 25 | |
| 2010-03-01T00:00 | 5124 | 510 | -24.6 | -29.0 | 231 | 25 | |
| 2010-03-01T00:00 | 5151 | 508 | -24.9 | -30.4 | 231 | 25 | |
| 2010-03-01T00:00 | 5176 | 507 | -25.1 | -30.6 | 231 | 25 | |
| 2010-03-01T00:00 | 5203 | 505 | -25.4 | -30.9 | 230 | 25 | |
| 2010-03-01T00:00 | 5226 | 503 | -25.6 | -30.8 | 229 | 25 | |
| 2010-03-01T00:00 | 5249 | 502 | -25.8 | -30.9 | 228 | 25 | |
| 2010-03-01T00:00 | 5277 | 500 | -26.0 | -31.3 | 226 | 26 | |
| 2010-03-01T00:00 | 5311 | 497 | -26.4 | -31.4 | 225 | 26 | |
| 2010-03-01T00:00 | 5339 | 495 | -26.4 | -32.4 | 223 | 26 | |
| 2010-03-01T00:00 | 5366 | 494 | -26.3 | -36.0 | 222 | 27 | |
| 2010-03-01T00:00 | 5397 | 491 | -26.6 | -38.0 | 221 | 27 | |
| 2010-03-01T00:00 | 5427 | 489 | -26.2 | -43.1 | 221 | 28 | |
| 2010-03-01T00:00 | 5455 | 488 | -26.0 | -49.9 | 221 | 28 | |
| 2010-03-01T00:00 | 5484 | 486 | -26.0 | -54.3 | 221 | 27 | |
| 2010-03-01T00:00 | 5520 | 483 | -26.0 | -56.5 | 221 | 27 | |
| 2010-03-01T00:00 | 5545 | 481 | -26.1 | -56.6 | 221 | 26 | |
| 2010-03-01T00:00 | 5569 | 480 | -26.3 | -56.8 | 221 | 25 | |
| 2010-03-01T00:00 | 5593 | 478 | -26.5 | -56.9 | 220 | 25 | |
| 2010-03-01T00:00 | 5618 | 477 | -26.5 | -56.9 | 219 | 25 | |
| 2010-03-01T00:00 | 5658 | 474 | -26.6 | -60.0 | 219 | 25 | |
| 2010-03-01T00:00 | 5690 | 472 | -26.5 | -60.0 | 220 | 26 | |
| 2010-03-01T00:00 | 5711 | 470 | -26.6 | -60.0 | 220 | 26 | |
| 2010-03-01T00:00 | 5734 | 469 | -26.7 | -60.1 | 222 | 27 | |
| 2010-03-01T00:00 | 5760 | 467 | -26.9 | -60.3 | 223 | 28 | |
| 2010-03-01T00:00 | 5785 | 466 | -27.1 | -60.4 | 224 | 28 | |
| 2010-03-01T00:00 | 5811 | 464 | -27.2 | -60.5 | 225 | 28 | |
| 2010-03-01T00:00 | 5833 | 463 | -27.4 | -60.6 | 225 | 28 | |
| 2010-03-01T00:00 | 5856 | 461 | -27.6 | -60.8 | 226 | 28 | |
| 2010-03-01T00:00 | 5881 | 460 | -27.8 | -60.9 | 226 | 27 | |
| 2010-03-01T00:00 | 5913 | 458 | -28.1 | -61.2 | 225 | 27 | |
| 2010-03-01T00:00 | 5936 | 456 | -28.3 | -61.3 | 224 | 27 | |
| 2010-03-01T00:00 | 5962 | 454 | -28.5 | -61.5 | 223 | 27 | |
| 2010-03-01T00:00 | 5982 | 453 | -28.7 | -61.6 | 223 | 28 | |
| 2010-03-01T00:00 | 6004 | 452 | -28.7 | -61.6 | 222 | 29 | |
| 2010-03-01T00:00 | 6028 | 450 | -28.9 | -61.8 | 222 | 30 | |
| 2010-03-01T00:00 | 6053 | 449 | -29.1 | -61.9 | 221 | 31 | |
| 2010-03-01T00:00 | 6073 | 447 | -29.1 | -61.9 | 221 | 31 | |
| 2010-03-01T00:00 | 6093 | 446 | -29.1 | -61.9 | 220 | 31 | |
| 2010-03-01T00:00 | 6113 | 445 | -29.2 | -62.0 | 219 | 31 | |
| 2010-03-01T00:00 | 6132 | 444 | -29.4 | -62.1 | 219 | 31 | |
| 2010-03-01T00:00 | 6157 | 442 | -29.6 | -62.3 | 219 | 31 | |
| 2010-03-01T00:00 | 6187 | 440 | -29.8 | -59.5 | 219 | 31 | |
| 2010-03-01T00:00 | 6216 | 438 | -30.1 | -59.7 | 219 | 31 | |
| 2010-03-01T00:00 | 6239 | 437 | -30.3 | -59.8 | 220 | 31 | |
| 2010-03-01T00:00 | 6259 | 436 | -30.5 | -60.0 | 220 | 31 | |
| 2010-03-01T00:00 | 6279 | 435 | -30.6 | -60.1 | 221 | 31 | |
| 2010-03-01T00:00 | 6300 | 433 | -30.7 | -60.2 | 221 | 32 | |
| 2010-03-01T00:00 | 6321 | 432 | -30.9 | -60.3 | 221 | 32 | |
| 2010-03-01T00:00 | 6343 | 431 | -31.1 | -60.5 | 222 | 32 | |
| 2010-03-01T00:00 | 6366 | 429 | -31.2 | -60.5 | 222 | 32 | |
| 2010-03-01T00:00 | 6392 | 428 | -31.2 | -60.5 | 222 | 32 | |
| 2010-03-01T00:00 | 6426 | 426 | -31.4 | -60.7 | 221 | 32 | |
| 2010-03-01T00:00 | 6461 | 424 | -31.4 | -60.7 | 221 | 32 | |
| 2010-03-01T00:00 | 6487 | 422 | -31.6 | -60.8 | 220 | 32 | |
| 2010-03-01T00:00 | 6509 | 421 | -31.8 | -61.0 | 219 | 32 | |
| 2010-03-01T00:00 | 6531 | 419 | -31.9 | -61.1 | 219 | 31 | |
| 2010-03-01T00:00 | 6552 | 418 | -32.0 | -61.2 | 219 | 31 | |
| 2010-03-01T00:00 | 6572 | 417 | -32.0 | -64.1 | 219 | 31 | |
| 2010-03-01T00:00 | 6593 | 416 | -32.1 | -64.2 | 219 | 31 | |
| 2010-03-01T00:00 | 6615 | 414 | -32.3 | -64.3 | 219 | 30 | |
| 2010-03-01T00:00 | 6637 | 413 | -32.5 | -64.5 | 219 | 30 | |
| 2010-03-01T00:00 | 6661 | 412 | -32.7 | -64.6 | 220 | 29 | |
| 2010-03-01T00:00 | 6689 | 410 | -32.9 | -64.8 | 220 | 29 | |
| 2010-03-01T00:00 | 6719 | 408 | -33.1 | -62.0 | 220 | 28 | |
| 2010-03-01T00:00 | 6747 | 407 | -33.2 | -62.1 | 221 | 28 | |
| 2010-03-01T00:00 | 6774 | 405 | -33.5 | -62.3 | 221 | 28 | |
| 2010-03-01T00:00 | 6797 | 404 | -33.7 | -62.5 | 221 | 28 | |
| 2010-03-01T00:00 | 6821 | 403 | -33.9 | -62.6 | 220 | 28 | |
| 2010-03-01T00:00 | 6851 | 401 | -34.0 | -62.7 | 220 | 28 | |
| 2010-03-01T00:00 | 6881 | 399 | -33.9 | -65.5 | 221 | 29 | |
| 2010-03-01T00:00 | 6917 | 397 | -34.1 | -65.7 | 221 | 29 | |
| 2010-03-01T00:00 | 6948 | 395 | -34.2 | -65.7 | 221 | 29 | |
| 2010-03-01T00:00 | 6977 | 394 | -34.4 | -65.9 | 222 | 29 | |
| 2010-03-01T00:00 | 7003 | 392 | -34.4 | -65.9 | 222 | 29 | |
| 2010-03-01T00:00 | 7025 | 391 | -34.4 | -65.9 | 221 | 29 | |
| 2010-03-01T00:00 | 7045 | 390 | -34.6 | -66.0 | 221 | 29 | |
| 2010-03-01T00:00 | 7067 | 389 | -34.7 | -66.1 | 220 | 29 | |
| 2010-03-01T00:00 | 7088 | 387 | -34.9 | -66.3 | 220 | 29 | |
| 2010-03-01T00:00 | 7111 | 386 | -35.0 | -66.3 | 220 | 29 | |
| 2010-03-01T00:00 | 7134 | 385 | -35.2 | -66.5 | 220 | 29 | |
| 2010-03-01T00:00 | 7157 | 384 | -35.4 | -66.6 | 220 | 30 | |
| 2010-03-01T00:00 | 7179 | 382 | -35.6 | -66.8 | 220 | 30 | |
| 2010-03-01T00:00 | 7201 | 381 | -35.8 | -66.9 | 220 | 30 | |
| 2010-03-01T00:00 | 7221 | 380 | -35.9 | -67.0 | 220 | 30 | |
| 2010-03-01T00:00 | 7241 | 379 | -36.0 | -67.1 | 220 | 30 | |
| 2010-03-01T00:00 | 7260 | 378 | -36.0 | -67.1 | 221 | 30 | |
| 2010-03-01T00:00 | 7280 | 377 | -36.0 | -67.1 | 221 | 30 | |
| 2010-03-01T00:00 | 7301 | 376 | -36.0 | -67.1 | 221 | 30 | |
| 2010-03-01T00:00 | 7323 | 375 | -36.1 | -67.2 | 221 | 30 | |
| 2010-03-01T00:00 | 7344 | 373 | -36.2 | -67.3 | 221 | 30 | |
| 2010-03-01T00:00 | 7365 | 372 | -36.3 | -67.3 | 220 | 31 | |
| 2010-03-01T00:00 | 7389 | 371 | -36.5 | -67.5 | 220 | 31 | |
| 2010-03-01T00:00 | 7417 | 369 | -36.7 | -67.6 | 220 | 31 | |
| 2010-03-01T00:00 | 7442 | 368 | -36.9 | -67.8 | 220 | 32 | |
| 2010-03-01T00:00 | 7463 | 367 | -37.0 | -67.9 | 220 | 32 | |
| 2010-03-01T00:00 | 7481 | 366 | -37.0 | -67.9 | 220 | 32 | |
| 2010-03-01T00:00 | 7498 | 365 | -37.1 | -67.9 | 220 | 32 | |
| 2010-03-01T00:00 | 7517 | 364 | -37.2 | -68.0 | 220 | 32 | |
| 2010-03-01T00:00 | 7537 | 363 | -37.2 | -68.0 | 220 | 32 | |
| 2010-03-01T00:00 | 7555 | 362 | -37.3 | -68.1 | 220 | 32 | |
| 2010-03-01T00:00 | 7574 | 361 | -37.4 | -68.2 | 220 | 33 | |
| 2010-03-01T00:00 | 7593 | 360 | -37.5 | -68.2 | 220 | 33 | |
| 2010-03-01T00:00 | 7612 | 359 | -37.5 | -68.2 | 220 | 33 | |
| 2010-03-01T00:00 | 7632 | 358 | -37.7 | -68.4 | 221 | 33 | |
| 2010-03-01T00:00 | 7652 | 357 | -37.8 | -68.5 | 221 | 33 | |
| 2010-03-01T00:00 | 7672 | 356 | -37.9 | -68.5 | 220 | 33 | |
| 2010-03-01T00:00 | 7702 | 355 | -37.9 | -65.7 | 220 | 33 | |
| 2010-03-01T00:00 | 7732 | 353 | -37.8 | -65.7 | 219 | 34 | |
| 2010-03-01T00:00 | 7762 | 351 | -38.1 | -65.9 | 219 | 34 | |
| 2010-03-01T00:00 | 7787 | 350 | -38.3 | -66.0 | 218 | 35 | |
| 2010-03-01T00:00 | 7811 | 349 | -38.5 | -66.2 | 218 | 35 | |
| 2010-03-01T00:00 | 7840 | 347 | -38.7 | -66.4 | 217 | 35 | |
| 2010-03-01T00:00 | 7872 | 346 | -39.0 | -66.6 | 216 | 35 | |
| 2010-03-01T00:00 | 7904 | 344 | -39.0 | -66.6 | 216 | 35 | |
| 2010-03-01T00:00 | 7923 | 343 | -39.1 | -66.7 | 216 | 36 | |
| 2010-03-01T00:00 | 7939 | 342 | -39.2 | -66.7 | 216 | 36 | |
| 2010-03-01T00:00 | 7957 | 342 | -39.3 | -66.8 | 216 | 36 | |
| 2010-03-01T00:00 | 7976 | 341 | -39.3 | -66.8 | 217 | 36 | |
| 2010-03-01T00:00 | 7994 | 340 | -39.5 | -67.0 | 217 | 36 | |
| 2010-03-01T00:00 | 8013 | 339 | -39.6 | -67.1 | 217 | 36 | |
| 2010-03-01T00:00 | 8031 | 338 | -39.8 | -67.2 | 218 | 36 | |
| 2010-03-01T00:00 | 8048 | 337 | -39.9 | -67.3 | 218 | 36 | |
| 2010-03-01T00:00 | 8067 | 336 | -39.9 | -67.3 | 218 | 37 | |
| 2010-03-01T00:00 | 8086 | 335 | -40.0 | -67.4 | 218 | 37 | |
| 2010-03-01T00:00 | 8104 | 334 | -40.1 | -67.5 | 218 | 37 | |
| 2010-03-01T00:00 | 8123 | 333 | -40.2 | -67.5 | 219 | 37 | |
| 2010-03-01T00:00 | 8142 | 332 | -40.3 | -67.6 | 219 | 37 | |
| 2010-03-01T00:00 | 8161 | 332 | -40.4 | -67.7 | 219 | 37 | |
| 2010-03-01T00:00 | 8179 | 331 | -40.6 | -67.8 | 219 | 37 | |
| 2010-03-01T00:00 | 8198 | 330 | -40.7 | -67.9 | 220 | 37 | |
| 2010-03-01T00:00 | 8219 | 329 | -40.6 | -67.8 | 220 | 37 | |
| 2010-03-01T00:00 | 8245 | 327 | -40.7 | -67.9 | 221 | 37 | |
| 2010-03-01T00:00 | 8269 | 326 | -40.9 | -68.1 | 221 | 37 | |
| 2010-03-01T00:00 | 8302 | 325 | -41.1 | -68.2 | 222 | 36 | |
| 2010-03-01T00:00 | 8330 | 323 | -41.3 | -68.4 | 222 | 36 | |
| 2010-03-01T00:00 | 8353 | 322 | -41.3 | -68.4 | 223 | 36 | |
| 2010-03-01T00:00 | 8373 | 321 | -41.4 | -68.5 | 224 | 35 | |
| 2010-03-01T00:00 | 8396 | 320 | -41.5 | -68.5 | 224 | 35 | |
| 2010-03-01T00:00 | 8419 | 319 | -41.7 | -68.7 | 224 | 34 | |
| 2010-03-01T00:00 | 8440 | 318 | -41.8 | -68.8 | 225 | 34 | |
| 2010-03-01T00:00 | 8462 | 317 | -42.0 | -68.9 | 225 | 34 | |
| 2010-03-01T00:00 | 8486 | 316 | -42.2 | -69.1 | 225 | 33 | |
| 2010-03-01T00:00 | 8508 | 315 | -42.4 | -69.2 | 226 | 33 | |
| 2010-03-01T00:00 | 8530 | 314 | -42.4 | -69.2 | 226 | 33 | |
| 2010-03-01T00:00 | 8552 | 313 | -42.6 | -69.4 | 226 | 32 | |
| 2010-03-01T00:00 | 8574 | 312 | -42.7 | -69.5 | 226 | 32 | |
| 2010-03-01T00:00 | 8596 | 311 | -42.8 | -69.6 | 227 | 32 | |
| 2010-03-01T00:00 | 8617 | 310 | -42.9 | -69.6 | 227 | 31 | |
| 2010-03-01T00:00 | 8639 | 309 | -43.0 | -69.7 | 227 | 31 | |
| 2010-03-01T00:00 | 8661 | 308 | -43.2 | -69.9 | 227 | 30 | |
| 2010-03-01T00:00 | 8683 | 307 | -43.2 | -69.9 | 227 | 30 | |
| 2010-03-01T00:00 | 8705 | 306 | -43.3 | -70.0 | 227 | 30 | |
| 2010-03-01T00:00 | 8726 | 305 | -43.4 | -70.0 | 227 | 29 | |
| 2010-03-01T00:00 | 8749 | 304 | -43.5 | -70.1 | 227 | 29 | |
| 2010-03-01T00:00 | 8770 | 303 | -43.6 | -70.2 | 226 | 28 | |
| 2010-03-01T00:00 | 8793 | 302 | -43.8 | -70.3 | 226 | 28 | |
| 2010-03-01T00:00 | 8816 | 301 | -43.8 | -70.3 | 226 | 28 | |
| 2010-03-01T00:00 | 8839 | 300 | -43.9 | -70.4 | 225 | 27 | |
| 2010-03-01T00:00 | 8862 | 299 | -44.0 | -70.5 | 225 | 27 | |
| 2010-03-01T00:00 | 8886 | 298 | -44.1 | -70.6 | 225 | 26 | |
| 2010-03-01T00:00 | 8907 | 297 | -44.3 | -70.7 | 224 | 26 | |
| 2010-03-01T00:00 | 8929 | 296 | -44.4 | -70.8 | 224 | 26 | |
| 2010-03-01T00:00 | 8950 | 295 | -44.5 | -70.9 | 224 | 26 | |
| 2010-03-01T00:00 | 8972 | 294 | -44.6 | -71.0 | 223 | 25 | |
| 2010-03-01T00:00 | 8994 | 293 | -44.8 | -71.1 | 222 | 25 | |
| 2010-03-01T00:00 | 9015 | 292 | -45.0 | -71.3 | 222 | 25 | |
| 2010-03-01T00:00 | 9038 | 291 | -45.1 | -71.4 | 221 | 24 | |
| 2010-03-01T00:00 | 9060 | 290 | -45.2 | -71.4 | 220 | 24 | |
| 2010-03-01T00:00 | 9084 | 289 | -45.2 | -71.4 | 219 | 23 | |
| 2010-03-01T00:00 | 9124 | 287 | -45.3 | -71.5 | 217 | 23 | |
| 2010-03-01T00:00 | 9153 | 286 | -45.5 | -71.7 | 215 | 22 | |
| 2010-03-01T00:00 | 9184 | 285 | -45.7 | -71.8 | 213 | 22 | |
| 2010-03-01T00:00 | 9213 | 284 | -45.9 | -72.0 | 211 | 22 | |
| 2010-03-01T00:00 | 9247 | 282 | -46.2 | -72.2 | 208 | 22 | |
| 2010-03-01T00:00 | 9274 | 281 | -46.3 | -70.4 | 206 | 23 | |
| 2010-03-01T00:00 | 9312 | 279 | -46.6 | -70.6 | 204 | 23 | |
| 2010-03-01T00:00 | 9343 | 278 | -46.7 | -70.7 | 202 | 23 | |
| 2010-03-01T00:00 | 9379 | 277 | -47.0 | -71.0 | 201 | 23 | |
| 2010-03-01T00:00 | 9400 | 276 | -47.1 | -71.0 | 199 | 23 | |
| 2010-03-01T00:00 | 9423 | 275 | -47.3 | -71.2 | 198 | 23 | |
| 2010-03-01T00:00 | 9443 | 274 | -47.3 | -71.2 | 198 | 23 | |
| 2010-03-01T00:00 | 9462 | 273 | -47.4 | -71.3 | 198 | 23 | |
| 2010-03-01T00:00 | 9483 | 272 | -47.6 | -71.4 | 198 | 23 | |
| 2010-03-01T00:00 | 9503 | 271 | -47.6 | -69.9 | 199 | 23 | |
| 2010-03-01T00:00 | 9523 | 271 | -47.6 | -69.9 | 199 | 23 | |
| 2010-03-01T00:00 | 9543 | 270 | -47.7 | -70.0 | 199 | 23 | |
| 2010-03-01T00:00 | 9564 | 269 | -47.9 | -70.2 | 199 | 24 | |
| 2010-03-01T00:00 | 9585 | 268 | -48.0 | -70.3 | 199 | 24 | |
| 2010-03-01T00:00 | 9617 | 267 | -48.1 | -70.4 | 200 | 24 | |
| 2010-03-01T00:00 | 9655 | 265 | -48.3 | -70.5 | 201 | 25 | |
| 2010-03-01T00:00 | 9680 | 264 | -48.6 | -70.8 | 204 | 25 | |
| 2010-03-01T00:00 | 9712 | 263 | -48.8 | -70.9 | 206 | 26 | |
| 2010-03-01T00:00 | 9738 | 262 | -49.1 | -69.9 | 209 | 27 | |
| 2010-03-01T00:00 | 9767 | 261 | -49.3 | -70.1 | 210 | 28 | |
| 2010-03-01T00:00 | 9790 | 260 | -49.1 | -69.9 | 212 | 28 | |
| 2010-03-01T00:00 | 9809 | 259 | -49.0 | -69.9 | 213 | 28 | |
| 2010-03-01T00:00 | 9839 | 258 | -47.7 | -70.0 | 215 | 28 | |
| 2010-03-01T00:00 | 9870 | 257 | -47.5 | -69.9 | 216 | 29 | |
| 2010-03-01T00:00 | 9909 | 255 | -47.8 | -71.6 | 218 | 29 | |
| 2010-03-01T00:00 | 9943 | 254 | -48.0 | -71.8 | 220 | 30 | |
| 2010-03-01T00:00 | 9970 | 253 | -48.1 | -71.8 | 221 | 30 | |
| 2010-03-01T00:00 | 9992 | 252 | -48.3 | -72.0 | 223 | 31 | |
| 2010-03-01T00:00 | 10011 | 251 | -48.2 | -71.9 | 224 | 31 | |
| 2010-03-01T00:00 | 10032 | 250 | -48.3 | -72.0 | 226 | 31 | |
| 2010-03-01T00:00 | 10055 | 250 | -48.3 | -72.0 | 227 | 31 | |
| 2010-03-01T00:00 | 10077 | 249 | -48.4 | -72.1 | 228 | 32 | |
| 2010-03-01T00:00 | 10099 | 248 | -48.5 | -72.2 | 229 | 32 | |
| 2010-03-01T00:00 | 10118 | 247 | -48.6 | -72.2 | 230 | 32 | |
| 2010-03-01T00:00 | 10138 | 246 | -48.7 | -74.2 | 231 | 33 | |
| 2010-03-01T00:00 | 10157 | 246 | -48.7 | -74.2 | 233 | 33 | |
| 2010-03-01T00:00 | 10176 | 245 | -48.7 | -74.2 | 234 | 33 | |
| 2010-03-01T00:00 | 10197 | 244 | -48.8 | -74.3 | 235 | 33 | |
| 2010-03-01T00:00 | 10220 | 243 | -48.6 | -74.1 | 236 | 33 | |
| 2010-03-01T00:00 | 10241 | 243 | -48.1 | -73.7 | 237 | 32 | |
| 2010-03-01T00:00 | 10263 | 242 | -47.9 | -73.6 | 238 | 32 | |
| 2010-03-01T00:00 | 10286 | 241 | -48.0 | -73.6 | 239 | 31 | |
| 2010-03-01T00:00 | 10307 | 240 | -47.9 | -73.6 | 240 | 30 | |
| 2010-03-01T00:00 | 10330 | 239 | -47.8 | -73.5 | 242 | 29 | |
| 2010-03-01T00:00 | 10356 | 238 | -47.7 | -76.0 | 243 | 28 | |
| 2010-03-01T00:00 | 10380 | 238 | -47.3 | -75.7 | 244 | 27 | |
| 2010-03-01T00:00 | 10401 | 237 | -47.2 | -75.6 | 245 | 26 | |
| 2010-03-01T00:00 | 10423 | 236 | -47.2 | -75.6 | 246 | 26 | |
| 2010-03-01T00:00 | 10444 | 235 | -46.8 | -75.3 | 247 | 25 | |
| 2010-03-01T00:00 | 10464 | 235 | -46.7 | -75.2 | 247 | 24 | |
| 2010-03-01T00:00 | 10485 | 234 | -46.5 | -75.1 | 247 | 24 | |
| 2010-03-01T00:00 | 10506 | 233 | -46.5 | -75.1 | 247 | 23 | |
| 2010-03-01T00:00 | 10525 | 232 | -46.6 | -75.2 | 246 | 23 | |
| 2010-03-01T00:00 | 10544 | 232 | -46.7 | -79.6 | 246 | 22 | |
| 2010-03-01T00:00 | 10566 | 231 | -46.7 | -79.6 | 246 | 21 | |
| 2010-03-01T00:00 | 10587 | 230 | -46.8 | -79.6 | 245 | 21 | |
| 2010-03-01T00:00 | 10606 | 230 | -46.8 | -79.6 | 245 | 20 | |
| 2010-03-01T00:00 | 10627 | 229 | -46.9 | -79.7 | 245 | 20 | |
| 2010-03-01T00:00 | 10646 | 228 | -46.9 | -79.7 | 245 | 19 | |
| 2010-03-01T00:00 | 10666 | 228 | -46.9 | -79.7 | 244 | 19 | |
| 2010-03-01T00:00 | 10686 | 227 | -47.0 | -79.8 | 244 | 19 | |
| 2010-03-01T00:00 | 10705 | 226 | -47.0 | -79.8 | 243 | 19 | |
| 2010-03-01T00:00 | 10724 | 226 | -46.9 | -79.7 | 241 | 19 | |
| 2010-03-01T00:00 | 10743 | 225 | -46.8 | -79.6 | 240 | 19 | |
| 2010-03-01T00:00 | 10762 | 224 | -46.7 | -79.6 | 238 | 19 | |
| 2010-03-01T00:00 | 10781 | 224 | -46.6 | -79.5 | 236 | 19 | |
| 2010-03-01T00:00 | 10801 | 223 | -46.5 | -79.4 | 234 | 19 | |
| 2010-03-01T00:00 | 10820 | 222 | -46.4 | -79.3 | 233 | 19 | |
| 2010-03-01T00:00 | 10839 | 222 | -46.4 | -79.3 | 233 | 19 | |
| 2010-03-01T00:00 | 10858 | 221 | -46.2 | -79.2 | 232 | 19 | |
| 2010-03-01T00:00 | 10877 | 220 | -46.0 | -79.1 | 232 | 19 | |
| 2010-03-01T00:00 | 10897 | 220 | -45.9 | -79.0 | 231 | 19 | |
| 2010-03-01T00:00 | 10916 | 219 | -45.8 | -78.9 | 230 | 19 | |
| 2010-03-01T00:00 | 10935 | 218 | -46.0 | -79.1 | 229 | 19 | |
| 2010-03-01T00:00 | 10955 | 218 | -46.1 | -79.1 | 229 | 19 | |
| 2010-03-01T00:00 | 10974 | 217 | -46.2 | -79.2 | 229 | 19 | |
| 2010-03-01T00:00 | 10994 | 217 | -46.2 | -79.2 | 230 | 19 | |
| 2010-03-01T00:00 | 11014 | 216 | -46.1 | -79.1 | 232 | 20 | |
| 2010-03-01T00:00 | 11033 | 215 | -46.1 | -79.1 | 233 | 20 | |
| 2010-03-01T00:00 | 11052 | 215 | -46.2 | -79.2 | 235 | 20 | |
| 2010-03-01T00:00 | 11072 | 214 | -46.2 | -79.2 | 237 | 20 | |
| 2010-03-01T00:00 | 11091 | 213 | -46.2 | -79.2 | 238 | 21 | |
| 2010-03-01T00:00 | 11111 | 213 | -46.3 | -79.3 | 240 | 21 | |
| 2010-03-01T00:00 | 11130 | 212 | -46.2 | -79.2 | 242 | 21 | |
| 2010-03-01T00:00 | 11147 | 212 | -46.1 | -79.1 | 243 | 21 | |
| 2010-03-01T00:00 | 11167 | 211 | -46.1 | -79.1 | 243 | 22 | |
| 2010-03-01T00:00 | 11185 | 210 | -46.1 | -79.1 | 244 | 22 | |
| 2010-03-01T00:00 | 11204 | 210 | -46.1 | -79.1 | 244 | 22 | |
| 2010-03-01T00:00 | 11224 | 209 | -46.0 | -79.1 | 244 | 22 | |
| 2010-03-01T00:00 | 11242 | 209 | -46.0 | -79.1 | 244 | 22 | |
| 2010-03-01T00:00 | 11261 | 208 | -46.0 | -79.1 | 244 | 22 | |
| 2010-03-01T00:00 | 11279 | 207 | -46.1 | -79.1 | 245 | 23 | |
| 2010-03-01T00:00 | 11300 | 207 | -46.2 | -79.2 | 246 | 23 | |
| 2010-03-01T00:00 | 11320 | 206 | -46.2 | -79.2 | 247 | 23 | |
| 2010-03-01T00:00 | 11340 | 206 | -46.1 | -79.1 | 248 | 23 | |
| 2010-03-01T00:00 | 11359 | 205 | -46.2 | -79.2 | 249 | 24 | |
| 2010-03-01T00:00 | 11378 | 204 | -46.2 | -79.2 | 249 | 24 | |
| 2010-03-01T00:00 | 11397 | 204 | -46.2 | -79.2 | 250 | 25 | |
| 2010-03-01T00:00 | 11416 | 203 | -46.1 | -79.1 | 250 | 25 | |
| 2010-03-01T00:00 | 11435 | 203 | -46.1 | -79.1 | 250 | 25 | |
| 2010-03-01T00:00 | 11455 | 202 | -46.1 | -79.1 | 250 | 25 | |
| 2010-03-01T00:00 | 11474 | 201 | -46.1 | -79.1 | 250 | 25 | |
| 2010-03-01T00:00 | 11493 | 201 | -46.2 | -79.2 | 250 | 24 | |
| 2010-03-01T00:00 | 11512 | 200 | -46.3 | -79.3 | 250 | 24 | |
| 2010-03-01T00:00 | 11532 | 200 | -46.3 | -79.3 | 250 | 24 | |
| 2010-03-01T00:00 | 11552 | 199 | -46.3 | -79.3 | 250 | 24 | |
| 2010-03-01T00:00 | 11571 | 199 | -46.4 | -79.3 | 251 | 24 | |
| 2010-03-01T00:00 | 11591 | 198 | -46.4 | -79.3 | 252 | 24 | |
| 2010-03-01T00:00 | 11609 | 197 | -46.1 | -79.1 | 252 | 25 | |
| 2010-03-01T00:00 | 11630 | 197 | -46.1 | -79.1 | 253 | 25 | |
| 2010-03-01T00:00 | 11650 | 196 | -46.0 | -79.1 | 253 | 25 | |
| 2010-03-01T00:00 | 11670 | 196 | -46.0 | -79.1 | 253 | 25 | |
| 2010-03-01T00:00 | 11690 | 195 | -46.0 | -79.1 | 253 | 25 | |
| 2010-03-01T00:00 | 11709 | 194 | -46.1 | -79.1 | 252 | 25 | |
| 2010-03-01T00:00 | 11730 | 194 | -46.2 | -79.2 | 251 | 25 | |
| 2010-03-01T00:00 | 11751 | 193 | -46.2 | -79.2 | 250 | 25 | |
| 2010-03-01T00:00 | 11771 | 193 | -46.3 | -79.3 | 249 | 25 | |
| 2010-03-01T00:00 | 11791 | 192 | -46.3 | -79.3 | 248 | 25 | |
| 2010-03-01T00:00 | 11810 | 192 | -46.2 | -79.2 | 247 | 25 | |
| 2010-03-01T00:00 | 11830 | 191 | -46.0 | -79.1 | 246 | 25 | |
| 2010-03-01T00:00 | 11853 | 190 | -45.9 | -79.0 | 245 | 25 | |
| 2010-03-01T00:00 | 11873 | 190 | -45.9 | -79.0 | 245 | 25 | |
| 2010-03-01T00:00 | 11894 | 189 | -46.0 | -79.1 | 244 | 25 | |
| 2010-03-01T00:00 | 11915 | 189 | -46.1 | -79.1 | 244 | 25 | |
| 2010-03-01T00:00 | 11936 | 188 | -46.3 | -79.3 | 245 | 25 | |
| 2010-03-01T00:00 | 11957 | 187 | -46.4 | -79.3 | 245 | 25 | |
| 2010-03-01T00:00 | 11978 | 187 | -46.5 | -79.4 | 245 | 25 | |
| 2010-03-01T00:00 | 11998 | 186 | -46.3 | -79.3 | 246 | 25 | |
| 2010-03-01T00:00 | 12019 | 186 | -46.3 | -79.3 | 247 | 25 | |
| 2010-03-01T00:00 | 12040 | 185 | -46.4 | -79.3 | 248 | 25 | |
| 2010-03-01T00:00 | 12061 | 184 | -46.6 | -79.5 | 249 | 25 | |
| 2010-03-01T00:00 | 12079 | 184 | -46.6 | -79.5 | 250 | 25 | |
| 2010-03-01T00:00 | 12098 | 183 | -46.7 | -79.6 | 252 | 25 | |
| 2010-03-01T00:00 | 12119 | 183 | -46.8 | -79.6 | 253 | 25 | |
| 2010-03-01T00:00 | 12139 | 182 | -46.9 | -79.7 | 254 | 25 | |
| 2010-03-01T00:00 | 12160 | 182 | -47.1 | -79.9 | 255 | 25 | |
| 2010-03-01T00:00 | 12182 | 181 | -47.2 | -79.9 | 255 | 25 | |
| 2010-03-01T00:00 | 12205 | 180 | -47.1 | -79.9 | 256 | 24 | |
| 2010-03-01T00:00 | 12225 | 180 | -47.2 | -79.9 | 256 | 24 | |
| 2010-03-01T00:00 | 12244 | 179 | -47.1 | -79.9 | 256 | 24 | |
| 2010-03-01T00:00 | 12264 | 179 | -47.1 | -79.9 | 256 | 24 | |
| 2010-03-01T00:00 | 12284 | 178 | -47.1 | -79.9 | 256 | 25 | |
| 2010-03-01T00:00 | 12304 | 178 | -47.3 | -80.0 | 255 | 25 | |
| 2010-03-01T00:00 | 12323 | 177 | -47.4 | -80.1 | 254 | 25 | |
| 2010-03-01T00:00 | 12342 | 177 | -47.5 | -80.2 | 254 | 25 | |
| 2010-03-01T00:00 | 12362 | 176 | -47.6 | -80.2 | 253 | 25 | |
| 2010-03-01T00:00 | 12381 | 176 | -47.8 | -80.4 | 252 | 25 | |
| 2010-03-01T00:00 | 12401 | 175 | -47.9 | -80.4 | 252 | 25 | |
| 2010-03-01T00:00 | 12421 | 175 | -48.0 | -80.5 | 251 | 25 | |
| 2010-03-01T00:00 | 12441 | 174 | -48.1 | -80.6 | 251 | 26 | |
| 2010-03-01T00:00 | 12460 | 174 | -48.2 | -80.7 | 250 | 26 | |
| 2010-03-01T00:00 | 12481 | 173 | -48.2 | -80.7 | 250 | 27 | |
| 2010-03-01T00:00 | 12501 | 173 | -48.1 | -80.6 | 250 | 27 | |
| 2010-03-01T00:00 | 12520 | 172 | -48.0 | -80.5 | 251 | 28 | |
| 2010-03-01T00:00 | 12539 | 172 | -47.8 | -80.4 | 251 | 28 | |
| 2010-03-01T00:00 | 12558 | 171 | -47.6 | -80.2 | 252 | 29 | |
| 2010-03-01T00:00 | 12578 | 171 | -47.2 | -79.9 | 253 | 29 | |
| 2010-03-01T00:00 | 12597 | 170 | -47.1 | -79.9 | 254 | 29 | |
| 2010-03-01T00:00 | 12616 | 170 | -47.2 | -79.9 | 255 | 29 | |
| 2010-03-01T00:00 | 12636 | 169 | -47.2 | -79.9 | 256 | 28 | |
| 2010-03-01T00:00 | 12655 | 169 | -47.2 | -79.9 | 256 | 28 | |
| 2010-03-01T00:00 | 12675 | 168 | -47.2 | -79.9 | 256 | 28 | |
| 2010-03-01T00:00 | 12694 | 168 | -47.1 | -79.9 | 256 | 28 | |
| 2010-03-01T00:00 | 12715 | 167 | -47.2 | -79.9 | 256 | 28 | |
| 2010-03-01T00:00 | 12735 | 167 | -47.3 | -80.0 | 255 | 27 | |
| 2010-03-01T00:00 | 12755 | 166 | -47.5 | -80.2 | 255 | 27 | |
| 2010-03-01T00:00 | 12776 | 166 | -47.6 | -80.2 | 255 | 26 | |
| 2010-03-01T00:00 | 12797 | 165 | -47.7 | -80.3 | 255 | 26 | |
| 2010-03-01T00:00 | 12817 | 165 | -47.9 | -80.4 | 254 | 26 | |
| 2010-03-01T00:00 | 12838 | 164 | -48.0 | -80.5 | 254 | 26 | |
| 2010-03-01T00:00 | 12859 | 163 | -48.0 | -80.5 | 254 | 26 | |
| 2010-03-01T00:00 | 12880 | 163 | -47.8 | -80.4 | 255 | 26 | |
| 2010-03-01T00:00 | 12900 | 162 | -47.9 | -80.4 | 255 | 25 | |
| 2010-03-01T00:00 | 12921 | 162 | -48.0 | -80.5 | 256 | 25 | |
| 2010-03-01T00:00 | 12944 | 161 | -48.1 | -80.6 | 256 | 25 | |
| 2010-03-01T00:00 | 12965 | 161 | -48.2 | -80.7 | 256 | 26 | |
| 2010-03-01T00:00 | 12988 | 160 | -48.2 | -80.7 | 256 | 26 | |
| 2010-03-01T00:00 | 13009 | 160 | -48.2 | -80.7 | 256 | 26 | |
| 2010-03-01T00:00 | 13031 | 159 | -48.1 | -80.6 | 256 | 26 | |
| 2010-03-01T00:00 | 13052 | 159 | -48.2 | -80.7 | 256 | 26 | |
| 2010-03-01T00:00 | 13074 | 158 | -48.3 | -80.7 | 257 | 25 | |
| 2010-03-01T00:00 | 13095 | 158 | -48.3 | -80.7 | 257 | 25 | |
| 2010-03-01T00:00 | 13117 | 157 | -48.5 | -80.9 | 258 | 25 | |
| 2010-03-01T00:00 | 13139 | 157 | -48.7 | -81.0 | 258 | 25 | |
| 2010-03-01T00:00 | 13159 | 156 | -48.8 | 258 | 25 | ||
| 2010-03-01T00:00 | 13182 | 156 | -48.5 | -80.9 | 257 | 25 | |
| 2010-03-01T00:00 | 13205 | 155 | -48.5 | -80.9 | 257 | 24 | |
| 2010-03-01T00:00 | 13225 | 155 | -48.6 | -81.0 | 257 | 24 | |
| 2010-03-01T00:00 | 13249 | 154 | -48.7 | -81.0 | 258 | 24 | |
| 2010-03-01T00:00 | 13274 | 153 | -48.4 | -80.8 | 258 | 24 | |
| 2010-03-01T00:00 | 13299 | 153 | -48.5 | -80.9 | 259 | 24 | |
| 2010-03-01T00:00 | 13324 | 152 | -48.7 | -81.0 | 260 | 24 | |
| 2010-03-01T00:00 | 13344 | 152 | -48.9 | -81.2 | 260 | 24 | |
| 2010-03-01T00:00 | 13367 | 151 | -49.0 | -81.3 | 261 | 24 | |
| 2010-03-01T00:00 | 13388 | 151 | -49.2 | -81.4 | 261 | 24 | |
| 2010-03-01T00:00 | 13409 | 150 | -49.4 | -81.6 | 262 | 24 | |
| 2010-03-01T00:00 | 13430 | 150 | -49.5 | -81.6 | 262 | 24 | |
| 2010-03-01T00:00 | 13451 | 149 | -49.6 | -81.7 | 263 | 24 | |
| 2010-03-01T00:00 | 13472 | 149 | -49.7 | -81.8 | 263 | 24 | |
| 2010-03-01T00:00 | 13493 | 148 | -49.5 | -81.6 | 263 | 24 | |
| 2010-03-01T00:00 | 13513 | 148 | -49.3 | -81.5 | 262 | 24 | |
| 2010-03-01T00:00 | 13532 | 148 | -49.1 | -81.3 | 262 | 24 | |
| 2010-03-01T00:00 | 13552 | 147 | -49.3 | -81.5 | 261 | 24 | |
| 2010-03-01T00:00 | 13572 | 147 | -49.2 | -81.4 | 259 | 24 | |
| 2010-03-01T00:00 | 13592 | 146 | -49.0 | -81.3 | 258 | 24 | |
| 2010-03-01T00:00 | 13613 | 146 | -49.1 | -81.3 | 257 | 24 | |
| 2010-03-01T00:00 | 13633 | 145 | -49.2 | -81.4 | 255 | 24 | |
| 2010-03-01T00:00 | 13653 | 145 | -49.4 | -81.6 | 254 | 24 | |
| 2010-03-01T00:00 | 13672 | 144 | -49.4 | -81.6 | 253 | 25 | |
| 2010-03-01T00:00 | 13691 | 144 | -49.5 | -81.6 | 252 | 25 | |
| 2010-03-01T00:00 | 13710 | 144 | -49.6 | -81.7 | 251 | 25 | |
| 2010-03-01T00:00 | 13730 | 143 | -49.7 | -81.8 | 250 | 25 | |
| 2010-03-01T00:00 | 13750 | 143 | -49.8 | -81.8 | 249 | 25 | |
| 2010-03-01T00:00 | 13769 | 142 | -49.8 | -81.8 | 249 | 25 | |
| 2010-03-01T00:00 | 13789 | 142 | -49.8 | -81.8 | 249 | 25 | |
| 2010-03-01T00:00 | 13809 | 141 | -49.6 | -81.7 | 249 | 25 | |
| 2010-03-01T00:00 | 13828 | 141 | -49.5 | -81.6 | 249 | 25 | |
| 2010-03-01T00:00 | 13846 | 141 | -49.4 | -81.6 | 250 | 25 | |
| 2010-03-01T00:00 | 13866 | 140 | -49.3 | -81.5 | 250 | 25 | |
| 2010-03-01T00:00 | 13886 | 140 | -49.3 | -81.5 | 249 | 25 | |
| 2010-03-01T00:00 | 13905 | 139 | -49.1 | -81.3 | 249 | 25 | |
| 2010-03-01T00:00 | 13926 | 139 | -49.1 | -81.3 | 249 | 25 | |
| 2010-03-01T00:00 | 13947 | 138 | -48.9 | -81.2 | 250 | 25 | |
| 2010-03-01T00:00 | 13967 | 138 | -48.2 | -80.7 | 251 | 25 | |
| 2010-03-01T00:00 | 13987 | 138 | -48.1 | -80.6 | 252 | 25 | |
| 2010-03-01T00:00 | 14008 | 137 | -48.1 | -80.6 | 254 | 25 | |
| 2010-03-01T00:00 | 14028 | 137 | -48.1 | -80.6 | 255 | 25 | |
| 2010-03-01T00:00 | 14050 | 136 | -48.1 | -80.6 | 257 | 26 | |
| 2010-03-01T00:00 | 14071 | 136 | -48.1 | -80.6 | 258 | 26 | |
| 2010-03-01T00:00 | 14092 | 135 | -48.1 | -80.6 | 259 | 26 | |
| 2010-03-01T00:00 | 14115 | 135 | -48.0 | -80.5 | 259 | 26 | |
| 2010-03-01T00:00 | 14138 | 135 | -48.0 | -80.5 | 259 | 26 | |
| 2010-03-01T00:00 | 14160 | 134 | -48.1 | -80.6 | 259 | 26 | |
| 2010-03-01T00:00 | 14184 | 134 | -48.2 | -80.7 | 258 | 26 | |
| 2010-03-01T00:00 | 14208 | 133 | -48.2 | -80.7 | 258 | 26 | |
| 2010-03-01T00:00 | 14231 | 133 | -48.3 | -80.7 | 257 | 26 | |
| 2010-03-01T00:00 | 14254 | 132 | -48.5 | -80.9 | 256 | 26 | |
| 2010-03-01T00:00 | 14277 | 132 | -48.7 | -81.0 | 255 | 26 | |
| 2010-03-01T00:00 | 14302 | 131 | -48.9 | -81.2 | 254 | 26 | |
| 2010-03-01T00:00 | 14327 | 131 | -49.2 | -81.4 | 254 | 26 | |
| 2010-03-01T00:00 | 14351 | 130 | -49.3 | -81.5 | 253 | 25 | |
| 2010-03-01T00:00 | 14374 | 130 | -49.5 | -81.6 | 253 | 25 | |
| 2010-03-01T00:00 | 14397 | 129 | -49.5 | -81.6 | 254 | 25 | |
| 2010-03-01T00:00 | 14421 | 129 | -49.5 | -81.6 | 254 | 25 | |
| 2010-03-01T00:00 | 14446 | 128 | -49.6 | -81.7 | 255 | 25 | |
| 2010-03-01T00:00 | 14469 | 128 | -49.8 | -81.8 | 256 | 25 | |
| 2010-03-01T00:00 | 14493 | 127 | -50.0 | -82.0 | 257 | 25 | |
| 2010-03-01T00:00 | 14516 | 127 | -50.1 | -82.1 | 257 | 25 | |
| 2010-03-01T00:00 | 14539 | 127 | -50.2 | -82.1 | 257 | 25 | |
| 2010-03-01T00:00 | 14563 | 126 | -50.3 | -82.2 | 257 | 24 | |
| 2010-03-01T00:00 | 14586 | 126 | -50.5 | 257 | 24 | ||
| 2010-03-01T00:00 | 14609 | 125 | -50.6 | -82.4 | 258 | 24 | |
| 2010-03-01T00:00 | 14634 | 125 | -50.6 | -82.4 | 258 | 23 | |
| 2010-03-01T00:00 | 14656 | 124 | -50.6 | -82.4 | 257 | 23 | |
| 2010-03-01T00:00 | 14679 | 124 | -50.6 | -82.4 | 257 | 22 | |
| 2010-03-01T00:00 | 14702 | 123 | -50.6 | -82.4 | 255 | 22 | |
| 2010-03-01T00:00 | 14726 | 123 | -50.6 | -82.4 | 253 | 21 | |
| 2010-03-01T00:00 | 14750 | 123 | -50.7 | -82.5 | 251 | 21 | |
| 2010-03-01T00:00 | 14774 | 122 | -50.7 | -82.5 | 250 | 21 | |
| 2010-03-01T00:00 | 14797 | 122 | -50.9 | -82.7 | 249 | 20 | |
| 2010-03-01T00:00 | 14820 | 121 | -51.0 | -82.7 | 249 | 20 | |
| 2010-03-01T00:00 | 14841 | 121 | -50.8 | -82.6 | 250 | 20 | |
| 2010-03-01T00:00 | 14864 | 120 | -50.6 | -82.4 | 252 | 20 | |
| 2010-03-01T00:00 | 14886 | 120 | -50.4 | -82.3 | 254 | 20 | |
| 2010-03-01T00:00 | 14908 | 120 | -50.4 | -82.3 | 255 | 20 | |
| 2010-03-01T00:00 | 14931 | 119 | -50.6 | -82.4 | 256 | 20 | |
| 2010-03-01T00:00 | 14953 | 119 | -50.8 | -82.6 | 256 | 20 | |
| 2010-03-01T00:00 | 14975 | 118 | -51.0 | -82.7 | 257 | 20 | |
| 2010-03-01T00:00 | 14998 | 118 | -51.3 | -82.9 | 257 | 20 | |
| 2010-03-01T00:00 | 15020 | 118 | -51.5 | -83.1 | 257 | 21 | |
| 2010-03-01T00:00 | 15043 | 117 | -51.7 | -83.2 | 258 | 21 | |
| 2010-03-01T00:00 | 15064 | 117 | -51.8 | -83.3 | 258 | 21 | |
| 2010-03-01T00:00 | 15088 | 116 | -52.1 | -83.5 | 258 | 22 | |
| 2010-03-01T00:00 | 15109 | 116 | -52.3 | -83.7 | 258 | 22 | |
| 2010-03-01T00:00 | 15130 | 116 | -52.4 | -83.8 | 258 | 22 | |
| 2010-03-01T00:00 | 15151 | 115 | -52.5 | -83.8 | 258 | 23 | |
| 2010-03-01T00:00 | 15171 | 115 | -52.5 | -83.8 | 258 | 23 | |
| 2010-03-01T00:00 | 15192 | 114 | -52.6 | -83.9 | 258 | 23 | |
| 2010-03-01T00:00 | 15213 | 114 | -52.7 | -84.0 | 258 | 22 | |
| 2010-03-01T00:00 | 15237 | 114 | -52.9 | -84.1 | 259 | 22 | |
| 2010-03-01T00:00 | 15259 | 113 | -53.0 | -84.2 | 259 | 21 | |
| 2010-03-01T00:00 | 15281 | 113 | -53.1 | -84.3 | 259 | 21 | |
| 2010-03-01T00:00 | 15306 | 112 | -53.1 | -84.3 | 260 | 20 | |
| 2010-03-01T00:00 | 15327 | 112 | -53.2 | -84.4 | 260 | 19 | |
| 2010-03-01T00:00 | 15352 | 112 | -53.4 | -84.5 | 260 | 19 | |
| 2010-03-01T00:00 | 15377 | 111 | -53.5 | -84.6 | 260 | 18 | |
| 2010-03-01T00:00 | 15401 | 111 | -53.7 | -84.7 | 260 | 18 | |
| 2010-03-01T00:00 | 15425 | 110 | -53.9 | -84.9 | 260 | 17 | |
| 2010-03-01T00:00 | 15446 | 110 | -54.0 | -84.9 | 260 | 17 | |
| 2010-03-01T00:00 | 15467 | 110 | -54.1 | -85.0 | 260 | 16 | |
| 2010-03-01T00:00 | 15490 | 109 | -54.1 | -85.0 | 260 | 16 | |
| 2010-03-01T00:00 | 15512 | 109 | -54.2 | -85.1 | 261 | 16 | |
| 2010-03-01T00:00 | 15535 | 109 | -54.2 | -85.1 | 262 | 16 | |
| 2010-03-01T00:00 | 15559 | 108 | -54.3 | -85.2 | 264 | 17 | |
| 2010-03-01T00:00 | 15586 | 108 | -54.2 | -85.1 | 266 | 17 | |
| 2010-03-01T00:00 | 15618 | 107 | -54.1 | -85.0 | 268 | 18 | |
| 2010-03-01T00:00 | 15641 | 107 | -54.2 | -85.1 | 269 | 19 | |
| 2010-03-01T00:00 | 15663 | 106 | -54.0 | -84.9 | 269 | 20 | |
| 2010-03-01T00:00 | 15683 | 106 | -54.1 | -85.0 | 270 | 20 | |
| 2010-03-01T00:00 | 15706 | 106 | -54.3 | -85.2 | 270 | 21 | |
| 2010-03-01T00:00 | 15728 | 105 | -54.4 | -85.2 | 271 | 21 | |
| 2010-03-01T00:00 | 15750 | 105 | -54.4 | -85.2 | 272 | 21 | |
| 2010-03-01T00:00 | 15772 | 105 | -54.5 | -85.3 | 273 | 21 | |
| 2010-03-01T00:00 | 15794 | 104 | -54.5 | -85.3 | 275 | 21 | |
| 2010-03-01T00:00 | 15818 | 104 | -54.6 | -85.4 | 275 | 21 | |
| 2010-03-01T00:00 | 15845 | 103 | -54.5 | -85.3 | 276 | 20 | |
| 2010-03-01T00:00 | 15874 | 103 | -54.4 | -85.2 | 276 | 19 | |
| 2010-03-01T00:00 | 15906 | 102 | -54.5 | -85.3 | 276 | 18 | |
| 2010-03-01T00:00 | 15933 | 102 | -54.6 | -85.4 | 276 | 17 | |
| 2010-03-01T00:00 | 15958 | 102 | -54.7 | -85.5 | 276 | 16 | |
| 2010-03-01T00:00 | 15981 | 101 | -54.8 | -85.5 | 274 | 16 | |
| 2010-03-01T00:00 | 16008 | 101 | -55.0 | -85.7 | 273 | 15 | |
| 2010-03-01T00:00 | 16033 | 100 | -55.0 | -85.7 | 271 | 14 | |
| 2010-03-01T00:00 | 16053 | 100 | -54.8 | -85.5 | 269 | 14 | |
| 2010-03-01T00:00 | 16074 | 100 | -54.9 | -85.6 | 267 | 14 | |
| 2010-03-01T00:00 | 16096 | 99 | -54.9 | -85.6 | 266 | 14 | |
| 2010-03-01T00:00 | 16118 | 99 | -55.0 | -85.7 | 265 | 14 | |
| 2010-03-01T00:00 | 16140 | 99 | -55.1 | -85.8 | 264 | 14 | |
| 2010-03-01T00:00 | 16162 | 98 | -55.2 | -85.8 | 263 | 14 | |
| 2010-03-01T00:00 | 16184 | 98 | -55.3 | -85.9 | 261 | 15 | |
| 2010-03-01T00:00 | 16206 | 98 | -55.3 | -85.9 | 259 | 15 | |
| 2010-03-01T00:00 | 16229 | 97 | -55.3 | -85.9 | 257 | 15 | |
| 2010-03-01T00:00 | 16251 | 97 | -55.2 | -85.8 | 254 | 15 | |
| 2010-03-01T00:00 | 16273 | 97 | -55.1 | -85.8 | 252 | 15 | |
| 2010-03-01T00:00 | 16296 | 96 | -54.9 | -85.6 | 250 | 15 | |
| 2010-03-01T00:00 | 16318 | 96 | -54.9 | -85.6 | 248 | 15 | |
| 2010-03-01T00:00 | 16341 | 96 | -55.0 | -85.7 | 246 | 15 | |
| 2010-03-01T00:00 | 16363 | 95 | -55.0 | -85.7 | 245 | 15 | |
| 2010-03-01T00:00 | 16385 | 95 | -55.0 | -85.7 | 244 | 16 | |
| 2010-03-01T00:00 | 16407 | 95 | -55.0 | -85.7 | 244 | 16 | |
| 2010-03-01T00:00 | 16428 | 94 | -55.1 | -85.8 | 243 | 16 | |
| 2010-03-01T00:00 | 16449 | 94 | -55.1 | -85.8 | 243 | 17 | |
| 2010-03-01T00:00 | 16473 | 94 | -55.1 | -85.8 | 243 | 18 | |
| 2010-03-01T00:00 | 16495 | 93 | -55.2 | -85.8 | 243 | 19 | |
| 2010-03-01T00:00 | 16516 | 93 | -55.1 | -85.8 | 244 | 19 | |
| 2010-03-01T00:00 | 16539 | 93 | -54.9 | -85.6 | 245 | 20 | |
| 2010-03-01T00:00 | 16561 | 92 | -54.6 | -85.4 | 246 | 21 | |
| 2010-03-01T00:00 | 16584 | 92 | -54.3 | -85.2 | 247 | 21 | |
| 2010-03-01T00:00 | 16605 | 92 | -54.3 | -85.2 | 247 | 22 | |
| 2010-03-01T00:00 | 16628 | 91 | -54.4 | -85.2 | 248 | 22 | |
| 2010-03-01T00:00 | 16650 | 91 | -54.5 | -85.3 | 248 | 23 | |
| 2010-03-01T00:00 | 16673 | 91 | -54.4 | -85.2 | 249 | 24 | |
| 2010-03-01T00:00 | 16696 | 91 | -54.4 | -85.2 | 249 | 25 | |
| 2010-03-01T00:00 | 16720 | 90 | -54.5 | -85.3 | 249 | 25 | |
| 2010-03-01T00:00 | 16743 | 90 | -54.5 | -85.3 | 250 | 26 | |
| 2010-03-01T00:00 | 16765 | 90 | -54.5 | -85.3 | 250 | 27 | |
| 2010-03-01T00:00 | 16788 | 89 | -54.3 | -85.2 | 251 | 28 | |
| 2010-03-01T00:00 | 16811 | 89 | -54.1 | -85.0 | 252 | 28 | |
| 2010-03-01T00:00 | 16835 | 89 | -54.2 | -85.1 | 253 | 28 | |
| 2010-03-01T00:00 | 16858 | 88 | -54.2 | -85.1 | 254 | 27 | |
| 2010-03-01T00:00 | 16887 | 88 | -53.9 | -84.9 | 255 | 26 | |
| 2010-03-01T00:00 | 16914 | 87 | -53.0 | -84.2 | 255 | 25 | |
| 2010-03-01T00:00 | 16942 | 87 | -52.9 | -84.1 | 255 | 24 | |
| 2010-03-01T00:00 | 16970 | 87 | -53.1 | -84.3 | 255 | 23 | |
| 2010-03-01T00:00 | 16996 | 86 | -53.3 | -84.4 | 255 | 23 | |
| 2010-03-01T00:00 | 17022 | 86 | -53.4 | -84.5 | 254 | 22 | |
| 2010-03-01T00:00 | 17048 | 86 | -53.6 | -84.6 | 255 | 21 | |
| 2010-03-01T00:00 | 17075 | 85 | -53.8 | -84.8 | 256 | 21 | |
| 2010-03-01T00:00 | 17098 | 85 | -54.0 | -84.9 | 257 | 21 | |
| 2010-03-01T00:00 | 17122 | 85 | -54.1 | -85.0 | 259 | 20 | |
| 2010-03-01T00:00 | 17144 | 84 | -53.9 | -84.9 | 260 | 20 | |
| 2010-03-01T00:00 | 17167 | 84 | -53.9 | -84.9 | 262 | 19 | |
| 2010-03-01T00:00 | 17189 | 84 | -53.9 | -84.9 | 264 | 19 | |
| 2010-03-01T00:00 | 17211 | 84 | -53.9 | -84.9 | 266 | 19 | |
| 2010-03-01T00:00 | 17234 | 83 | -54.0 | -84.9 | 267 | 18 | |
| 2010-03-01T00:00 | 17256 | 83 | -53.8 | -84.8 | 268 | 18 | |
| 2010-03-01T00:00 | 17278 | 83 | -53.8 | -84.8 | 270 | 17 | |
| 2010-03-01T00:00 | 17303 | 82 | -53.8 | -84.8 | 271 | 16 | |
| 2010-03-01T00:00 | 17329 | 82 | -53.4 | -84.5 | 272 | 15 | |
| 2010-03-01T00:00 | 17354 | 82 | -53.2 | -84.4 | 273 | 14 | |
| 2010-03-01T00:00 | 17377 | 81 | -53.0 | -84.2 | 273 | 14 | |
| 2010-03-01T00:00 | 17400 | 81 | -53.2 | -84.4 | 272 | 13 | |
| 2010-03-01T00:00 | 17423 | 81 | -53.3 | -84.4 | 269 | 12 | |
| 2010-03-01T00:00 | 17446 | 81 | -53.4 | -84.5 | 267 | 12 | |
| 2010-03-01T00:00 | 17470 | 80 | -53.6 | -84.6 | 264 | 12 | |
| 2010-03-01T00:00 | 17491 | 80 | -53.7 | -84.7 | 260 | 11 | |
| 2010-03-01T00:00 | 17515 | 80 | -53.7 | -84.7 | 257 | 11 | |
| 2010-03-01T00:00 | 17537 | 79 | -53.9 | -84.9 | 254 | 11 | |
| 2010-03-01T00:00 | 17559 | 79 | -54.0 | -84.9 | 252 | 11 | |
| 2010-03-01T00:00 | 17581 | 79 | -54.1 | -85.0 | 252 | 12 | |
| 2010-03-01T00:00 | 17603 | 79 | -54.1 | -85.0 | 252 | 12 | |
| 2010-03-01T00:00 | 17626 | 78 | -53.9 | -84.9 | 252 | 13 | |
| 2010-03-01T00:00 | 17648 | 78 | -53.9 | -84.9 | 252 | 13 | |
| 2010-03-01T00:00 | 17670 | 78 | -53.8 | -84.8 | 253 | 14 | |
| 2010-03-01T00:00 | 17692 | 78 | -53.9 | -84.9 | 253 | 15 | |
| 2010-03-01T00:00 | 17714 | 77 | -54.0 | -84.9 | 253 | 15 | |
| 2010-03-01T00:00 | 17738 | 77 | -54.1 | -85.0 | 253 | 16 | |
| 2010-03-01T00:00 | 17759 | 77 | -54.0 | -84.9 | 254 | 16 | |
| 2010-03-01T00:00 | 17783 | 76 | -54.1 | -85.0 | 255 | 17 | |
| 2010-03-01T00:00 | 17807 | 76 | -54.3 | -85.2 | 256 | 18 | |
| 2010-03-01T00:00 | 17831 | 76 | -54.4 | -85.2 | 257 | 18 | |
| 2010-03-01T00:00 | 17854 | 76 | -54.3 | -85.2 | 258 | 19 | |
| 2010-03-01T00:00 | 17879 | 75 | -54.4 | -85.2 | 258 | 19 | |
| 2010-03-01T00:00 | 17903 | 75 | -54.5 | -85.3 | 259 | 19 | |
| 2010-03-01T00:00 | 17926 | 75 | -54.6 | -85.4 | 260 | 20 | |
| 2010-03-01T00:00 | 17951 | 74 | -54.4 | -85.2 | 260 | 20 | |
| 2010-03-01T00:00 | 17974 | 74 | -53.8 | -84.8 | 260 | 19 | |
| 2010-03-01T00:00 | 17999 | 74 | -53.4 | -84.5 | 260 | 19 | |
| 2010-03-01T00:00 | 18022 | 74 | -53.5 | -84.6 | 260 | 19 | |
| 2010-03-01T00:00 | 18045 | 73 | -53.6 | -84.6 | 260 | 18 | |
| 2010-03-01T00:00 | 18070 | 73 | -53.7 | -84.7 | 260 | 18 | |
| 2010-03-01T00:00 | 18092 | 73 | -53.7 | -84.7 | 261 | 17 | |
| 2010-03-01T00:00 | 18117 | 73 | -53.7 | -84.7 | 261 | 17 | |
| 2010-03-01T00:00 | 18141 | 72 | -53.7 | -84.7 | 262 | 17 | |
| 2010-03-01T00:00 | 18164 | 72 | -53.6 | -84.6 | 263 | 17 | |
| 2010-03-01T00:00 | 18188 | 72 | -53.7 | -84.7 | 264 | 16 | |
| 2010-03-01T00:00 | 18212 | 71 | -54.0 | -84.9 | 265 | 17 | |
| 2010-03-01T00:00 | 18238 | 71 | -54.2 | -85.1 | 266 | 17 | |
| 2010-03-01T00:00 | 18263 | 71 | -54.4 | -85.2 | 267 | 17 | |
| 2010-03-01T00:00 | 18287 | 71 | -54.6 | -85.4 | 268 | 17 | |
| 2010-03-01T00:00 | 18310 | 70 | -54.8 | -85.5 | 269 | 17 | |
| 2010-03-01T00:00 | 18334 | 70 | -54.9 | -85.6 | 270 | 17 | |
| 2010-03-01T00:00 | 18358 | 70 | -55.1 | -85.8 | 272 | 17 | |
| 2010-03-01T00:00 | 18381 | 70 | -55.3 | -85.9 | 273 | 17 | |
| 2010-03-01T00:00 | 18404 | 69 | -55.4 | -86.0 | 274 | 17 | |
| 2010-03-01T00:00 | 18427 | 69 | -55.5 | -86.1 | 276 | 18 | |
| 2010-03-01T00:00 | 18452 | 69 | -55.6 | -86.1 | 277 | 18 | |
| 2010-03-01T00:00 | 18475 | 69 | -55.8 | -86.3 | 279 | 18 | |
| 2010-03-01T00:00 | 18501 | 68 | -55.8 | -86.3 | 280 | 19 | |
| 2010-03-01T00:00 | 18522 | 68 | -55.6 | -86.1 | 282 | 19 | |
| 2010-03-01T00:00 | 18543 | 68 | -55.5 | -86.1 | 283 | 20 | |
| 2010-03-01T00:00 | 18566 | 68 | -55.6 | -86.1 | 284 | 20 | |
| 2010-03-01T00:00 | 18589 | 67 | -55.5 | -86.1 | 285 | 21 | |
| 2010-03-01T00:00 | 18611 | 67 | -55.6 | -86.1 | 287 | 21 | |
| 2010-03-01T00:00 | 18633 | 67 | -55.8 | -86.3 | 287 | 21 | |
| 2010-03-01T00:00 | 18655 | 67 | -56.0 | -86.4 | 288 | 21 | |
| 2010-03-01T00:00 | 18677 | 66 | -56.1 | -86.5 | 289 | 21 | |
| 2010-03-01T00:00 | 18697 | 66 | -56.2 | -86.6 | 290 | 21 | |
| 2010-03-01T00:00 | 18718 | 66 | -56.1 | -86.5 | 290 | 21 | |
| 2010-03-01T00:00 | 18740 | 66 | -55.6 | -86.1 | 291 | 20 | |
| 2010-03-01T00:00 | 18762 | 66 | -55.5 | -86.1 | 290 | 19 | |
| 2010-03-01T00:00 | 18785 | 65 | -55.5 | -86.1 | 289 | 19 | |
| 2010-03-01T00:00 | 18805 | 65 | -55.5 | -86.1 | 288 | 18 | |
| 2010-03-01T00:00 | 18828 | 65 | -55.6 | -86.1 | 287 | 18 | |
| 2010-03-01T00:00 | 18848 | 65 | -55.6 | -86.1 | 285 | 17 | |
| 2010-03-01T00:00 | 18870 | 64 | -55.7 | -86.2 | 284 | 17 | |
| 2010-03-01T00:00 | 18892 | 64 | -55.8 | -86.3 | 283 | 17 | |
| 2010-03-01T00:00 | 18912 | 64 | -55.9 | -86.3 | 282 | 17 | |
| 2010-03-01T00:00 | 18933 | 64 | -56.1 | -86.5 | 281 | 17 | |
| 2010-03-01T00:00 | 18954 | 64 | -56.3 | -86.6 | 281 | 17 | |
| 2010-03-01T00:00 | 18975 | 63 | -56.3 | -86.6 | 282 | 17 | |
| 2010-03-01T00:00 | 18995 | 63 | -56.0 | -86.4 | 284 | 16 | |
| 2010-03-01T00:00 | 19018 | 63 | -55.6 | -86.1 | 286 | 16 | |
| 2010-03-01T00:00 | 19041 | 63 | -55.6 | -86.1 | 289 | 15 | |
| 2010-03-01T00:00 | 19064 | 63 | -55.5 | -86.1 | 292 | 15 | |
| 2010-03-01T00:00 | 19085 | 62 | -55.6 | -86.1 | 295 | 14 | |
| 2010-03-01T00:00 | 19108 | 62 | -55.7 | -86.2 | 297 | 14 | |
| 2010-03-01T00:00 | 19128 | 62 | -55.7 | -86.2 | 300 | 14 | |
| 2010-03-01T00:00 | 19151 | 62 | -55.8 | -86.3 | 302 | 13 | |
| 2010-03-01T00:00 | 19170 | 61 | -55.7 | -86.2 | 303 | 13 | |
| 2010-03-01T00:00 | 19192 | 61 | -55.8 | -86.3 | 304 | 12 | |
| 2010-03-01T00:00 | 19213 | 61 | -55.8 | -86.3 | 304 | 12 | |
| 2010-03-01T00:00 | 19236 | 61 | -55.8 | -86.3 | 303 | 11 | |
| 2010-03-01T00:00 | 19257 | 61 | -55.6 | -86.1 | 302 | 11 | |
| 2010-03-01T00:00 | 19279 | 60 | -55.4 | -86.0 | 302 | 10 | |
| 2010-03-01T00:00 | 19300 | 60 | -55.4 | -86.0 | 300 | 10 | |
| 2010-03-01T00:00 | 19322 | 60 | -55.6 | -86.1 | 299 | 9 | |
| 2010-03-01T00:00 | 19345 | 60 | -55.6 | -86.1 | 297 | 9 | |
| 2010-03-01T00:00 | 19367 | 60 | -54.7 | -85.5 | 296 | 8 | |
| 2010-03-01T00:00 | 19390 | 59 | -54.3 | -85.2 | 294 | 8 | |
| 2010-03-01T00:00 | 19410 | 59 | -54.1 | -85.0 | 293 | 8 | |
| 2010-03-01T00:00 | 19432 | 59 | -53.9 | -84.9 | 293 | 8 | |
| 2010-03-01T00:00 | 19454 | 59 | -53.6 | -84.6 | 294 | 7 | |
| 2010-03-01T00:00 | 19477 | 59 | -53.7 | -84.7 | 294 | 7 | |
| 2010-03-01T00:00 | 19499 | 58 | -53.7 | -84.7 | 296 | 6 | |
| 2010-03-01T00:00 | 19521 | 58 | -53.6 | -84.6 | 297 | 6 | |
| 2010-03-01T00:00 | 19544 | 58 | -53.5 | -84.6 | 299 | 5 | |
| 2010-03-01T00:00 | 19568 | 58 | -53.5 | -84.6 | 300 | 4 | |
| 2010-03-01T00:00 | 19590 | 58 | -53.6 | -84.6 | 300 | 4 | |
| 2010-03-01T00:00 | 19613 | 57 | -53.7 | -84.7 | 298 | 3 | |
| 2010-03-01T00:00 | 19636 | 57 | -53.9 | -84.9 | 293 | 3 | |
| 2010-03-01T00:00 | 19659 | 57 | -54.0 | -84.9 | 286 | 3 | |
| 2010-03-01T00:00 | 19683 | 57 | -54.2 | -85.1 | 275 | 3 | |
| 2010-03-01T00:00 | 19706 | 57 | -54.4 | -85.2 | 264 | 3 | |
| 2010-03-01T00:00 | 19730 | 56 | -54.5 | -85.3 | 251 | 3 | |
| 2010-03-01T00:00 | 19754 | 56 | -54.6 | -85.4 | 240 | 4 | |
| 2010-03-01T00:00 | 19778 | 56 | -54.6 | -85.4 | 230 | 4 | |
| 2010-03-01T00:00 | 19801 | 56 | -54.5 | -85.3 | 223 | 5 | |
| 2010-03-01T00:00 | 19824 | 56 | -54.5 | -85.3 | 218 | 5 | |
| 2010-03-01T00:00 | 19847 | 55 | -54.5 | -85.3 | 215 | 6 | |
| 2010-03-01T00:00 | 19871 | 55 | -54.5 | -85.3 | 214 | 7 | |
| 2010-03-01T00:00 | 19893 | 55 | -54.5 | -85.3 | 213 | 7 | |
| 2010-03-01T00:00 | 19914 | 55 | -54.6 | -85.4 | 214 | 7 | |
| 2010-03-01T00:00 | 19937 | 55 | -54.6 | -85.4 | 214 | 8 | |
| 2010-03-01T00:00 | 19958 | 54 | -54.7 | -85.5 | 215 | 8 | |
| 2010-03-01T00:00 | 19979 | 54 | -54.7 | -85.5 | 217 | 7 | |
| 2010-03-01T00:00 | 20003 | 54 | -54.7 | -85.5 | 219 | 7 | |
| 2010-03-01T00:00 | 20024 | 54 | -54.5 | -85.3 | 221 | 6 | |
| 2010-03-01T00:00 | 20046 | 54 | -54.5 | -85.3 | 223 | 6 | |
| 2010-03-01T00:00 | 20068 | 53 | -54.5 | -85.3 | 225 | 6 | |
| 2010-03-01T00:00 | 20090 | 53 | -54.5 | -85.3 | 227 | 6 | |
| 2010-03-01T00:00 | 20110 | 53 | -54.5 | -85.3 | 228 | 6 | |
| 2010-03-01T00:00 | 20134 | 53 | -54.6 | -85.4 | 229 | 6 | |
| 2010-03-01T00:00 | 20157 | 53 | -54.6 | -85.4 | 230 | 6 | |
| 2010-03-01T00:00 | 20179 | 53 | -54.8 | -85.5 | 231 | 6 | |
| 2010-03-01T00:00 | 20202 | 52 | -55.0 | -85.7 | 232 | 6 | |
| 2010-03-01T00:00 | 20226 | 52 | -55.2 | -85.8 | 234 | 6 | |
| 2010-03-01T00:00 | 20249 | 52 | -55.2 | -85.8 | 236 | 5 | |
| 2010-03-01T00:00 | 20273 | 52 | -55.3 | -85.9 | 238 | 5 | |
| 2010-03-01T00:00 | 20298 | 52 | -55.4 | -86.0 | 240 | 5 | |
| 2010-03-01T00:00 | 20322 | 51 | -55.5 | -86.1 | 242 | 5 | |
| 2010-03-01T00:00 | 20344 | 51 | -55.5 | -86.1 | 244 | 5 | |
| 2010-03-01T00:00 | 20369 | 51 | -55.7 | -86.2 | 245 | 5 | |
| 2010-03-01T00:00 | 20393 | 51 | -55.9 | -86.3 | 245 | 6 | |
| 2010-03-01T00:00 | 20418 | 51 | -55.9 | -86.3 | 245 | 6 | |
| 2010-03-01T00:00 | 20442 | 50 | -56.0 | -86.4 | 245 | 6 | |
| 2010-03-01T00:00 | 20466 | 50 | -56.1 | -86.5 | 244 | 6 | |
| 2010-03-01T00:00 | 20488 | 50 | -56.0 | -86.4 | 243 | 6 | |
| 2010-03-01T00:00 | 20512 | 50 | -56.1 | -86.5 | 241 | 6 | |
| 2010-03-01T00:00 | 20536 | 50 | -56.1 | -86.5 | 238 | 6 | |
| 2010-03-01T00:00 | 20560 | 49 | -56.1 | -86.5 | 235 | 6 | |
| 2010-03-01T00:00 | 20584 | 49 | -56.1 | -86.5 | 232 | 6 | |
| 2010-03-01T00:00 | 20608 | 49 | -56.0 | -86.4 | 229 | 6 | |
| 2010-03-01T00:00 | 20632 | 49 | -56.2 | -86.6 | 228 | 6 | |
| 2010-03-01T00:00 | 20655 | 49 | -56.3 | -86.6 | 228 | 6 | |
| 2010-03-01T00:00 | 20679 | 49 | -56.5 | -86.8 | 230 | 6 | |
| 2010-03-01T00:00 | 20704 | 48 | -56.6 | -86.9 | 231 | 7 | |
| 2010-03-01T00:00 | 20727 | 48 | -56.9 | -87.1 | 233 | 7 | |
| 2010-03-01T00:00 | 20752 | 48 | -57.1 | -87.2 | 233 | 7 | |
| 2010-03-01T00:00 | 20776 | 48 | -57.3 | -87.4 | 234 | 7 | |
| 2010-03-01T00:00 | 20798 | 48 | -57.4 | -87.5 | 234 | 8 | |
| 2010-03-01T00:00 | 20823 | 47 | -57.4 | -87.5 | 234 | 8 | |
| 2010-03-01T00:00 | 20849 | 47 | -57.5 | -87.5 | 234 | 7 | |
| 2010-03-01T00:00 | 20872 | 47 | -57.5 | -87.5 | 234 | 7 | |
| 2010-03-01T00:00 | 20896 | 47 | -57.5 | -87.5 | 234 | 7 | |
| 2010-03-01T00:00 | 20918 | 47 | -57.4 | -87.5 | 234 | 6 | |
| 2010-03-01T00:00 | 20942 | 47 | -57.5 | -87.5 | 235 | 6 | |
| 2010-03-01T00:00 | 20965 | 46 | -57.4 | -87.5 | 235 | 5 | |
| 2010-03-01T00:00 | 20988 | 46 | -57.2 | -87.3 | 236 | 5 | |
| 2010-03-01T00:00 | 21010 | 46 | -57.2 | -87.3 | 235 | 4 | |
| 2010-03-01T00:00 | 21034 | 46 | -57.0 | -87.2 | 234 | 4 | |
| 2010-03-01T00:00 | 21059 | 46 | -57.1 | -87.2 | 229 | 3 | |
| 2010-03-01T00:00 | 21083 | 46 | -57.1 | -87.2 | 223 | 3 | |
| 2010-03-01T00:00 | 21108 | 45 | -57.1 | -87.2 | 215 | 2 | |
| 2010-03-01T00:00 | 21134 | 45 | -57.3 | -87.4 | 206 | 2 | |
| 2010-03-01T00:00 | 21157 | 45 | -57.5 | -87.5 | 196 | 2 | |
| 2010-03-01T00:00 | 21179 | 45 | -57.7 | -87.7 | 187 | 2 | |
| 2010-03-01T00:00 | 21203 | 45 | -57.8 | -87.8 | 177 | 2 | |
| 2010-03-01T00:00 | 21225 | 45 | -57.9 | -87.8 | 169 | 2 | |
| 2010-03-01T00:00 | 21249 | 44 | -58.1 | -88.0 | 161 | 2 | |
| 2010-03-01T00:00 | 21273 | 44 | -58.3 | -88.1 | 154 | 3 | |
| 2010-03-01T00:00 | 21299 | 44 | -58.4 | -88.2 | 148 | 3 | |
| 2010-03-01T00:00 | 21323 | 44 | -58.5 | -88.3 | 145 | 3 | |
| 2010-03-01T00:00 | 21343 | 44 | -58.4 | -88.2 | 146 | 3 | |
| 2010-03-01T00:00 | 21368 | 44 | -58.5 | -88.3 | 152 | 3 | |
| 2010-03-01T00:00 | 21390 | 43 | -58.5 | -88.3 | 162 | 3 | |
| 2010-03-01T00:00 | 21415 | 43 | -58.2 | -88.1 | 173 | 4 | |
| 2010-03-01T00:00 | 21439 | 43 | -57.9 | -87.8 | 183 | 4 | |
| 2010-03-01T00:00 | 21464 | 43 | -58.0 | -87.9 | 191 | 5 | |
| 2010-03-01T00:00 | 21489 | 43 | -58.2 | -88.1 | 197 | 5 | |
| 2010-03-01T00:00 | 21514 | 43 | -58.2 | -88.1 | 202 | 6 | |
| 2010-03-01T00:00 | 21541 | 42 | -58.4 | -88.2 | 207 | 6 | |
| 2010-03-01T00:00 | 21563 | 42 | -58.5 | -88.3 | 213 | 7 | |
| 2010-03-01T00:00 | 21586 | 42 | -58.5 | -88.3 | 218 | 7 | |
| 2010-03-01T00:00 | 21612 | 42 | -58.4 | -88.2 | 224 | 8 | |
| 2010-03-01T00:00 | 21638 | 42 | -58.3 | -88.1 | 230 | 8 | |
| 2010-03-01T00:00 | 21661 | 42 | -58.2 | -88.1 | 235 | 8 | |
| 2010-03-01T00:00 | 21686 | 41 | -58.2 | -88.1 | 240 | 8 | |
| 2010-03-01T00:00 | 21708 | 41 | -57.9 | -87.8 | 244 | 7 | |
| 2010-03-01T00:00 | 21731 | 41 | -57.4 | -87.5 | 248 | 7 | |
| 2010-03-01T00:00 | 21757 | 41 | -57.2 | -87.3 | 249 | 6 | |
| 2010-03-01T00:00 | 21781 | 41 | -57.1 | -87.2 | 250 | 6 | |
| 2010-03-01T00:00 | 21806 | 41 | -57.0 | -87.2 | 251 | 6 | |
| 2010-03-01T00:00 | 21830 | 40 | -57.0 | -87.2 | 252 | 6 | |
| 2010-03-01T00:00 | 21853 | 40 | -56.7 | -86.9 | 254 | 6 | |
| 2010-03-01T00:00 | 21879 | 40 | -56.4 | 256 | 6 | ||
| 2010-03-01T00:00 | 21904 | 40 | -56.2 | -86.6 | 258 | 6 | |
| 2010-03-01T00:00 | 21926 | 40 | -56.1 | -86.5 | 261 | 6 | |
| 2010-03-01T00:00 | 21951 | 40 | -56.1 | -86.5 | 263 | 5 | |
| 2010-03-01T00:00 | 21975 | 40 | -56.1 | -86.5 | 266 | 5 | |
| 2010-03-01T00:00 | 22000 | 39 | -56.1 | -86.5 | 268 | 5 | |
| 2010-03-01T00:00 | 22024 | 39 | -56.1 | -86.5 | 269 | 5 | |
| 2010-03-01T00:00 | 22050 | 39 | -56.1 | -86.5 | 269 | 4 | |
| 2010-03-01T00:00 | 22074 | 39 | -56.1 | -86.5 | 267 | 4 | |
| 2010-03-01T00:00 | 22097 | 39 | -56.2 | -86.6 | 264 | 4 | |
| 2010-03-01T00:00 | 22119 | 39 | -56.3 | -86.6 | 260 | 3 | |
| 2010-03-01T00:00 | 22146 | 39 | -56.4 | 255 | 3 | ||
| 2010-03-01T00:00 | 22170 | 38 | -56.5 | -86.8 | 249 | 2 | |
| 2010-03-01T00:00 | 22194 | 38 | -56.6 | -86.9 | 243 | 2 | |
| 2010-03-01T00:00 | 22220 | 38 | -56.6 | -86.9 | 238 | 2 | |
| 2010-03-01T00:00 | 22247 | 38 | -56.6 | -86.9 | 235 | 2 | |
| 2010-03-01T00:00 | 22270 | 38 | -56.8 | -87.0 | 234 | 2 | |
| 2010-03-01T00:00 | 22294 | 38 | -57.0 | -87.2 | 235 | 2 | |
| 2010-03-01T00:00 | 22318 | 37 | -57.0 | -87.2 | 238 | 3 | |
| 2010-03-01T00:00 | 22343 | 37 | -57.0 | -87.2 | 241 | 3 | |
| 2010-03-01T00:00 | 22366 | 37 | -57.0 | -87.2 | 245 | 3 | |
| 2010-03-01T00:00 | 22390 | 37 | -56.9 | -87.1 | 250 | 4 | |
| 2010-03-01T00:00 | 22415 | 37 | -57.0 | -87.2 | 255 | 4 | |
| 2010-03-01T00:00 | 22440 | 37 | -57.0 | -87.2 | 261 | 5 | |
| 2010-03-01T00:00 | 22463 | 37 | -57.0 | -87.2 | 266 | 5 | |
| 2010-03-01T00:00 | 22490 | 36 | -57.2 | -87.3 | 270 | 5 | |
| 2010-03-01T00:00 | 22515 | 36 | -57.1 | -87.2 | 274 | 5 | |
| 2010-03-01T00:00 | 22538 | 36 | -57.0 | -87.2 | 278 | 4 | |
| 2010-03-01T00:00 | 22565 | 36 | -57.0 | -87.2 | 281 | 4 | |
| 2010-03-01T00:00 | 22591 | 36 | -56.9 | -87.1 | 285 | 3 | |
| 2010-03-01T00:00 | 22615 | 36 | -56.9 | -87.1 | 289 | 3 | |
| 2010-03-01T00:00 | 22640 | 36 | -57.1 | -87.2 | 293 | 2 | |
| 2010-03-01T00:00 | 22666 | 35 | -57.3 | -87.4 | 296 | 2 | |
| 2010-03-01T00:00 | 22690 | 35 | -57.5 | -87.5 | 300 | 1 | |
| 2010-03-01T00:00 | 22715 | 35 | -57.6 | -87.6 | 298 | 1 | |
| 2010-03-01T00:00 | 22741 | 35 | -57.6 | -87.6 | 0 | 0 | |
| 2010-03-01T00:00 | 22767 | 35 | -57.7 | -87.7 | 0 | 0 | |
| 2010-03-01T00:00 | 22791 | 35 | -57.7 | -87.7 | 0 | 0 | |
| 2010-03-01T00:00 | 22819 | 35 | -57.8 | -87.8 | 0 | 0 | |
| 2010-03-01T00:00 | 22843 | 34 | -57.8 | -87.8 | 326 | 1 | |
| 2010-03-01T00:00 | 22870 | 34 | -57.8 | -87.8 | 345 | 1 | |
| 2010-03-01T00:00 | 22898 | 34 | -57.6 | -87.6 | 357 | 1 | |
| 2010-03-01T00:00 | 22920 | 34 | -57.5 | -87.5 | 8 | 1 | |
| 2010-03-01T00:00 | 22946 | 34 | -57.5 | -87.5 | 22 | 1 | |
| 2010-03-01T00:00 | 22974 | 34 | -57.5 | -87.5 | 49 | 1 | |
| 2010-03-01T00:00 | 23000 | 34 | -57.7 | -87.7 | 102 | 1 | |
| 2010-03-01T00:00 | 23026 | 34 | -57.9 | -87.8 | 134 | 1 | |
| 2010-03-01T00:00 | 23051 | 33 | -58.1 | -88.0 | 143 | 1 | |
| 2010-03-01T00:00 | 23079 | 33 | -58.2 | -88.1 | 146 | 2 | |
| 2010-03-01T00:00 | 23104 | 33 | -58.4 | -88.2 | 146 | 2 | |
| 2010-03-01T00:00 | 23128 | 33 | -58.6 | -88.4 | 147 | 2 | |
| 2010-03-01T00:00 | 23156 | 33 | -58.6 | -88.4 | 149 | 2 | |
| 2010-03-01T00:00 | 23179 | 33 | -58.6 | -88.4 | 154 | 2 | |
| 2010-03-01T00:00 | 23206 | 33 | -58.7 | -88.4 | 160 | 2 | |
| 2010-03-01T00:00 | 23232 | 32 | -58.8 | -88.5 | 168 | 2 | |
| 2010-03-01T00:00 | 23257 | 32 | -58.9 | -88.6 | 177 | 2 | |
| 2010-03-01T00:00 | 23285 | 32 | -59.0 | -88.7 | 185 | 2 | |
| 2010-03-01T00:00 | 23310 | 32 | -59.2 | -88.8 | 193 | 2 | |
| 2010-03-01T00:00 | 23336 | 32 | -59.3 | -88.9 | 200 | 2 | |
| 2010-03-01T00:00 | 23363 | 32 | -59.4 | -89.0 | 206 | 2 | |
| 2010-03-01T00:00 | 23389 | 32 | -59.4 | -89.0 | 209 | 2 | |
| 2010-03-01T00:00 | 23415 | 31 | -59.4 | -89.0 | 212 | 2 | |
| 2010-03-01T00:00 | 23441 | 31 | -59.4 | -89.0 | 215 | 1 | |
| 2010-03-01T00:00 | 23465 | 31 | -59.5 | -89.0 | 218 | 1 | |
| 2010-03-01T00:00 | 23494 | 31 | -59.6 | -89.1 | 221 | 1 | |
| 2010-03-01T00:00 | 23518 | 31 | -59.6 | -89.1 | 0 | 0 | |
| 2010-03-01T00:00 | 23546 | 31 | -59.7 | -89.2 | 0 | 0 | |
| 2010-03-01T00:00 | 23572 | 31 | -59.7 | -89.2 | 0 | 0 | |
| 2010-03-01T00:00 | 23597 | 31 | -59.6 | -89.1 | 360 | 1 | |
| 2010-03-01T00:00 | 23625 | 30 | -59.6 | -89.1 | 78 | 1 | |
| 2010-03-01T00:00 | 23649 | 30 | -59.7 | -89.2 | 92 | 1 | |
| 2010-03-01T00:00 | 23676 | 30 | -59.9 | -89.3 | 114 | 1 | |
| 2010-03-01T00:00 | 23702 | 30 | -60.1 | -89.5 | 134 | 1 | |
| 2010-03-01T00:00 | 23728 | 30 | -60.3 | -89.6 | 148 | 1 | |
| 2010-03-01T00:00 | 23753 | 30 | -60.5 | -89.8 | 158 | 2 | |
| 2010-03-01T00:00 | 23781 | 30 | -60.5 | -89.8 | 166 | 2 | |
| 2010-03-01T00:00 | 23803 | 30 | -60.6 | -89.8 | 171 | 2 | |
| 2010-03-01T00:00 | 23831 | 29 | -60.8 | -90.0 | 174 | 3 | |
| 2010-03-01T00:00 | 23857 | 29 | -60.6 | -89.8 | 176 | 3 | |
| 2010-03-01T00:00 | 23880 | 29 | -60.2 | -89.5 | 178 | 3 | |
| 2010-03-01T00:00 | 23908 | 29 | -60.1 | -89.5 | 180 | 2 | |
| 2010-03-01T00:00 | 23933 | 29 | -60.2 | -89.5 | 183 | 2 | |
| 2010-03-01T00:00 | 23955 | 29 | -60.2 | -89.5 | 189 | 1 | |
| 2010-03-01T00:00 | 23981 | 29 | -60.2 | -89.5 | 195 | 1 | |
| 2010-03-01T00:00 | 24004 | 29 | -60.1 | -89.5 | 199 | 1 | |
| 2010-03-01T00:00 | 24027 | 29 | -59.9 | -89.3 | 196 | 1 | |
| 2010-03-01T00:00 | 24055 | 28 | -60.0 | -89.4 | 187 | 1 | |
| 2010-03-01T00:00 | 24080 | 28 | -60.1 | -89.5 | 176 | 1 | |
| 2010-03-01T00:00 | 24104 | 28 | -60.1 | -89.5 | 162 | 1 | |
| 2010-03-01T00:00 | 24127 | 28 | -60.2 | -89.5 | 360 | 1 | |
| 2010-03-01T00:00 | 24153 | 28 | -60.2 | -89.5 | 360 | 1 | |
| 2010-03-01T00:00 | 24177 | 28 | -60.2 | -89.5 | 65 | 1 | |
| 2010-03-01T00:00 | 24200 | 28 | -60.1 | -89.5 | 62 | 1 | |
| 2010-03-01T00:00 | 24225 | 28 | -60.2 | -89.5 | 69 | 1 | |
| 2010-03-01T00:00 | 24248 | 28 | -60.2 | -89.5 | 83 | 1 | |
| 2010-03-01T00:00 | 24271 | 27 | -60.2 | -89.5 | 98 | 1 | |
| 2010-03-01T00:00 | 24295 | 27 | -60.2 | -89.5 | 109 | 1 | |
| 2010-03-01T00:00 | 24321 | 27 | -60.1 | -89.5 | 117 | 2 | |
| 2010-03-01T00:00 | 24343 | 27 | -59.8 | -89.2 | 123 | 2 | |
| 2010-03-01T00:00 | 24371 | 27 | -59.4 | -89.0 | 126 | 2 | |
| 2010-03-01T00:00 | 24395 | 27 | -59.3 | -88.9 | 129 | 2 | |
| 2010-03-01T00:00 | 24421 | 27 | -59.3 | -88.9 | 130 | 2 | |
| 2010-03-01T00:00 | 24442 | 27 | -59.3 | -88.9 | 130 | 2 | |
| 2010-03-01T00:00 | 24465 | 27 | -59.4 | -89.0 | 124 | 1 | |
| 2010-03-01T00:00 | 24492 | 27 | -59.4 | -89.0 | 109 | 1 | |
| 2010-03-01T00:00 | 24516 | 26 | -59.3 | -88.9 | 82 | 1 | |
| 2010-03-01T00:00 | 24544 | 26 | -59.1 | -88.7 | 67 | 1 | |
| 2010-03-01T00:00 | 24567 | 26 | -59.1 | -88.7 | 69 | 1 | |
| 2010-03-01T00:00 | 24591 | 26 | -58.9 | -88.6 | 76 | 2 | |
| 2010-03-01T00:00 | 24615 | 26 | -58.9 | -88.6 | 83 | 3 | |
| 2010-03-01T00:00 | 24641 | 26 | -59.0 | -88.7 | 88 | 3 | |
| 2010-03-01T00:00 | 24667 | 26 | -59.1 | -88.7 | 91 | 4 | |
| 2010-03-01T00:00 | 24691 | 26 | -59.3 | -88.9 | 94 | 4 | |
| 2010-03-01T00:00 | 24716 | 26 | -59.5 | -89.0 | 96 | 4 | |
| 2010-03-01T00:00 | 24743 | 25 | -59.5 | -89.0 | 98 | 4 | |
| 2010-03-01T00:00 | 24768 | 25 | -59.4 | -89.0 | 98 | 5 | |
| 2010-03-01T00:00 | 24792 | 25 | -59.2 | -88.8 | 97 | 5 | |
| 2010-03-01T00:00 | 24817 | 25 | -59.2 | -88.8 | 95 | 5 | |
| 2010-03-01T00:00 | 24844 | 25 | -59.2 | -88.8 | 92 | 5 | |
| 2010-03-01T00:00 | 24869 | 25 | -59.0 | -88.7 | 89 | 5 | |
| 2010-03-01T00:00 | 24894 | 25 | -58.9 | -88.6 | 86 | 5 | |
| 2010-03-01T00:00 | 24919 | 25 | -58.7 | -88.4 | 86 | 6 | |
| 2010-03-01T00:00 | 24947 | 25 | -58.6 | -88.4 | 88 | 6 | |
| 2010-03-01T00:00 | 24973 | 25 | -58.5 | -88.3 | 92 | 6 | |
| 2010-03-01T00:00 | 24999 | 24 | -58.7 | -88.4 | 99 | 5 | |
| 2010-03-01T00:00 | 25027 | 24 | -58.6 | -88.4 | 106 | 5 | |
| 2010-03-01T00:00 | 25053 | 24 | -58.2 | -88.1 | 114 | 5 | |
| 2010-03-01T00:00 | 25079 | 24 | -58.4 | -88.2 | 120 | 5 | |
| 2010-03-01T00:00 | 25107 | 24 | -58.5 | -88.3 | 125 | 5 | |
| 2010-03-01T00:00 | 25134 | 24 | -58.5 | -88.3 | 128 | 5 | |
| 2010-03-01T00:00 | 25161 | 24 | -58.3 | -88.1 | 128 | 5 | |
| 2010-03-01T00:00 | 25188 | 24 | -58.2 | -88.1 | 128 | 4 | |
| 2010-03-01T00:00 | 25213 | 24 | -58.2 | -88.1 | 127 | 4 | |
| 2010-03-01T00:00 | 25238 | 24 | -58.1 | -88.0 | 126 | 4 | |
| 2010-03-01T00:00 | 25266 | 23 | -58.1 | -88.0 | 124 | 5 | |
| 2010-03-01T00:00 | 25295 | 23 | -58.1 | -88.0 | 123 | 5 | |
| 2010-03-01T00:00 | 25321 | 23 | -58.3 | -88.1 | 121 | 5 | |
| 2010-03-01T00:00 | 25348 | 23 | -58.3 | -88.1 | 120 | 5 | |
| 2010-03-01T00:00 | 25377 | 23 | -58.5 | -88.3 | 119 | 5 | |
| 2010-03-01T00:00 | 25405 | 23 | -58.6 | -88.4 | 119 | 5 | |
| 2010-03-01T00:00 | 25432 | 23 | -58.6 | -88.4 | 118 | 5 | |
| 2010-03-01T00:00 | 25456 | 23 | -58.6 | -88.4 | 116 | 5 | |
| 2010-03-01T00:00 | 25484 | 23 | -58.6 | -88.4 | 113 | 5 | |
| 2010-03-01T00:00 | 25515 | 23 | -58.8 | -88.5 | 110 | 5 | |
| 2010-03-01T00:00 | 25542 | 22 | -58.8 | -88.5 | 107 | 5 | |
| 2010-03-01T00:00 | 25567 | 22 | -58.7 | -88.4 | 105 | 6 | |
| 2010-03-01T00:00 | 25595 | 22 | -58.3 | -88.1 | 103 | 6 | |
| 2010-03-01T00:00 | 25626 | 22 | -58.4 | -88.2 | 102 | 7 | |
| 2010-03-01T00:00 | 25651 | 22 | -58.6 | -88.4 | 102 | 7 | |
| 2010-03-01T00:00 | 25678 | 22 | -58.8 | -88.5 | 103 | 8 | |
| 2010-03-01T00:00 | 25701 | 22 | -58.7 | -88.4 | 104 | 8 | |
| 2010-03-01T00:00 | 25727 | 22 | -58.7 | -88.4 | 107 | 8 | |
| 2010-03-01T00:00 | 25754 | 22 | -58.7 | -88.4 | 111 | 8 | |
| 2010-03-01T00:00 | 25781 | 22 | -58.7 | -88.4 | 115 | 9 | |
| 2010-03-01T00:00 | 25807 | 22 | -58.6 | -88.4 | 119 | 9 | |
| 2010-03-01T00:00 | 25832 | 21 | -58.7 | -88.4 | 123 | 9 | |
| 2010-03-01T00:00 | 25858 | 21 | -58.7 | -88.4 | 125 | 10 | |
| 2010-03-01T00:00 | 25888 | 21 | -58.7 | -88.4 | 126 | 10 | |
| 2010-03-01T00:00 | 25911 | 21 | -58.8 | -88.5 | 127 | 10 | |
| 2010-03-01T00:00 | 25940 | 21 | -58.9 | -88.6 | 128 | 10 | |
| 2010-03-01T00:00 | 25964 | 21 | -59.0 | -88.7 | 129 | 9 | |
| 2010-03-01T00:00 | 25990 | 21 | -59.2 | -88.8 | 130 | 9 | |
| 2010-03-01T00:00 | 26017 | 21 | -59.2 | -88.8 | 131 | 9 | |
| 2010-03-01T00:00 | 26043 | 21 | -59.2 | -88.8 | 131 | 9 | |
| 2010-03-01T00:00 | 26070 | 21 | -59.1 | -88.7 | 131 | 9 | |
| 2010-03-01T00:00 | 26095 | 21 | -59.1 | -88.7 | 131 | 9 | |
| 2010-03-01T00:00 | 26119 | 20 | -59.1 | -88.7 | 131 | 10 | |
| 2010-03-01T00:00 | 26148 | 20 | -59.0 | -88.7 | 132 | 10 | |
| 2010-03-01T00:00 | 26174 | 20 | -59.0 | -88.7 | 134 | 10 | |
| 2010-03-01T00:00 | 26197 | 20 | -59.1 | -88.7 | 135 | 9 | |
| 2010-03-01T00:00 | 26225 | 20 | -59.1 | -88.7 | 135 | 9 | |
| 2010-03-01T00:00 | 26250 | 20 | -59.2 | -88.8 | 135 | 9 | |
| 2010-03-01T00:00 | 26277 | 20 | -59.3 | -88.9 | 134 | 8 | |
| 2010-03-01T00:00 | 26303 | 20 | -59.4 | -89.0 | 131 | 8 | |
| 2010-03-01T00:00 | 26328 | 20 | -59.5 | -89.0 | 126 | 7 | |
| 2010-03-01T00:00 | 26357 | 20 | -59.5 | -89.0 | 120 | 7 | |
| 2010-03-01T00:00 | 26383 | 20 | -59.5 | -89.0 | 113 | 7 | |
| 2010-03-01T00:00 | 26408 | 20 | -59.6 | -89.1 | 106 | 7 | |
| 2010-03-01T00:00 | 26438 | 19 | -59.5 | -89.0 | 101 | 7 | |
| 2010-03-01T00:00 | 26461 | 19 | -59.3 | -88.9 | 98 | 7 | |
| 2010-03-01T00:00 | 26487 | 19 | -58.9 | -88.6 | 96 | 7 | |
| 2010-03-01T00:00 | 26509 | 19 | -58.8 | -88.5 | 97 | 8 | |
| 2010-03-01T00:00 | 26537 | 19 | -58.8 | -88.5 | 98 | 8 | |
| 2010-03-01T00:00 | 26562 | 19 | -58.9 | -88.6 | 101 | 8 | |
| 2010-03-01T00:00 | 26585 | 19 | -58.9 | -88.6 | 104 | 8 | |
| 2010-03-01T00:00 | 26611 | 19 | -58.8 | -88.5 | 108 | 9 | |
| 2010-03-01T00:00 | 26639 | 19 | -58.9 | -88.6 | 112 | 9 | |
| 2010-03-01T00:00 | 26665 | 19 | -59.0 | -88.7 | 116 | 9 | |
| 2010-03-01T00:00 | 26693 | 19 | -59.0 | -88.7 | 120 | 10 | |
| 2010-03-01T00:00 | 26719 | 19 | -59.1 | -88.7 | 123 | 10 | |
| 2010-03-01T00:00 | 26745 | 19 | -59.2 | -88.8 | 126 | 10 | |
| 2010-03-01T00:00 | 26770 | 18 | -59.3 | -88.9 | 128 | 10 | |
| 2010-03-01T00:00 | 26797 | 18 | -59.5 | -89.0 | 131 | 10 | |
| 2010-03-01T00:00 | 26825 | 18 | -59.6 | -89.1 | 133 | 10 | |
| 2010-03-01T00:00 | 26854 | 18 | -59.7 | -89.2 | 135 | 9 | |
| 2010-03-01T00:00 | 26879 | 18 | -59.7 | -89.2 | 136 | 9 | |
| 2010-03-01T00:00 | 26903 | 18 | -59.6 | -89.1 | 136 | 9 | |
| 2010-03-01T00:00 | 26928 | 18 | -59.5 | -89.0 | 133 | 8 | |
| 2010-03-01T00:00 | 26956 | 18 | -59.4 | -89.0 | 129 | 8 | |
| 2010-03-01T00:00 | 26985 | 18 | -59.3 | -88.9 | 125 | 8 | |
| 2010-03-01T00:00 | 27010 | 18 | -59.0 | -88.7 | 121 | 8 | |
| 2010-03-01T00:00 | 27035 | 18 | -58.9 | -88.6 | 119 | 7 | |
| 2010-03-01T00:00 | 27063 | 18 | -58.9 | -88.6 | 118 | 7 | |
| 2010-03-01T00:00 | 27089 | 18 | -58.9 | -88.6 | 117 | 7 | |
| 2010-03-01T00:00 | 27119 | 17 | -59.0 | -88.7 | 116 | 7 | |
| 2010-03-01T00:00 | 27146 | 17 | -59.2 | -88.8 | 115 | 7 | |
| 2010-03-01T00:00 | 27176 | 17 | -59.3 | -88.9 | 113 | 7 | |
| 2010-03-01T00:00 | 27200 | 17 | -59.4 | -89.0 | 111 | 6 | |
| 2010-03-01T00:00 | 27228 | 17 | -59.4 | -89.0 | 110 | 6 | |
| 2010-03-01T00:00 | 27254 | 17 | -59.4 | -89.0 | 107 | 6 | |
| 2010-03-01T00:00 | 27285 | 17 | -59.4 | -89.0 | 104 | 6 | |
| 2010-03-01T00:00 | 27309 | 17 | -59.4 | -89.0 | 100 | 6 | |
| 2010-03-01T00:00 | 27339 | 17 | -59.5 | -89.0 | 96 | 6 | |
| 2010-03-01T00:00 | 27371 | 17 | -59.3 | -88.9 | 93 | 7 | |
| 2010-03-01T00:00 | 27396 | 17 | -59.3 | -88.9 | 90 | 7 | |
| 2010-03-01T00:00 | 27420 | 17 | -59.3 | -88.9 | 89 | 7 | |
| 2010-03-01T00:00 | 27451 | 17 | -59.2 | -88.8 | 87 | 8 | |
| 2010-03-01T00:00 | 27480 | 16 | -59.3 | -88.9 | 85 | 9 | |
| 2010-03-01T00:00 | 27508 | 16 | -59.3 | -88.9 | 83 | 9 | |
| 2010-03-01T00:00 | 27540 | 16 | -59.4 | -89.0 | 81 | 10 | |
| 2010-03-01T00:00 | 27567 | 16 | -59.3 | -88.9 | 79 | 11 | |
| 2010-03-01T00:00 | 27594 | 16 | -58.9 | -88.6 | 78 | 12 | |
| 2010-03-01T00:00 | 27619 | 16 | -58.9 | -88.6 | 77 | 12 | |
| 2010-03-01T00:00 | 27649 | 16 | -58.9 | -88.6 | 76 | 13 | |
| 2010-03-01T00:00 | 27682 | 16 | -58.7 | -88.4 | 77 | 13 | |
| 2010-03-01T00:00 | 27710 | 16 | -58.3 | -88.1 | 78 | 13 | |
| 2010-03-01T00:00 | 27737 | 16 | -58.2 | -88.1 | 80 | 13 | |
| 2010-03-01T00:00 | 27767 | 16 | -58.4 | -88.2 | 83 | 13 | |
| 2010-03-01T00:00 | 27791 | 16 | -58.6 | -88.4 | 86 | 13 | |
| 2010-03-01T00:00 | 27823 | 16 | -58.7 | -88.4 | 89 | 13 | |
| 2010-03-01T00:00 | 27847 | 16 | -58.8 | -88.5 | 92 | 12 | |
| 2010-03-01T00:00 | 27874 | 15 | -58.9 | -88.6 | 95 | 12 | |
| 2010-03-01T00:00 | 27903 | 15 | -59.0 | -88.7 | 97 | 12 | |
| 2010-03-01T00:00 | 27935 | 15 | -59.1 | -88.7 | 100 | 12 | |
| 2010-03-01T00:00 | 27957 | 15 | -59.2 | -88.8 | 103 | 12 | |
| 2010-03-01T00:00 | 27984 | 15 | -59.2 | -88.8 | 106 | 12 | |
| 2010-03-01T00:00 | 28013 | 15 | -59.1 | -88.7 | 108 | 11 | |
| 2010-03-01T00:00 | 28037 | 15 | -59.1 | -88.7 | 111 | 11 | |
| 2010-03-01T00:00 | 28062 | 15 | -59.2 | -88.8 | 112 | 11 | |
| 2010-03-01T00:00 | 28094 | 15 | -59.3 | -88.9 | 113 | 11 | |
| 2010-03-01T00:00 | 28118 | 15 | -59.2 | -88.8 | 113 | 11 | |
| 2010-03-01T00:00 | 28144 | 15 | -59.1 | -88.7 | 112 | 11 | |
| 2010-03-01T00:00 | 28171 | 15 | -59.3 | -88.9 | 111 | 11 | |
| 2010-03-01T00:00 | 28197 | 15 | -59.5 | -89.0 | 110 | 11 | |
| 2010-03-01T00:00 | 28230 | 15 | -59.5 | -89.0 | 108 | 10 | |
| 2010-03-01T00:00 | 28254 | 15 | -59.6 | -89.1 | 106 | 10 | |
| 2010-03-01T00:00 | 28281 | 15 | -59.7 | -89.2 | 104 | 10 | |
| 2010-03-01T00:00 | 28306 | 14 | -59.7 | -89.2 | 101 | 10 | |
| 2010-03-01T00:00 | 28331 | 14 | -59.7 | -89.2 | 98 | 10 | |
| 2010-03-01T00:00 | 28356 | 14 | -59.7 | -89.2 | 96 | 10 | |
| 2010-03-01T00:00 | 28387 | 14 | -59.8 | -89.2 | 94 | 10 | |
| 2010-03-01T00:00 | 28412 | 14 | -59.7 | -89.2 | 94 | 11 | |
| 2010-03-01T00:00 | 28437 | 14 | -59.7 | -89.2 | 94 | 11 | |
| 2010-03-01T00:00 | 28465 | 14 | -59.5 | -89.0 | 95 | 11 | |
| 2010-03-01T00:00 | 28488 | 14 | -59.3 | -88.9 | 96 | 11 | |
| 2010-03-01T00:00 | 28514 | 14 | -59.0 | -88.7 | 97 | 10 | |
| 2010-03-01T00:00 | 28541 | 14 | -58.6 | -88.4 | 99 | 10 | |
| 2010-03-01T00:00 | 28565 | 14 | -58.6 | -88.4 | 101 | 10 | |
| 2010-03-01T00:00 | 28590 | 14 | -58.8 | -88.5 | 104 | 9 | |
| 2010-03-01T00:00 | 28616 | 14 | -59.0 | -88.7 | 106 | 9 | |
| 2010-03-01T00:00 | 28640 | 14 | -59.2 | -88.8 | 109 | 10 | |
| 2010-03-01T00:00 | 28666 | 14 | -59.1 | -88.7 | 110 | 10 | |
| 2010-03-01T00:00 | 28693 | 14 | -59.3 | -88.9 | 112 | 10 | |
| 2010-03-01T00:00 | 28721 | 14 | -59.4 | -89.0 | 112 | 11 | |
| 2010-03-01T00:00 | 28746 | 13 | -59.4 | -89.0 | 112 | 11 | |
| 2010-03-01T00:00 | 28776 | 13 | -59.4 | -89.0 | 110 | 11 | |
| 2010-03-01T00:00 | 28797 | 13 | -59.3 | -88.9 | 108 | 11 | |
| 2010-03-01T00:00 | 28826 | 13 | -59.3 | -88.9 | 106 | 11 | |
| 2010-03-01T00:00 | 28848 | 13 | -59.2 | -88.8 | 103 | 11 | |
| 2010-03-01T00:00 | 28876 | 13 | -59.1 | -88.7 | 102 | 11 | |
| 2010-03-01T00:00 | 28900 | 13 | -59.1 | -88.7 | 100 | 12 | |
| 2010-03-01T00:00 | 28933 | 13 | -59.1 | -88.7 | 100 | 12 | |
| 2010-03-01T00:00 | 28960 | 13 | -58.8 | -88.5 | 100 | 12 | |
| 2010-03-01T00:00 | 28981 | 13 | -58.2 | -88.1 | 100 | 12 | |
| 2010-03-01T00:00 | 29008 | 13 | -58.1 | -88.0 | 101 | 13 | |
| 2010-03-01T00:00 | 29033 | 13 | -58.0 | -87.9 | 102 | 12 | |
| 2010-03-01T00:00 | 29062 | 13 | -57.9 | -87.8 | 104 | 12 | |
| 2010-03-01T00:00 | 29083 | 13 | -57.6 | -87.6 | 106 | 12 | |
| 2010-03-01T00:00 | 29115 | 13 | -57.4 | -87.5 | 109 | 12 | |
| 2010-03-01T00:00 | 29140 | 13 | -57.4 | -87.5 | 112 | 11 | |
| 2010-03-01T00:00 | 29167 | 13 | -57.2 | -87.3 | 116 | 11 | |
| 2010-03-01T00:00 | 29196 | 13 | -57.0 | -87.2 | 119 | 11 | |
| 2010-03-01T00:00 | 29223 | 12 | -56.9 | -87.1 | 123 | 11 | |
| 2010-03-01T00:00 | 29247 | 12 | -56.7 | -86.9 | 126 | 11 | |
| 2010-03-01T00:00 | 29268 | 12 | -56.8 | -87.0 | 129 | 11 | |
| 2010-03-01T00:00 | 29297 | 12 | -56.6 | -86.9 | 130 | 12 | |
| 2010-03-01T00:00 | 29324 | 12 | -56.4 | 131 | 12 | ||
| 2010-03-01T00:00 | 29351 | 12 | -56.2 | -86.6 | 131 | 12 | |
| 2010-03-01T00:00 | 29374 | 12 | -56.0 | -86.4 | 132 | 13 | |
| 2010-03-01T00:00 | 29404 | 12 | -55.8 | -86.3 | 132 | 13 | |
| 2010-03-01T00:00 | 29432 | 12 | -55.7 | -86.2 | 132 | 13 | |
| 2010-03-01T00:00 | 29457 | 12 | -55.6 | -86.1 | 132 | 13 | |
| 2010-03-01T00:00 | 29481 | 12 | -55.6 | -86.1 | 132 | 13 | |
| 2010-03-01T00:00 | 29509 | 12 | -55.6 | -86.1 | 133 | 13 | |
| 2010-03-01T00:00 | 29534 | 12 | -55.7 | -86.2 | 135 | 12 | |
| 2010-03-01T00:00 | 29563 | 12 | -55.9 | -86.3 | 137 | 12 | |
| 2010-03-01T00:00 | 29590 | 12 | -56.1 | -86.5 | 139 | 11 | |
| 2010-03-01T00:00 | 29617 | 12 | -56.3 | -86.6 | 141 | 11 | |
| 2010-03-01T00:00 | 29643 | 12 | -56.4 | 142 | 10 | ||
| 2010-03-01T00:00 | 29667 | 12 | -56.6 | -86.9 | 144 | 10 | |
| 2010-03-01T00:00 | 29691 | 12 | -56.7 | -86.9 | 146 | 9 | |
| 2010-03-01T00:00 | 29724 | 12 | -56.9 | -87.1 | 148 | 9 | |
| 2010-03-01T00:00 | 29748 | 12 | -57.0 | -87.2 | 150 | 9 | |
| 2010-03-01T00:00 | 29775 | 11 | -57.1 | -87.2 | 154 | 8 | |
| 2010-03-01T00:00 | 29803 | 11 | -57.2 | -87.3 | 157 | 8 | |
| 2010-03-01T00:00 | 29827 | 11 | -57.4 | -87.5 | 160 | 7 | |
| 2010-03-01T00:00 | 29855 | 11 | -57.6 | -87.6 | 163 | 7 | |
| 2010-03-01T00:00 | 29884 | 11 | -57.7 | -87.7 | 166 | 6 | |
| 2010-03-01T00:00 | 29909 | 11 | -57.7 | -87.7 | 169 | 5 | |
| 2010-03-01T00:00 | 29933 | 11 | -57.7 | -87.7 | 173 | 4 | |
| 2010-03-01T00:00 | 29960 | 11 | -57.7 | -87.7 | 176 | 4 | |
| 2010-03-01T00:00 | 29989 | 11 | -57.7 | -87.7 | 179 | 3 | |
| 2010-03-01T00:00 | 30017 | 11 | -57.5 | -87.5 | 181 | 3 | |
| 2010-03-01T00:00 | 30044 | 11 | -57.2 | -87.3 | 183 | 3 | |
| 2010-03-01T00:00 | 30072 | 11 | -57.0 | -87.2 | 184 | 3 | |
| 2010-03-01T00:00 | 30101 | 11 | -56.9 | -87.1 | 186 | 3 | |
| 2010-03-01T00:00 | 30127 | 11 | -56.9 | -87.1 | 186 | 3 | |
| 2010-03-01T00:00 | 30157 | 11 | -57.0 | -87.2 | 186 | 3 | |
| 2010-03-01T00:00 | 30179 | 11 | -57.1 | -87.2 | 183 | 3 | |
| 2010-03-01T00:00 | 30209 | 11 | -57.1 | -87.2 | 176 | 3 | |
| 2010-03-01T00:00 | 30233 | 11 | -57.1 | -87.2 | 165 | 3 | |
| 2010-03-01T00:00 | 30266 | 11 | -57.2 | -87.3 | 154 | 3 | |
| 2010-03-01T00:00 | 30293 | 11 | -57.3 | -87.4 | 143 | 3 | |
| 2010-03-01T00:00 | 30323 | 11 | -57.3 | -87.4 | 136 | 4 | |
| 2010-03-01T00:00 | 30355 | 10 | -57.4 | -87.5 | 133 | 4 | |
| 2010-03-01T00:00 | 30379 | 10 | -57.5 | -87.5 | 132 | 4 | |
| 2010-03-01T00:00 | 30405 | 10 | -57.6 | -87.6 | 133 | 4 | |
| 2010-03-01T00:00 | 30433 | 10 | -57.7 | -87.7 | 135 | 4 | |
| 2010-03-01T00:00 | 30460 | 10 | -57.8 | -87.8 | 138 | 5 | |
| 2010-03-01T00:00 | 30497 | 10 | -57.8 | -87.8 | 140 | 5 | |
| 2010-03-01T00:00 | 30529 | 10 | -57.9 | -87.8 | 142 | 5 | |
| 2010-03-01T00:00 | 30555 | 10 | -58.0 | -87.9 | 143 | 6 | |
| 2010-03-01T00:00 | 30585 | 10 | -58.2 | -88.1 | 143 | 6 | |
| 2010-03-01T00:00 | 30613 | 10 | -58.2 | -88.1 | 144 | 7 | |
| 2010-03-01T00:00 | 30645 | 10 | -58.3 | -88.1 | 144 | 8 | |
| 2010-03-01T00:00 | 30673 | 10 | -58.5 | -88.3 | 145 | 8 | |
| 2010-03-01T00:00 | 30709 | 10 | -58.6 | -88.4 | 147 | 9 | |
| 2010-03-01T00:00 | 30736 | 10 | -58.7 | -88.4 | 148 | 10 | |
| 2010-03-01T00:00 | 30763 | 10 | -58.7 | -88.4 | 149 | 11 | |
| 2010-03-01T00:00 | 30792 | 10 | -58.6 | -88.4 | 150 | 11 | |
| 2010-03-01T00:00 | 30823 | 10 | -58.6 | -88.4 | 152 | 11 | |
| 2010-03-01T00:00 | 30853 | 10 | -58.5 | -88.3 | 154 | 11 | |
| 2010-03-01T00:00 | 30881 | 10 | -58.3 | -88.1 | 157 | 10 | |
| 2010-03-01T00:00 | 30913 | 10 | -58.0 | -87.9 | 159 | 9 | |
| 2010-03-01T00:00 | 30944 | 10 | -58.1 | -88.0 | 162 | 9 | |
| 2010-03-01T00:00 | 30975 | 9 | -58.3 | -88.1 | 165 | 8 | |
| 2010-03-01T00:00 | 31005 | 9 | -58.3 | -88.1 | 165 | 7 | |
| 2010-03-01T00:00 | 31036 | 9 | -58.1 | -88.0 | 164 | 7 | |
| 2010-03-01T00:00 | 31057 | 9 | -58.2 | -88.1 | 162 | 6 | |
| 2010-03-01T00:00 | 31093 | 9 | -58.1 | -88.0 | 160 | 6 | |
| 2010-03-01T00:00 | 31118 | 9 | -57.9 | -87.8 | 159 | 6 | |
| 2010-03-01T00:00 | 31144 | 9 | -57.8 | -87.8 | 159 | 6 | |
| 2010-03-01T00:00 | 31171 | 9 | -57.8 | -87.8 | 159 | 6 | |
| 2010-03-01T00:00 | 31200 | 9 | -57.9 | -87.8 | 160 | 5 | |
| 2010-03-01T00:00 | 31230 | 9 | -58.0 | -87.9 | 160 | 5 | |
| 2010-03-01T00:00 | 31257 | 9 | -58.2 | -88.1 | 159 | 4 | |
| 2010-03-01T00:00 | 31284 | 9 | -58.3 | -88.1 | 155 | 4 | |
| 2010-03-01T00:00 | 31310 | 9 | -58.4 | -88.2 | 148 | 4 | |
| 2010-03-01T00:00 | 31336 | 9 | -58.6 | -88.4 | 137 | 3 | |
| 2010-03-01T00:00 | 31372 | 9 | -58.7 | -88.4 | 126 | 4 | |
| 2010-03-01T00:00 | 31399 | 9 | -58.7 | -88.4 | 116 | 4 | |
| 2010-03-01T00:00 | 31422 | 9 | -58.5 | -88.3 | 110 | 5 | |
| 2010-03-01T00:00 | 31445 | 9 | -58.4 | -88.2 | 107 | 5 | |
| 2010-03-01T00:00 | 31476 | 9 | -58.3 | -88.1 | 107 | 5 | |
| 2010-03-01T00:00 | 31505 | 9 | -58.1 | -88.0 | 108 | 6 | |
| 2010-03-01T00:00 | 31530 | 9 | -58.1 | -88.0 | 110 | 6 | |
| 2010-03-01T00:00 | 31560 | 9 | -58.0 | -87.9 | 112 | 5 | |
| 2010-03-01T00:00 | 31583 | 9 | -57.9 | -87.8 | 112 | 5 | |
| 2010-03-01T00:00 | 31604 | 9 | -57.6 | -87.6 | 113 | 5 | |
| 2010-03-01T00:00 | 31632 | 9 | -57.5 | -87.5 | 111 | 4 | |
| 2010-03-01T00:00 | 31658 | 9 | -57.4 | -87.5 | 108 | 4 | |
| 2010-03-01T00:00 | 31689 | 8 | -57.3 | -87.4 | 102 | 3 | |
| 2010-03-01T00:00 | 31711 | 8 | -57.4 | -87.5 | 94 | 3 | |
| 2010-03-01T00:00 | 31736 | 8 | -57.5 | -87.5 | 83 | 3 | |
| 2010-03-01T00:00 | 31765 | 8 | -57.5 | -87.5 | 74 | 3 | |
| 2010-03-01T00:00 | 31784 | 8 | -57.5 | -87.5 | 66 | 4 | |
| 2010-03-01T00:00 | 31816 | 8 | -57.3 | -87.4 | 61 | 4 | |
| 2010-03-01T00:00 | 31845 | 8 | -57.1 | -87.2 | 57 | 5 | |
| 2010-03-01T00:00 | 31873 | 8 | -57.0 | -87.2 | 56 | 6 | |
| 2010-03-01T00:00 | 31899 | 8 | -56.9 | -87.1 | 57 | 7 | |
| 2010-03-01T00:00 | 31930 | 8 | -56.8 | -87.0 | 59 | 8 | |
| 2010-03-01T00:00 | 31952 | 8 | -56.9 | -87.1 | 62 | 8 | |
| 2010-03-01T00:00 | 31976 | 8 | -57.0 | -87.2 | 65 | 9 | |
| 2010-03-01T00:00 | 31999 | 8 | -56.9 | -87.1 | 67 | 10 | |
| 2010-03-01T00:00 | 32029 | 8 | -56.9 | -87.1 | 70 | 11 | |
| 2010-03-01T00:00 | 32052 | 8 | -57.0 | -87.2 | 72 | 12 | |
| 2010-03-01T00:00 | 32078 | 8 | -57.0 | -87.2 | 73 | 12 | |
| 2010-03-01T00:00 | 32106 | 8 | -56.9 | -87.1 | 74 | 13 | |
| 2010-03-01T00:00 | 32136 | 8 | -57.0 | -87.2 | 74 | 13 | |
| 2010-03-01T00:00 | 32165 | 8 | -57.2 | -87.3 | 75 | 13 | |
| 2010-03-01T00:00 | 32187 | 8 | -57.2 | -87.3 | 74 | 13 | |
| 2010-03-01T00:00 | 32223 | 8 | -57.3 | -87.4 | 75 | 12 | |
| 2010-03-01T00:00 | 32256 | 8 | -57.4 | -87.5 | 75 | 12 | |
| 2010-03-01T00:00 | 32281 | 8 | -57.7 | -87.7 | 77 | 12 | |
| 2010-03-01T00:00 | 32307 | 8 | -57.8 | -87.8 | 80 | 12 | |
| 2010-03-01T00:00 | 32334 | 8 | -57.7 | -87.7 | 83 | 12 | |
| 2010-03-01T00:00 | 32360 | 8 | -57.5 | -87.5 | 86 | 13 | |
| 2010-03-01T00:00 | 32398 | 8 | -57.3 | -87.4 | 89 | 13 | |
| 2010-03-01T00:00 | 32422 | 8 | -57.3 | -87.4 | 91 | 13 | |
| 2010-03-01T00:00 | 32453 | 8 | -57.4 | -87.5 | 92 | 13 | |
| 2010-03-01T00:00 | 32480 | 7 | -57.3 | -87.4 | 95 | 12 | |
| 2010-03-01T00:00 | 32507 | 7 | -56.9 | -87.1 | 98 | 12 | |
| 2010-03-01T00:00 | 32539 | 7 | -56.5 | -86.8 | 101 | 12 | |
| 2010-03-01T00:00 | 32564 | 7 | -56.3 | -86.6 | 106 | 11 | |
| 2010-03-01T00:00 | 32597 | 7 | -56.2 | -86.6 | 110 | 11 | |
| 2010-03-01T00:00 | 32626 | 7 | -56.0 | -86.4 | 115 | 11 | |
| 2010-03-01T00:00 | 32657 | 7 | -56.1 | -86.5 | 119 | 10 | |
| 2010-03-01T00:00 | 32684 | 7 | -56.2 | -86.6 | 122 | 10 | |
| 2010-03-01T00:00 | 32712 | 7 | -56.2 | -86.6 | 126 | 10 | |
| 2010-03-01T00:00 | 32739 | 7 | -56.2 | -86.6 | 128 | 10 | |
| 2010-03-01T00:00 | 32764 | 7 | -56.1 | -86.5 | 129 | 10 | |
| 2010-03-01T00:00 | 32787 | 7 | -56.1 | -86.5 | 130 | 10 | |
| 2010-03-01T00:00 | 32818 | 7 | -56.1 | -86.5 | 130 | 10 | |
| 2010-03-01T00:00 | 32851 | 7 | -56.1 | -86.5 | 129 | 11 | |
| 2010-03-01T00:00 | 32876 | 7 | -56.1 | -86.5 | 129 | 11 | |
| 2010-03-01T00:00 | 32908 | 7 | -56.1 | -86.5 | 129 | 11 | |
| 2010-03-01T00:00 | 32934 | 7 | -55.8 | -86.3 | 129 | 11 | |
| 2010-03-01T00:00 | 32962 | 7 | -55.7 | -86.2 | 129 | 11 | |
| 2010-03-01T00:00 | 32985 | 7 | -55.9 | -86.3 | 130 | 11 | |
| 2010-03-01T00:00 | 33013 | 7 | -56.1 | -86.5 | 130 | 10 | |
| 2010-03-01T00:00 | 33040 | 7 | -56.2 | -86.6 | 130 | 10 | |
| 2010-03-01T00:00 | 33071 | 7 | -56.3 | -86.6 | 129 | 9 | |
| 2010-03-01T00:00 | 33095 | 7 | -56.4 | 127 | 8 | ||
| 2010-03-01T00:00 | 33117 | 7 | -56.5 | -86.8 | 123 | 8 | |
| 2010-03-01T00:00 | 33144 | 7 | -56.6 | -86.9 | 118 | 8 | |
| 2010-03-01T00:00 | 33181 | 7 | -56.7 | -86.9 | 113 | 8 | |
| 2010-03-01T00:00 | 33205 | 7 | -56.7 | -86.9 | 110 | 8 | |
| 2010-03-01T00:00 | 33223 | 7 | -56.5 | -86.8 | 109 | 8 | |
| 2010-03-01T00:00 | 33257 | 7 | -56.6 | -86.9 | 111 | 8 | |
| 2010-03-01T00:00 | 33289 | 7 | -56.6 | -86.9 | 112 | 9 | |
| 2010-03-01T00:00 | 33306 | 7 | -56.6 | -86.9 | 114 | 9 | |
| 2010-03-01T00:00 | 33330 | 7 | -56.6 | -86.9 | 114 | 9 | |
| 2010-03-01T00:00 | 33365 | 7 | -56.8 | -87.0 | 113 | 9 | |
| 2010-03-01T00:00 | 33389 | 6 | -56.9 | -87.1 | 111 | 9 | |
| 2010-03-01T00:00 | 33416 | 6 | -57.0 | -87.2 | 111 | 9 | |
| 2010-03-01T00:00 | 33448 | 6 | -57.1 | -87.2 | 111 | 9 | |
| 2010-03-01T00:00 | 33475 | 6 | -57.2 | -87.3 | 113 | 8 | |
| 2010-03-01T00:00 | 33500 | 6 | -57.3 | -87.4 | 117 | 8 | |
| 2010-03-01T00:00 | 33527 | 6 | -57.3 | -87.4 | 122 | 8 | |
| 2010-03-01T00:00 | 33558 | 6 | -57.4 | -87.5 | 126 | 8 | |
| 2010-03-01T00:00 | 33589 | 6 | -57.5 | -87.5 | 129 | 8 | |
| 2010-03-01T00:00 | 33616 | 6 | -57.5 | -87.5 | 131 | 8 | |
| 2010-03-01T00:00 | 33636 | 6 | -57.5 | -87.5 | 132 | 9 | |
| 2010-03-01T00:00 | 33667 | 6 | -57.3 | -87.4 | 132 | 9 | |
| 2010-03-01T00:00 | 33697 | 6 | -57.2 | -87.3 | 132 | 9 | |
| 2010-03-01T00:00 | 33722 | 6 | -57.0 | -87.2 | 130 | 8 | |
| 2010-03-01T00:00 | 33744 | 6 | -56.8 | -87.0 | 127 | 7 | |
| 2010-03-01T00:00 | 33773 | 6 | -56.4 | 122 | 7 | ||
| 2010-03-01T00:00 | 33793 | 6 | -56.3 | -86.6 | 113 | 6 | |
| 2010-03-01T00:00 | 33829 | 6 | -56.1 | -86.5 | 105 | 6 | |
| 2010-03-01T00:00 | 33861 | 6 | -56.1 | -86.5 | 99 | 6 | |
| 2010-03-01T00:00 | 33892 | 6 | -55.8 | -86.3 | 98 | 6 | |
| 2010-03-01T00:00 | 33924 | 6 | -55.6 | -86.1 | 100 | 7 | |
| 2010-03-01T00:00 | 33949 | 6 | -55.3 | -85.9 | 107 | 7 | |
| 2010-03-01T00:00 | 33976 | 6 | -55.2 | -85.8 | 114 | 7 | |
| 2010-03-01T00:00 | 34010 | 6 | -54.9 | -85.6 | 121 | 8 | |
| 2010-03-01T00:00 | 34036 | 6 | -54.5 | -85.3 | 126 | 8 | |
| 2010-03-01T00:00 | 34057 | 6 | -54.4 | -85.2 | 129 | 8 | |
| 2010-03-01T00:00 | 34090 | 6 | -54.5 | -85.3 | 132 | 8 | |
| 2010-03-01T00:00 | 34110 | 6 | -54.5 | -85.3 | 136 | 8 | |
| 2010-03-01T00:00 | 34136 | 6 | -54.4 | -85.2 | 140 | 8 | |
| 2010-03-01T00:00 | 34161 | 6 | -54.3 | -85.2 | 143 | 8 | |
| 2010-03-01T00:00 | 34186 | 6 | -54.3 | -85.2 | 145 | 7 | |
| 2010-03-01T00:00 | 34205 | 6 | -54.1 | -85.0 | 145 | 7 | |
| 2010-03-01T00:00 | 34230 | 6 | -53.9 | -84.9 | 144 | 7 | |
| 2010-03-01T00:00 | 34252 | 6 | -53.6 | -84.6 | 142 | 6 | |
| 2010-03-01T00:00 | 34275 | 6 | -53.5 | -84.6 | 141 | 6 | |
| 2010-03-01T00:00 | 34300 | 6 | -53.4 | -84.5 | 140 | 6 | |
| 2010-03-01T00:00 | 34328 | 6 | -53.4 | -84.5 | 139 | 6 | |
| 2010-03-01T00:00 | 34350 | 6 | -53.3 | -84.4 | 137 | 6 | |
| 2010-03-01T00:00 | 34372 | 6 | -53.1 | -84.3 | 134 | 5 | |
| 2010-03-01T00:00 | 34389 | 6 | -52.9 | -84.1 | 131 | 5 | |
| 2010-03-01T00:00 | 34409 | 6 | -52.8 | -84.1 | 129 | 5 | |
| 2010-03-01T00:00 | 34431 | 6 | -52.5 | -83.8 | 128 | 5 | |
| 2010-03-01T00:00 | 34457 | 5 | -52.2 | -83.6 | 127 | 5 | |
| 2010-03-01T00:00 | 34488 | 5 | -51.9 | -83.4 | 127 | 5 | |
| 2010-03-01T00:00 | 34506 | 5 | -51.5 | -83.1 | 126 | 5 | |
| 2010-03-01T00:00 | 34519 | 5 | -51.4 | -83.0 | 124 | 5 | |
| 2010-03-01T00:00 | 34544 | 5 | -51.5 | -83.1 | 122 | 6 | |
| 2010-03-01T00:00 | 34576 | 5 | -51.6 | -83.2 | 120 | 6 | |
| 2010-03-01T00:00 | 34592 | 5 | -51.8 | -83.3 | 119 | 6 | |
| 2010-03-01T00:00 | 34612 | 5 | -51.7 | -83.2 | 119 | 6 | |
| 2010-03-01T00:00 | 34633 | 5 | -51.6 | -83.2 | 122 | 6 | |
| 2010-03-01T00:00 | 34663 | 5 | -51.3 | -82.9 | 128 | 6 | |
| 2010-03-01T00:00 | 34694 | 5 | -50.9 | -82.7 | 136 | 5 | |
| 2010-03-01T00:00 | 34718 | 5 | -50.7 | -82.5 | 146 | 5 | |
| 2010-03-01T00:00 | 34739 | 5 | -50.7 | -82.5 | 155 | 4 | |
| 2010-03-01T00:00 | 34762 | 5 | -50.6 | -82.4 | 165 | 4 | |
| 2010-03-01T00:00 | 34796 | 5 | -50.8 | -82.6 | 178 | 4 | |
| 2010-03-01T00:00 | 34824 | 5 | -50.9 | -82.7 | 195 | 3 | |
| 2010-03-01T00:00 | 34850 | 5 | -51.0 | -82.7 | 214 | 3 | |
| 2010-03-01T00:00 | 34872 | 5 | -50.4 | -82.3 | 226 | 4 | |
| 2010-03-01T00:00 | 34903 | 5 | -50.0 | -82.0 | 232 | 5 | |
| 2010-03-01T00:00 | 34932 | 5 | -50.0 | -82.0 | 231 | 5 | |
| 2010-03-01T00:00 | 34960 | 5 | -49.9 | -81.9 | 226 | 5 | |
| 2010-03-01T00:00 | 34992 | 5 | -50.0 | -82.0 | 220 | 6 | |
| 2010-03-01T00:00 | 35026 | 5 | -49.9 | -81.9 | 215 | 6 | |
| 2010-03-01T00:00 | 35062 | 5 | -49.6 | -81.7 | 212 | 7 | |
| 2010-03-01T00:00 | 35079 | 5 | -49.5 | -81.6 | 212 | 7 | |
| 2010-03-01T00:00 | 35101 | 5 | -49.3 | -81.5 | 213 | 8 | |
| 2010-03-01T00:00 | 35137 | 5 | -49.0 | -81.3 | 213 | 8 | |
| 2010-03-01T00:00 | 35164 | 5 | -48.7 | -81.0 | 213 | 9 | |
| 2010-03-01T00:00 | 35194 | 5 | -48.6 | -81.0 | 212 | 10 | |
| 2010-03-01T00:00 | 35223 | 5 | -48.7 | -81.0 | 210 | 10 | |
| 2010-03-01T00:00 | 35247 | 5 | -48.6 | -81.0 | 210 | 10 | |
| 2010-03-01T00:00 | 35275 | 5 | -48.4 | -80.8 | 210 | 10 | |
| 2010-03-01T00:00 | 35305 | 5 | -48.1 | -80.6 | 211 | 11 | |
| 2010-03-01T00:00 | 35330 | 5 | -47.9 | -80.4 | 212 | 11 | |
| 2010-03-01T00:00 | 35365 | 5 | -47.8 | -80.4 | 214 | 11 | |
| 2010-03-01T00:00 | 35395 | 5 | -47.5 | -80.2 | 215 | 12 | |
| 2010-03-01T00:00 | 35427 | 5 | -47.2 | -79.9 | 216 | 13 | |
| 2010-03-01T00:00 | 35445 | 5 | -47.2 | -79.9 | 218 | 14 | |
| 2010-03-01T00:00 | 35462 | 5 | -47.0 | -79.8 | 219 | 15 | |
| 2010-03-01T00:00 | 35484 | 5 | -47.2 | -79.9 | 221 | 15 | |
| 2010-03-01T00:00 | 35516 | 5 | -47.0 | -79.8 | 222 | 16 | |
| 2010-03-01T00:00 | 35532 | 5 | -47.0 | -79.8 | 224 | 16 | |
| 2010-03-01T00:00 | 35550 | 5 | -47.0 | -79.8 | 225 | 16 | |
| 2010-03-01T00:00 | 35577 | 5 | -47.0 | -79.8 | 226 | 16 | |
| 2010-03-01T00:00 | 35599 | 5 | -46.8 | -79.6 | 228 | 16 | |
| 2010-03-01T00:00 | 35618 | 5 | -46.6 | -79.5 | 229 | 16 | |
| 2010-03-01T00:00 | 35636 | 5 | -46.4 | -79.3 | 232 | 15 | |
| 2010-03-01T00:00 | 35674 | 5 | -46.4 | -79.3 | 234 | 15 | |
| 2010-03-01T00:00 | 35698 | 5 | -46.5 | -79.4 | 237 | 15 | |
| 2010-03-01T00:00 | 35716 | 5 | -46.5 | -79.4 | 239 | 14 | |
| 2010-03-01T00:00 | 35734 | 5 | -46.5 | -79.4 | 241 | 14 | |
| 2010-03-01T00:00 | 35763 | 5 | -46.6 | -79.5 | 242 | 14 | |
| 2010-03-01T00:00 | 35781 | 4 | -46.7 | -79.6 | 243 | 14 | |
| 2010-03-01T00:00 | 35804 | 4 | -46.8 | -79.6 | 244 | 13 | |
| 2010-03-01T00:00 | 35838 | 4 | -46.9 | -79.7 | 245 | 13 | |
| 2010-03-01T06:00 | 112 | 979 | 5.5 | 0.9 | 240 | 12 | |
| 2010-03-01T06:00 | 129 | 977 | 5.7 | 0.9 | 249 | 10 | |
| 2010-03-01T06:00 | 140 | 976 | 5.6 | 0.8 | 248 | 14 | |
| 2010-03-01T06:00 | 156 | 974 | 5.5 | 0.5 | 248 | 17 | |
| 2010-03-01T06:00 | 182 | 971 | 5.2 | 0.4 | 248 | 19 | |
| 2010-03-01T06:00 | 202 | 968 | 5.2 | 0.4 | 247 | 20 | |
| 2010-03-01T06:00 | 220 | 966 | 5.0 | 0.4 | 247 | 21 | |
| 2010-03-01T06:00 | 241 | 964 | 4.8 | 0.2 | 246 | 22 | |
| 2010-03-01T06:00 | 264 | 961 | 4.5 | 0.5 | 246 | 23 | |
| 2010-03-01T06:00 | 281 | 959 | 4.4 | 0.4 | 247 | 23 | |
| 2010-03-01T06:00 | 289 | 958 | 4.2 | 0.2 | 247 | 24 | |
| 2010-03-01T06:00 | 301 | 957 | 4.2 | 0.2 | 247 | 23 | |
| 2010-03-01T06:00 | 318 | 955 | 4.1 | 0.3 | 247 | 23 | |
| 2010-03-01T06:00 | 331 | 953 | 4.0 | 0.2 | 246 | 22 | |
| 2010-03-01T06:00 | 348 | 951 | 3.7 | 0.1 | 245 | 21 | |
| 2010-03-01T06:00 | 360 | 950 | 3.6 | 0.0 | 245 | 20 | |
| 2010-03-01T06:00 | 368 | 949 | 3.5 | 0.0 | 245 | 20 | |
| 2010-03-01T06:00 | 375 | 948 | 3.5 | 0.0 | 246 | 20 | |
| 2010-03-01T06:00 | 381 | 947 | 3.5 | 0.0 | 246 | 20 | |
| 2010-03-01T06:00 | 386 | 947 | 3.4 | -0.1 | 246 | 20 | |
| 2010-03-01T06:00 | 401 | 945 | 3.2 | -0.1 | 245 | 19 | |
| 2010-03-01T06:00 | 415 | 943 | 3.1 | -0.2 | 246 | 19 | |
| 2010-03-01T06:00 | 428 | 942 | 3.0 | -0.1 | 246 | 19 | |
| 2010-03-01T06:00 | 447 | 940 | 2.7 | -0.2 | 247 | 19 | |
| 2010-03-01T06:00 | 467 | 937 | 2.5 | -0.2 | 246 | 19 | |
| 2010-03-01T06:00 | 486 | 935 | 2.4 | -0.2 | 246 | 21 | |
| 2010-03-01T06:00 | 506 | 933 | 2.2 | -0.3 | 246 | 22 | |
| 2010-03-01T06:00 | 522 | 931 | 2.0 | -0.5 | 246 | 23 | |
| 2010-03-01T06:00 | 540 | 929 | 1.8 | -0.5 | 246 | 24 | |
| 2010-03-01T06:00 | 558 | 927 | 1.7 | -0.5 | 247 | 24 | |
| 2010-03-01T06:00 | 576 | 925 | 1.5 | -0.5 | 248 | 24 | |
| 2010-03-01T06:00 | 596 | 922 | 1.2 | -0.8 | 249 | 24 | |
| 2010-03-01T06:00 | 617 | 920 | 1.1 | -0.7 | 250 | 24 | |
| 2010-03-01T06:00 | 637 | 918 | 0.9 | -0.8 | 251 | 25 | |
| 2010-03-01T06:00 | 661 | 915 | 0.7 | -0.8 | 252 | 25 | |
| 2010-03-01T06:00 | 684 | 912 | 0.5 | -0.8 | 252 | 26 | |
| 2010-03-01T06:00 | 709 | 910 | 0.2 | -1.0 | 251 | 27 | |
| 2010-03-01T06:00 | 745 | 905 | -0.1 | -1.1 | 250 | 27 | |
| 2010-03-01T06:00 | 782 | 901 | -0.5 | -1.3 | 249 | 28 | |
| 2010-03-01T06:00 | 813 | 898 | -0.8 | -1.3 | 249 | 28 | |
| 2010-03-01T06:00 | 848 | 894 | -1.1 | -1.5 | 250 | 27 | |
| 2010-03-01T06:00 | 876 | 891 | -1.3 | -1.5 | 251 | 27 | |
| 2010-03-01T06:00 | 904 | 888 | -1.5 | -1.6 | 254 | 26 | |
| 2010-03-01T06:00 | 936 | 884 | -1.8 | -1.9 | 256 | 26 | |
| 2010-03-01T06:00 | 962 | 881 | -1.8 | -1.8 | 257 | 26 | |
| 2010-03-01T06:00 | 994 | 878 | -2.1 | -2.1 | 258 | 26 | |
| 2010-03-01T06:00 | 1023 | 874 | -2.3 | -2.3 | 257 | 26 | |
| 2010-03-01T06:00 | 1049 | 872 | -2.4 | -2.4 | 257 | 26 | |
| 2010-03-01T06:00 | 1081 | 868 | -2.6 | -2.6 | 256 | 26 | |
| 2010-03-01T06:00 | 1111 | 865 | -2.8 | -2.8 | 256 | 26 | |
| 2010-03-01T06:00 | 1149 | 861 | -3.0 | -3.0 | 256 | 26 | |
| 2010-03-01T06:00 | 1174 | 858 | -3.2 | -3.2 | 256 | 27 | |
| 2010-03-01T06:00 | 1200 | 855 | -3.4 | -3.4 | 257 | 27 | |
| 2010-03-01T06:00 | 1230 | 852 | -3.6 | -3.6 | 258 | 27 | |
| 2010-03-01T06:00 | 1259 | 849 | -3.8 | -3.8 | 260 | 27 | |
| 2010-03-01T06:00 | 1287 | 846 | -3.9 | -3.9 | 261 | 27 | |
| 2010-03-01T06:00 | 1319 | 842 | -4.1 | -4.1 | 263 | 27 | |
| 2010-03-01T06:00 | 1346 | 840 | -4.2 | -4.2 | 264 | 27 | |
| 2010-03-01T06:00 | 1371 | 837 | -4.3 | -4.3 | 265 | 27 | |
| 2010-03-01T06:00 | 1397 | 834 | -4.6 | -4.6 | 266 | 28 | |
| 2010-03-01T06:00 | 1423 | 831 | -4.8 | -4.8 | 267 | 29 | |
| 2010-03-01T06:00 | 1450 | 828 | -4.9 | -4.9 | 267 | 30 | |
| 2010-03-01T06:00 | 1479 | 825 | -5.1 | -5.1 | 267 | 31 | |
| 2010-03-01T06:00 | 1508 | 822 | -5.3 | -5.3 | 267 | 31 | |
| 2010-03-01T06:00 | 1536 | 819 | -5.5 | -5.5 | 267 | 31 | |
| 2010-03-01T06:00 | 1564 | 817 | -5.8 | -5.8 | 267 | 31 | |
| 2010-03-01T06:00 | 1593 | 814 | -5.9 | -5.9 | 267 | 31 | |
| 2010-03-01T06:00 | 1620 | 811 | -6.0 | -6.0 | 269 | 31 | |
| 2010-03-01T06:00 | 1643 | 808 | -6.2 | -6.2 | 270 | 31 | |
| 2010-03-01T06:00 | 1665 | 806 | -6.2 | -6.2 | 272 | 31 | |
| 2010-03-01T06:00 | 1691 | 803 | -6.2 | -6.2 | 273 | 31 | |
| 2010-03-01T06:00 | 1715 | 801 | -6.3 | -6.3 | 273 | 32 | |
| 2010-03-01T06:00 | 1738 | 799 | -6.4 | -6.4 | 273 | 32 | |
| 2010-03-01T06:00 | 1761 | 796 | -6.5 | -6.5 | 273 | 32 | |
| 2010-03-01T06:00 | 1784 | 794 | -6.6 | -6.7 | 272 | 33 | |
| 2010-03-01T06:00 | 1807 | 792 | -6.8 | -6.9 | 272 | 33 | |
| 2010-03-01T06:00 | 1829 | 789 | -6.8 | -7.0 | 272 | 33 | |
| 2010-03-01T06:00 | 1851 | 787 | -6.9 | -7.1 | 273 | 33 | |
| 2010-03-01T06:00 | 1874 | 785 | -7.1 | -7.5 | 273 | 33 | |
| 2010-03-01T06:00 | 1900 | 782 | -7.3 | -7.8 | 273 | 33 | |
| 2010-03-01T06:00 | 1927 | 780 | -7.4 | -8.1 | 273 | 33 | |
| 2010-03-01T06:00 | 1953 | 777 | -7.6 | -8.4 | 272 | 32 | |
| 2010-03-01T06:00 | 1977 | 774 | -7.8 | -8.8 | 272 | 32 | |
| 2010-03-01T06:00 | 1998 | 772 | -7.9 | -9.1 | 272 | 32 | |
| 2010-03-01T06:00 | 2026 | 770 | -8.1 | -9.3 | 272 | 31 | |
| 2010-03-01T06:00 | 2051 | 767 | -8.2 | -9.4 | 272 | 31 | |
| 2010-03-01T06:00 | 2076 | 765 | -8.4 | -9.6 | 271 | 31 | |
| 2010-03-01T06:00 | 2099 | 762 | -8.5 | -9.7 | 271 | 31 | |
| 2010-03-01T06:00 | 2126 | 760 | -8.8 | -10.0 | 270 | 31 | |
| 2010-03-01T06:00 | 2151 | 757 | -8.8 | -10.0 | 270 | 31 | |
| 2010-03-01T06:00 | 2178 | 755 | -8.8 | -9.9 | 269 | 31 | |
| 2010-03-01T06:00 | 2202 | 752 | -8.9 | -10.1 | 269 | 31 | |
| 2010-03-01T06:00 | 2229 | 750 | -9.0 | -10.2 | 269 | 32 | |
| 2010-03-01T06:00 | 2254 | 747 | -9.1 | -10.4 | 269 | 32 | |
| 2010-03-01T06:00 | 2278 | 745 | -9.3 | -10.6 | 269 | 32 | |
| 2010-03-01T06:00 | 2301 | 743 | -9.4 | -10.7 | 269 | 33 | |
| 2010-03-01T06:00 | 2329 | 740 | -9.5 | -10.8 | 268 | 33 | |
| 2010-03-01T06:00 | 2355 | 738 | -9.8 | -11.1 | 268 | 33 | |
| 2010-03-01T06:00 | 2381 | 735 | -9.9 | -11.2 | 268 | 33 | |
| 2010-03-01T06:00 | 2409 | 733 | -10.1 | -11.4 | 268 | 33 | |
| 2010-03-01T06:00 | 2434 | 730 | -10.2 | -11.5 | 268 | 33 | |
| 2010-03-01T06:00 | 2458 | 728 | -10.3 | -11.6 | 268 | 33 | |
| 2010-03-01T06:00 | 2487 | 725 | -10.5 | -11.8 | 269 | 33 | |
| 2010-03-01T06:00 | 2514 | 723 | -10.8 | -12.1 | 269 | 33 | |
| 2010-03-01T06:00 | 2538 | 720 | -10.9 | -12.1 | 270 | 33 | |
| 2010-03-01T06:00 | 2561 | 718 | -11.0 | -12.2 | 270 | 33 | |
| 2010-03-01T06:00 | 2587 | 716 | -11.2 | -12.4 | 270 | 33 | |
| 2010-03-01T06:00 | 2612 | 713 | -11.4 | -12.7 | 270 | 33 | |
| 2010-03-01T06:00 | 2639 | 711 | -11.5 | -12.8 | 270 | 32 | |
| 2010-03-01T06:00 | 2665 | 708 | -11.8 | -13.2 | 270 | 32 | |
| 2010-03-01T06:00 | 2690 | 706 | -11.9 | -13.3 | 270 | 32 | |
| 2010-03-01T06:00 | 2715 | 704 | -12.1 | -13.4 | 270 | 32 | |
| 2010-03-01T06:00 | 2741 | 701 | -12.2 | -13.5 | 270 | 33 | |
| 2010-03-01T06:00 | 2765 | 699 | -12.4 | -13.7 | 269 | 33 | |
| 2010-03-01T06:00 | 2792 | 697 | -12.6 | -13.9 | 269 | 33 | |
| 2010-03-01T06:00 | 2816 | 695 | -12.8 | -14.0 | 269 | 33 | |
| 2010-03-01T06:00 | 2841 | 692 | -12.9 | -14.1 | 269 | 33 | |
| 2010-03-01T06:00 | 2864 | 690 | -13.1 | -14.3 | 269 | 33 | |
| 2010-03-01T06:00 | 2892 | 688 | -13.2 | -14.5 | 269 | 34 | |
| 2010-03-01T06:00 | 2918 | 685 | -13.4 | -14.7 | 269 | 34 | |
| 2010-03-01T06:00 | 2941 | 683 | -13.5 | -14.8 | 269 | 34 | |
| 2010-03-01T06:00 | 2966 | 681 | -13.6 | -14.9 | 269 | 33 | |
| 2010-03-01T06:00 | 2991 | 679 | -13.8 | -15.1 | 269 | 33 | |
| 2010-03-01T06:00 | 3016 | 677 | -14.0 | -15.3 | 269 | 33 | |
| 2010-03-01T06:00 | 3038 | 675 | -14.2 | -15.5 | 269 | 33 | |
| 2010-03-01T06:00 | 3063 | 672 | -14.3 | -15.6 | 270 | 33 | |
| 2010-03-01T06:00 | 3087 | 670 | -14.5 | -15.8 | 270 | 33 | |
| 2010-03-01T06:00 | 3114 | 668 | -14.8 | -16.1 | 270 | 33 | |
| 2010-03-01T06:00 | 3139 | 666 | -14.9 | -16.0 | 270 | 33 | |
| 2010-03-01T06:00 | 3165 | 663 | -15.0 | -16.1 | 270 | 33 | |
| 2010-03-01T06:00 | 3191 | 661 | -15.2 | -16.3 | 270 | 33 | |
| 2010-03-01T06:00 | 3218 | 659 | -15.4 | -16.7 | 270 | 33 | |
| 2010-03-01T06:00 | 3240 | 657 | -15.6 | -16.9 | 269 | 33 | |
| 2010-03-01T06:00 | 3264 | 655 | -15.8 | -17.1 | 269 | 33 | |
| 2010-03-01T06:00 | 3291 | 652 | -15.9 | -17.2 | 269 | 33 | |
| 2010-03-01T06:00 | 3316 | 650 | -16.1 | -17.4 | 269 | 33 | |
| 2010-03-01T06:00 | 3339 | 648 | -16.3 | -17.5 | 269 | 33 | |
| 2010-03-01T06:00 | 3364 | 646 | -16.4 | -17.6 | 268 | 33 | |
| 2010-03-01T06:00 | 3387 | 644 | -16.6 | -17.8 | 268 | 33 | |
| 2010-03-01T06:00 | 3412 | 642 | -16.8 | -18.0 | 268 | 33 | |
| 2010-03-01T06:00 | 3436 | 640 | -17.0 | -18.2 | 268 | 33 | |
| 2010-03-01T06:00 | 3459 | 638 | -17.2 | -18.4 | 268 | 33 | |
| 2010-03-01T06:00 | 3486 | 636 | -17.3 | -18.5 | 267 | 34 | |
| 2010-03-01T06:00 | 3509 | 634 | -17.5 | -18.7 | 267 | 34 | |
| 2010-03-01T06:00 | 3528 | 632 | -17.6 | -18.8 | 267 | 33 | |
| 2010-03-01T06:00 | 3558 | 630 | -17.9 | -19.1 | 267 | 33 | |
| 2010-03-01T06:00 | 3584 | 627 | -18.0 | -19.4 | 268 | 32 | |
| 2010-03-01T06:00 | 3609 | 625 | -18.2 | -19.5 | 268 | 32 | |
| 2010-03-01T06:00 | 3630 | 624 | -18.4 | -19.6 | 269 | 32 | |
| 2010-03-01T06:00 | 3655 | 621 | -18.5 | -19.7 | 268 | 32 | |
| 2010-03-01T06:00 | 3680 | 619 | -18.7 | -20.0 | 267 | 32 | |
| 2010-03-01T06:00 | 3709 | 617 | -18.9 | -20.4 | 266 | 32 | |
| 2010-03-01T06:00 | 3732 | 615 | -19.1 | -20.6 | 265 | 32 | |
| 2010-03-01T06:00 | 3753 | 613 | -19.2 | -20.7 | 265 | 32 | |
| 2010-03-01T06:00 | 3775 | 612 | -19.4 | -20.9 | 265 | 32 | |
| 2010-03-01T06:00 | 3800 | 609 | -19.5 | -21.0 | 265 | 31 | |
| 2010-03-01T06:00 | 3828 | 607 | -19.7 | -21.3 | 266 | 31 | |
| 2010-03-01T06:00 | 3853 | 605 | -19.8 | -21.4 | 267 | 31 | |
| 2010-03-01T06:00 | 3877 | 603 | -20.0 | -21.6 | 267 | 31 | |
| 2010-03-01T06:00 | 3900 | 601 | -20.1 | -21.8 | 268 | 31 | |
| 2010-03-01T06:00 | 3923 | 599 | -20.2 | -21.9 | 268 | 31 | |
| 2010-03-01T06:00 | 3947 | 598 | -20.4 | -22.2 | 268 | 30 | |
| 2010-03-01T06:00 | 3971 | 596 | -20.5 | -22.4 | 267 | 30 | |
| 2010-03-01T06:00 | 3993 | 594 | -20.6 | -22.6 | 267 | 30 | |
| 2010-03-01T06:00 | 4019 | 592 | -20.7 | -22.7 | 267 | 30 | |
| 2010-03-01T06:00 | 4045 | 590 | -20.9 | -22.9 | 267 | 30 | |
| 2010-03-01T06:00 | 4068 | 588 | -21.0 | -23.0 | 268 | 29 | |
| 2010-03-01T06:00 | 4093 | 586 | -21.2 | -23.4 | 268 | 29 | |
| 2010-03-01T06:00 | 4115 | 584 | -21.3 | -23.6 | 268 | 29 | |
| 2010-03-01T06:00 | 4141 | 582 | -21.4 | -23.7 | 268 | 29 | |
| 2010-03-01T06:00 | 4165 | 580 | -21.5 | -23.8 | 269 | 28 | |
| 2010-03-01T06:00 | 4189 | 578 | -21.7 | -24.0 | 268 | 28 | |
| 2010-03-01T06:00 | 4211 | 577 | -21.8 | -24.2 | 268 | 27 | |
| 2010-03-01T06:00 | 4236 | 575 | -21.9 | -24.4 | 267 | 26 | |
| 2010-03-01T06:00 | 4257 | 573 | -21.9 | -24.3 | 267 | 26 | |
| 2010-03-01T06:00 | 4279 | 571 | -22.0 | -24.5 | 266 | 26 | |
| 2010-03-01T06:00 | 4303 | 569 | -22.2 | -24.9 | 266 | 26 | |
| 2010-03-01T06:00 | 4327 | 568 | -22.3 | -25.0 | 266 | 26 | |
| 2010-03-01T06:00 | 4352 | 566 | -22.4 | -25.2 | 267 | 26 | |
| 2010-03-01T06:00 | 4377 | 564 | -22.4 | -25.2 | 267 | 26 | |
| 2010-03-01T06:00 | 4401 | 562 | -22.5 | -25.1 | 268 | 25 | |
| 2010-03-01T06:00 | 4423 | 560 | -22.6 | -25.2 | 268 | 25 | |
| 2010-03-01T06:00 | 4447 | 558 | -22.7 | -25.3 | 268 | 24 | |
| 2010-03-01T06:00 | 4475 | 556 | -22.8 | -25.4 | 268 | 24 | |
| 2010-03-01T06:00 | 4499 | 554 | -23.0 | -25.5 | 268 | 24 | |
| 2010-03-01T06:00 | 4522 | 553 | -23.0 | 269 | 23 | ||
| 2010-03-01T06:00 | 4549 | 551 | -23.1 | -25.5 | 270 | 23 | |
| 2010-03-01T06:00 | 4574 | 549 | -23.3 | -25.5 | 271 | 23 | |
| 2010-03-01T06:00 | 4595 | 547 | -23.5 | -25.7 | 272 | 23 | |
| 2010-03-01T06:00 | 4618 | 545 | -23.6 | -25.7 | 272 | 23 | |
| 2010-03-01T06:00 | 4643 | 544 | -23.8 | -25.8 | 272 | 22 | |
| 2010-03-01T06:00 | 4668 | 542 | -23.9 | -25.9 | 270 | 22 | |
| 2010-03-01T06:00 | 4692 | 540 | -24.0 | -26.1 | 268 | 21 | |
| 2010-03-01T06:00 | 4718 | 538 | -24.1 | -26.5 | 265 | 21 | |
| 2010-03-01T06:00 | 4738 | 537 | -24.1 | -26.6 | 263 | 20 | |
| 2010-03-01T06:00 | 4761 | 535 | -24.3 | -26.8 | 262 | 20 | |
| 2010-03-01T06:00 | 4787 | 533 | -24.5 | -26.9 | 262 | 20 | |
| 2010-03-01T06:00 | 4812 | 531 | -24.7 | -26.9 | 262 | 21 | |
| 2010-03-01T06:00 | 4838 | 529 | -24.9 | -27.1 | 262 | 21 | |
| 2010-03-01T06:00 | 4860 | 528 | -25.1 | -27.4 | 262 | 21 | |
| 2010-03-01T06:00 | 4887 | 526 | -25.3 | -27.9 | 262 | 22 | |
| 2010-03-01T06:00 | 4913 | 524 | -25.5 | -28.1 | 262 | 22 | |
| 2010-03-01T06:00 | 4940 | 522 | -25.6 | -28.3 | 261 | 22 | |
| 2010-03-01T06:00 | 4964 | 520 | -25.8 | -28.5 | 261 | 22 | |
| 2010-03-01T06:00 | 4993 | 518 | -26.0 | -28.7 | 261 | 22 | |
| 2010-03-01T06:00 | 5015 | 516 | -26.2 | -28.9 | 261 | 22 | |
| 2010-03-01T06:00 | 5036 | 515 | -26.3 | -29.0 | 260 | 22 | |
| 2010-03-01T06:00 | 5062 | 513 | -26.5 | -29.3 | 260 | 22 | |
| 2010-03-01T06:00 | 5090 | 511 | -26.6 | -29.5 | 259 | 22 | |
| 2010-03-01T06:00 | 5118 | 509 | -26.8 | -29.7 | 258 | 22 | |
| 2010-03-01T06:00 | 5144 | 507 | -27.0 | -29.9 | 257 | 22 | |
| 2010-03-01T06:00 | 5168 | 506 | -27.1 | -30.0 | 257 | 22 | |
| 2010-03-01T06:00 | 5191 | 504 | -27.3 | -30.2 | 258 | 22 | |
| 2010-03-01T06:00 | 5213 | 503 | -27.5 | -30.3 | 259 | 22 | |
| 2010-03-01T06:00 | 5237 | 501 | -27.7 | -30.5 | 259 | 22 | |
| 2010-03-01T06:00 | 5264 | 499 | -27.9 | -30.6 | 259 | 22 | |
| 2010-03-01T06:00 | 5288 | 497 | -28.1 | -30.6 | 259 | 21 | |
| 2010-03-01T06:00 | 5313 | 496 | -28.3 | -30.8 | 260 | 21 | |
| 2010-03-01T06:00 | 5343 | 493 | -28.5 | -31.0 | 261 | 21 | |
| 2010-03-01T06:00 | 5370 | 492 | -28.7 | -31.3 | 263 | 21 | |
| 2010-03-01T06:00 | 5393 | 490 | -28.8 | -31.7 | 266 | 21 | |
| 2010-03-01T06:00 | 5415 | 489 | -29.0 | -32.1 | 267 | 20 | |
| 2010-03-01T06:00 | 5439 | 487 | -29.0 | -32.4 | 268 | 20 | |
| 2010-03-01T06:00 | 5465 | 485 | -29.1 | -32.6 | 268 | 20 | |
| 2010-03-01T06:00 | 5493 | 483 | -29.2 | -32.9 | 268 | 20 | |
| 2010-03-01T06:00 | 5519 | 481 | -29.3 | -33.1 | 269 | 20 | |
| 2010-03-01T06:00 | 5547 | 480 | -29.3 | -33.3 | 269 | 20 | |
| 2010-03-01T06:00 | 5571 | 478 | -29.4 | -33.2 | 270 | 19 | |
| 2010-03-01T06:00 | 5596 | 476 | -29.4 | -33.1 | 272 | 19 | |
| 2010-03-01T06:00 | 5628 | 474 | -29.6 | -33.1 | 273 | 19 | |
| 2010-03-01T06:00 | 5654 | 472 | -29.8 | -33.1 | 275 | 18 | |
| 2010-03-01T06:00 | 5679 | 471 | -30.0 | -33.1 | 277 | 18 | |
| 2010-03-01T06:00 | 5703 | 469 | -30.1 | -33.0 | 278 | 17 | |
| 2010-03-01T06:00 | 5733 | 467 | -30.3 | -33.0 | 280 | 17 | |
| 2010-03-01T06:00 | 5760 | 465 | -30.5 | -33.1 | 281 | 17 | |
| 2010-03-01T06:00 | 5784 | 464 | -30.7 | -33.1 | 282 | 16 | |
| 2010-03-01T06:00 | 5809 | 462 | -30.9 | -33.1 | 284 | 16 | |
| 2010-03-01T06:00 | 5836 | 461 | -31.0 | -33.0 | 285 | 15 | |
| 2010-03-01T06:00 | 5861 | 459 | -31.2 | -33.1 | 285 | 14 | |
| 2010-03-01T06:00 | 5885 | 457 | -31.3 | -33.1 | 285 | 13 | |
| 2010-03-01T06:00 | 5918 | 455 | -31.4 | -33.2 | 284 | 13 | |
| 2010-03-01T06:00 | 5948 | 453 | -31.6 | -33.6 | 282 | 12 | |
| 2010-03-01T06:00 | 5972 | 452 | -31.6 | -33.9 | 281 | 11 | |
| 2010-03-01T06:00 | 5996 | 450 | -31.8 | -34.6 | 279 | 11 | |
| 2010-03-01T06:00 | 6024 | 448 | -32.0 | -34.9 | 278 | 10 | |
| 2010-03-01T06:00 | 6048 | 447 | -32.1 | -35.0 | 277 | 10 | |
| 2010-03-01T06:00 | 6070 | 446 | -32.3 | -35.1 | 277 | 10 | |
| 2010-03-01T06:00 | 6096 | 444 | -32.6 | -35.3 | 277 | 11 | |
| 2010-03-01T06:00 | 6122 | 442 | -32.8 | -35.1 | 276 | 11 | |
| 2010-03-01T06:00 | 6147 | 441 | -33.0 | -35.6 | 275 | 12 | |
| 2010-03-01T06:00 | 6174 | 439 | -33.2 | -36.2 | 275 | 12 | |
| 2010-03-01T06:00 | 6203 | 437 | -33.5 | -36.7 | 274 | 12 | |
| 2010-03-01T06:00 | 6233 | 435 | -33.8 | -37.0 | 274 | 12 | |
| 2010-03-01T06:00 | 6256 | 434 | -34.0 | -37.1 | 275 | 12 | |
| 2010-03-01T06:00 | 6285 | 432 | -34.2 | -37.2 | 277 | 11 | |
| 2010-03-01T06:00 | 6309 | 431 | -34.5 | -37.5 | 278 | 11 | |
| 2010-03-01T06:00 | 6331 | 429 | -34.6 | -37.7 | 280 | 11 | |
| 2010-03-01T06:00 | 6359 | 428 | -34.8 | -37.9 | 280 | 11 | |
| 2010-03-01T06:00 | 6383 | 426 | -35.0 | -38.1 | 280 | 11 | |
| 2010-03-01T06:00 | 6408 | 425 | -35.2 | -38.3 | 279 | 11 | |
| 2010-03-01T06:00 | 6435 | 423 | -35.4 | -38.1 | 277 | 11 | |
| 2010-03-01T06:00 | 6461 | 421 | -35.6 | -38.2 | 276 | 11 | |
| 2010-03-01T06:00 | 6489 | 420 | -35.8 | -38.3 | 274 | 11 | |
| 2010-03-01T06:00 | 6515 | 418 | -36.1 | -38.6 | 274 | 10 | |
| 2010-03-01T06:00 | 6545 | 416 | -36.4 | -38.6 | 274 | 10 | |
| 2010-03-01T06:00 | 6573 | 415 | -36.6 | -38.7 | 275 | 9 | |
| 2010-03-01T06:00 | 6602 | 413 | -36.8 | -39.0 | 276 | 9 | |
| 2010-03-01T06:00 | 6626 | 411 | -36.9 | -39.1 | 278 | 9 | |
| 2010-03-01T06:00 | 6653 | 410 | -37.1 | -39.1 | 279 | 9 | |
| 2010-03-01T06:00 | 6675 | 408 | -37.3 | -39.3 | 280 | 9 | |
| 2010-03-01T06:00 | 6707 | 407 | -37.6 | -39.5 | 281 | 10 | |
| 2010-03-01T06:00 | 6735 | 405 | -37.8 | -39.7 | 281 | 10 | |
| 2010-03-01T06:00 | 6758 | 404 | -38.0 | -39.6 | 281 | 10 | |
| 2010-03-01T06:00 | 6783 | 402 | -38.2 | -39.3 | 280 | 11 | |
| 2010-03-01T06:00 | 6806 | 401 | -38.4 | -39.3 | 280 | 11 | |
| 2010-03-01T06:00 | 6835 | 399 | -38.5 | -40.3 | 280 | 11 | |
| 2010-03-01T06:00 | 6860 | 398 | -38.8 | -40.1 | 281 | 11 | |
| 2010-03-01T06:00 | 6884 | 396 | -39.0 | -39.9 | 281 | 11 | |
| 2010-03-01T06:00 | 6907 | 395 | -39.1 | -41.1 | 281 | 11 | |
| 2010-03-01T06:00 | 6930 | 394 | -39.4 | -41.8 | 281 | 11 | |
| 2010-03-01T06:00 | 6953 | 392 | -39.5 | -42.1 | 282 | 11 | |
| 2010-03-01T06:00 | 6978 | 391 | -39.8 | -42.4 | 283 | 11 | |
| 2010-03-01T06:00 | 7001 | 390 | -40.0 | -42.9 | 285 | 11 | |
| 2010-03-01T06:00 | 7024 | 388 | -40.2 | -43.2 | 287 | 11 | |
| 2010-03-01T06:00 | 7052 | 387 | -40.6 | -43.1 | 289 | 11 | |
| 2010-03-01T06:00 | 7070 | 386 | -40.8 | -42.7 | 290 | 10 | |
| 2010-03-01T06:00 | 7092 | 384 | -41.0 | -42.8 | 289 | 10 | |
| 2010-03-01T06:00 | 7120 | 383 | -41.2 | -42.8 | 288 | 10 | |
| 2010-03-01T06:00 | 7143 | 382 | -41.4 | -43.1 | 286 | 9 | |
| 2010-03-01T06:00 | 7174 | 380 | -41.5 | -43.5 | 285 | 9 | |
| 2010-03-01T06:00 | 7207 | 378 | -41.8 | -43.5 | 284 | 8 | |
| 2010-03-01T06:00 | 7235 | 376 | -42.0 | -43.7 | 284 | 8 | |
| 2010-03-01T06:00 | 7265 | 375 | -42.2 | -43.9 | 284 | 7 | |
| 2010-03-01T06:00 | 7293 | 373 | -42.4 | -44.3 | 285 | 7 | |
| 2010-03-01T06:00 | 7318 | 372 | -42.6 | -44.6 | 286 | 6 | |
| 2010-03-01T06:00 | 7338 | 371 | -42.8 | -44.8 | 286 | 6 | |
| 2010-03-01T06:00 | 7368 | 369 | -43.0 | -45.1 | 285 | 6 | |
| 2010-03-01T06:00 | 7390 | 368 | -43.2 | -45.2 | 283 | 6 | |
| 2010-03-01T06:00 | 7410 | 367 | -43.3 | -45.3 | 281 | 6 | |
| 2010-03-01T06:00 | 7431 | 366 | -43.5 | -45.6 | 279 | 6 | |
| 2010-03-01T06:00 | 7453 | 364 | -43.6 | -45.6 | 278 | 6 | |
| 2010-03-01T06:00 | 7476 | 363 | -43.8 | -45.8 | 278 | 6 | |
| 2010-03-01T06:00 | 7498 | 362 | -44.0 | 279 | 6 | ||
| 2010-03-01T06:00 | 7517 | 361 | -44.2 | -46.3 | 281 | 7 | |
| 2010-03-01T06:00 | 7538 | 360 | -44.3 | -46.5 | 284 | 7 | |
| 2010-03-01T06:00 | 7558 | 359 | -44.4 | -46.9 | 287 | 7 | |
| 2010-03-01T06:00 | 7578 | 358 | -44.5 | -47.0 | 291 | 7 | |
| 2010-03-01T06:00 | 7598 | 357 | -44.7 | -47.2 | 295 | 7 | |
| 2010-03-01T06:00 | 7620 | 355 | -44.8 | -47.2 | 298 | 7 | |
| 2010-03-01T06:00 | 7640 | 354 | -44.9 | -47.3 | 301 | 7 | |
| 2010-03-01T06:00 | 7662 | 353 | -45.1 | -47.6 | 303 | 7 | |
| 2010-03-01T06:00 | 7683 | 352 | -45.2 | -47.9 | 303 | 7 | |
| 2010-03-01T06:00 | 7705 | 351 | -45.2 | -47.9 | 303 | 7 | |
| 2010-03-01T06:00 | 7727 | 350 | -45.3 | -47.9 | 301 | 7 | |
| 2010-03-01T06:00 | 7754 | 348 | -45.6 | -48.1 | 296 | 7 | |
| 2010-03-01T06:00 | 7781 | 347 | -45.7 | -48.3 | 291 | 8 | |
| 2010-03-01T06:00 | 7808 | 346 | -45.4 | -48.9 | 284 | 8 | |
| 2010-03-01T06:00 | 7826 | 345 | -45.4 | -49.9 | 278 | 9 | |
| 2010-03-01T06:00 | 7845 | 344 | -45.4 | -50.6 | 273 | 10 | |
| 2010-03-01T06:00 | 7866 | 343 | -45.5 | -51.4 | 270 | 10 | |
| 2010-03-01T06:00 | 7892 | 341 | -45.5 | -52.0 | 268 | 11 | |
| 2010-03-01T06:00 | 7911 | 340 | -45.5 | -52.8 | 268 | 12 | |
| 2010-03-01T06:00 | 7932 | 339 | -45.2 | -53.3 | 268 | 12 | |
| 2010-03-01T06:00 | 7950 | 338 | -45.1 | -55.4 | 268 | 12 | |
| 2010-03-01T06:00 | 7970 | 337 | -45.1 | -57.6 | 267 | 12 | |
| 2010-03-01T06:00 | 7993 | 336 | -45.1 | -58.0 | 267 | 12 | |
| 2010-03-01T06:00 | 8011 | 335 | -45.1 | -58.7 | 266 | 12 | |
| 2010-03-01T06:00 | 8033 | 334 | -45.1 | -59.6 | 265 | 12 | |
| 2010-03-01T06:00 | 8053 | 333 | -45.1 | -60.6 | 264 | 12 | |
| 2010-03-01T06:00 | 8073 | 332 | -45.1 | -61.1 | 263 | 12 | |
| 2010-03-01T06:00 | 8095 | 331 | -45.1 | -61.7 | 262 | 13 | |
| 2010-03-01T06:00 | 8117 | 330 | -44.9 | -62.2 | 262 | 13 | |
| 2010-03-01T06:00 | 8138 | 329 | -44.9 | -61.6 | 261 | 14 | |
| 2010-03-01T06:00 | 8159 | 328 | -44.8 | -61.5 | 261 | 14 | |
| 2010-03-01T06:00 | 8184 | 327 | -44.8 | -62.1 | 261 | 15 | |
| 2010-03-01T06:00 | 8205 | 326 | -44.9 | -62.2 | 260 | 15 | |
| 2010-03-01T06:00 | 8227 | 325 | -44.9 | -62.2 | 259 | 15 | |
| 2010-03-01T06:00 | 8247 | 324 | -45.0 | -62.3 | 258 | 15 | |
| 2010-03-01T06:00 | 8271 | 322 | -45.1 | -62.4 | 256 | 15 | |
| 2010-03-01T06:00 | 8299 | 321 | -45.1 | -62.4 | 254 | 15 | |
| 2010-03-01T06:00 | 8319 | 320 | -45.1 | -63.1 | 252 | 15 | |
| 2010-03-01T06:00 | 8341 | 319 | -45.0 | -63.0 | 250 | 15 | |
| 2010-03-01T06:00 | 8363 | 318 | -44.9 | -63.6 | 248 | 16 | |
| 2010-03-01T06:00 | 8387 | 317 | -44.8 | -63.6 | 246 | 16 | |
| 2010-03-01T06:00 | 8408 | 316 | -44.9 | -63.6 | 244 | 16 | |
| 2010-03-01T06:00 | 8430 | 315 | -44.9 | -63.6 | 243 | 17 | |
| 2010-03-01T06:00 | 8453 | 314 | -44.8 | -63.6 | 241 | 17 | |
| 2010-03-01T06:00 | 8474 | 313 | -44.9 | -63.6 | 240 | 18 | |
| 2010-03-01T06:00 | 8496 | 312 | -44.5 | -63.3 | 239 | 19 | |
| 2010-03-01T06:00 | 8520 | 311 | -43.7 | -64.4 | 239 | 20 | |
| 2010-03-01T06:00 | 8543 | 310 | -43.5 | -64.3 | 240 | 21 | |
| 2010-03-01T06:00 | 8565 | 309 | -43.6 | -64.3 | 240 | 21 | |
| 2010-03-01T06:00 | 8590 | 307 | -43.6 | -65.4 | 240 | 21 | |
| 2010-03-01T06:00 | 8613 | 306 | -43.2 | -65.1 | 241 | 21 | |
| 2010-03-01T06:00 | 8638 | 305 | -43.2 | -64.0 | 241 | 21 | |
| 2010-03-01T06:00 | 8661 | 304 | -43.4 | -64.2 | 241 | 21 | |
| 2010-03-01T06:00 | 8684 | 303 | -43.6 | -65.4 | 241 | 20 | |
| 2010-03-01T06:00 | 8705 | 302 | -43.7 | -65.5 | 242 | 20 | |
| 2010-03-01T06:00 | 8729 | 301 | -43.3 | -65.2 | 243 | 19 | |
| 2010-03-01T06:00 | 8755 | 300 | -42.9 | -64.9 | 244 | 19 | |
| 2010-03-01T06:00 | 8776 | 299 | -42.7 | -64.7 | 245 | 19 | |
| 2010-03-01T06:00 | 8797 | 298 | -42.7 | -63.6 | 246 | 18 | |
| 2010-03-01T06:00 | 8819 | 297 | -42.6 | -63.5 | 247 | 18 | |
| 2010-03-01T06:00 | 8843 | 296 | -42.4 | -64.4 | 247 | 18 | |
| 2010-03-01T06:00 | 8864 | 295 | -42.3 | -64.4 | 248 | 18 | |
| 2010-03-01T06:00 | 8885 | 294 | -42.4 | -64.4 | 249 | 19 | |
| 2010-03-01T06:00 | 8907 | 293 | -42.5 | -64.5 | 249 | 19 | |
| 2010-03-01T06:00 | 8930 | 292 | -42.6 | -65.9 | 250 | 19 | |
| 2010-03-01T06:00 | 8952 | 291 | -42.7 | -64.7 | 250 | 20 | |
| 2010-03-01T06:00 | 8974 | 290 | -42.8 | -66.1 | 251 | 20 | |
| 2010-03-01T06:00 | 8998 | 289 | -43.0 | -64.9 | 252 | 20 | |
| 2010-03-01T06:00 | 9024 | 288 | -43.2 | -64.0 | 252 | 21 | |
| 2010-03-01T06:00 | 9046 | 287 | -43.1 | -63.9 | 253 | 22 | |
| 2010-03-01T06:00 | 9067 | 286 | -43.2 | -64.0 | 254 | 22 | |
| 2010-03-01T06:00 | 9087 | 286 | -43.2 | -63.1 | 254 | 23 | |
| 2010-03-01T06:00 | 9111 | 284 | -43.3 | -64.1 | 255 | 23 | |
| 2010-03-01T06:00 | 9133 | 284 | -43.3 | -64.1 | 255 | 24 | |
| 2010-03-01T06:00 | 9156 | 283 | -43.3 | -63.1 | 255 | 24 | |
| 2010-03-01T06:00 | 9180 | 282 | -43.4 | -64.2 | 255 | 25 | |
| 2010-03-01T06:00 | 9200 | 281 | -43.3 | -65.2 | 255 | 25 | |
| 2010-03-01T06:00 | 9220 | 280 | -43.0 | -63.8 | 255 | 25 | |
| 2010-03-01T06:00 | 9241 | 279 | -42.7 | -63.6 | 256 | 25 | |
| 2010-03-01T06:00 | 9262 | 278 | -42.7 | -64.7 | 256 | 25 | |
| 2010-03-01T06:00 | 9282 | 277 | -42.7 | -63.6 | 256 | 25 | |
| 2010-03-01T06:00 | 9302 | 277 | -42.6 | -63.5 | 257 | 24 | |
| 2010-03-01T06:00 | 9323 | 276 | -42.5 | -63.4 | 257 | 24 | |
| 2010-03-01T06:00 | 9344 | 275 | -42.5 | -63.4 | 257 | 23 | |
| 2010-03-01T06:00 | 9366 | 274 | -42.5 | -63.4 | 257 | 23 | |
| 2010-03-01T06:00 | 9387 | 273 | -42.6 | -64.6 | 257 | 23 | |
| 2010-03-01T06:00 | 9408 | 272 | -42.6 | -63.5 | 258 | 22 | |
| 2010-03-01T06:00 | 9430 | 271 | -42.5 | -63.4 | 259 | 22 | |
| 2010-03-01T06:00 | 9451 | 271 | -42.5 | -65.8 | 260 | 22 | |
| 2010-03-01T06:00 | 9471 | 270 | -42.6 | -65.9 | 261 | 21 | |
| 2010-03-01T06:00 | 9493 | 269 | -42.6 | -65.9 | 261 | 21 | |
| 2010-03-01T06:00 | 9515 | 268 | -42.6 | -65.9 | 260 | 21 | |
| 2010-03-01T06:00 | 9536 | 267 | -42.5 | -65.8 | 259 | 20 | |
| 2010-03-01T06:00 | 9559 | 266 | -42.4 | -64.4 | 257 | 20 | |
| 2010-03-01T06:00 | 9581 | 265 | -42.4 | -64.4 | 256 | 20 | |
| 2010-03-01T06:00 | 9604 | 264 | -42.2 | -65.6 | 254 | 19 | |
| 2010-03-01T06:00 | 9629 | 263 | -42.1 | -65.5 | 253 | 19 | |
| 2010-03-01T06:00 | 9657 | 262 | -42.2 | -65.6 | 252 | 19 | |
| 2010-03-01T06:00 | 9680 | 261 | -42.3 | -65.6 | 252 | 19 | |
| 2010-03-01T06:00 | 9705 | 261 | -42.3 | -67.2 | 251 | 18 | |
| 2010-03-01T06:00 | 9729 | 260 | -42.5 | -67.4 | 251 | 18 | |
| 2010-03-01T06:00 | 9752 | 259 | -42.6 | -67.4 | 250 | 18 | |
| 2010-03-01T06:00 | 9775 | 258 | -42.8 | -67.6 | 250 | 18 | |
| 2010-03-01T06:00 | 9797 | 257 | -42.9 | -67.7 | 249 | 18 | |
| 2010-03-01T06:00 | 9819 | 256 | -43.1 | 248 | 18 | ||
| 2010-03-01T06:00 | 9842 | 255 | -43.2 | -67.9 | 248 | 17 | |
| 2010-03-01T06:00 | 9867 | 254 | -43.3 | -68.0 | 248 | 17 | |
| 2010-03-01T06:00 | 9890 | 253 | -43.3 | -68.0 | 248 | 17 | |
| 2010-03-01T06:00 | 9914 | 253 | -43.2 | -67.9 | 249 | 16 | |
| 2010-03-01T06:00 | 9935 | 252 | -43.3 | -65.2 | 250 | 16 | |
| 2010-03-01T06:00 | 9958 | 251 | -43.4 | -66.5 | 250 | 16 | |
| 2010-03-01T06:00 | 9981 | 250 | -43.5 | -66.6 | 250 | 16 | |
| 2010-03-01T06:00 | 10002 | 249 | -43.5 | -65.3 | 249 | 16 | |
| 2010-03-01T06:00 | 10023 | 249 | -43.6 | -68.2 | 247 | 16 | |
| 2010-03-01T06:00 | 10047 | 248 | -43.6 | -68.2 | 246 | 16 | |
| 2010-03-01T06:00 | 10069 | 247 | -43.6 | -68.2 | 245 | 16 | |
| 2010-03-01T06:00 | 10094 | 246 | -43.7 | -66.8 | 244 | 16 | |
| 2010-03-01T06:00 | 10116 | 245 | -43.7 | -65.5 | 243 | 16 | |
| 2010-03-01T06:00 | 10139 | 244 | -43.6 | -65.4 | 243 | 16 | |
| 2010-03-01T06:00 | 10160 | 243 | -43.6 | -65.4 | 243 | 16 | |
| 2010-03-01T06:00 | 10184 | 243 | -43.5 | -65.3 | 243 | 16 | |
| 2010-03-01T06:00 | 10208 | 242 | -43.5 | -66.6 | 243 | 17 | |
| 2010-03-01T06:00 | 10230 | 241 | -43.4 | -66.5 | 243 | 17 | |
| 2010-03-01T06:00 | 10253 | 240 | -43.5 | -68.2 | 243 | 17 | |
| 2010-03-01T06:00 | 10277 | 239 | -43.6 | -68.2 | 242 | 17 | |
| 2010-03-01T06:00 | 10298 | 239 | -43.7 | -66.8 | 242 | 18 | |
| 2010-03-01T06:00 | 10320 | 238 | -43.9 | -66.9 | 241 | 18 | |
| 2010-03-01T06:00 | 10340 | 237 | -44.0 | -67.0 | 241 | 19 | |
| 2010-03-01T06:00 | 10363 | 236 | -44.2 | -67.2 | 240 | 19 | |
| 2010-03-01T06:00 | 10384 | 236 | -44.4 | 240 | 19 | ||
| 2010-03-01T06:00 | 10405 | 235 | -44.6 | -69.0 | 240 | 19 | |
| 2010-03-01T06:00 | 10426 | 234 | -44.7 | -69.1 | 240 | 20 | |
| 2010-03-01T06:00 | 10446 | 233 | -44.8 | -67.7 | 240 | 20 | |
| 2010-03-01T06:00 | 10466 | 233 | -44.9 | -69.3 | 241 | 21 | |
| 2010-03-01T06:00 | 10486 | 232 | -44.9 | -69.3 | 243 | 21 | |
| 2010-03-01T06:00 | 10506 | 231 | -44.7 | -69.1 | 244 | 22 | |
| 2010-03-01T06:00 | 10527 | 231 | -44.6 | -69.0 | 245 | 22 | |
| 2010-03-01T06:00 | 10550 | 230 | -44.6 | -71.0 | 246 | 23 | |
| 2010-03-01T06:00 | 10572 | 229 | -44.6 | -69.0 | 248 | 23 | |
| 2010-03-01T06:00 | 10593 | 228 | -44.6 | -69.0 | 249 | 23 | |
| 2010-03-01T06:00 | 10616 | 227 | -44.5 | -70.9 | 250 | 23 | |
| 2010-03-01T06:00 | 10638 | 227 | -44.2 | -68.7 | 250 | 22 | |
| 2010-03-01T06:00 | 10661 | 226 | -43.9 | -70.4 | 250 | 22 | |
| 2010-03-01T06:00 | 10684 | 225 | -43.9 | -70.4 | 250 | 22 | |
| 2010-03-01T06:00 | 10704 | 224 | -43.9 | -70.4 | 249 | 22 | |
| 2010-03-01T06:00 | 10724 | 224 | -44.0 | -70.5 | 249 | 22 | |
| 2010-03-01T06:00 | 10745 | 223 | -44.0 | -70.5 | 248 | 21 | |
| 2010-03-01T06:00 | 10766 | 222 | -44.1 | -70.6 | 248 | 21 | |
| 2010-03-01T06:00 | 10789 | 222 | -44.2 | -70.7 | 247 | 21 | |
| 2010-03-01T06:00 | 10811 | 221 | -44.2 | -70.7 | 247 | 20 | |
| 2010-03-01T06:00 | 10832 | 220 | -44.2 | -68.7 | 247 | 20 | |
| 2010-03-01T06:00 | 10853 | 220 | -44.3 | -68.8 | 247 | 20 | |
| 2010-03-01T06:00 | 10875 | 219 | -44.4 | 247 | 20 | ||
| 2010-03-01T06:00 | 10896 | 218 | -44.6 | -67.5 | 247 | 20 | |
| 2010-03-01T06:00 | 10918 | 217 | -44.7 | -69.1 | 248 | 20 | |
| 2010-03-01T06:00 | 10940 | 217 | -44.8 | -71.1 | 248 | 20 | |
| 2010-03-01T06:00 | 10961 | 216 | -44.9 | -71.2 | 248 | 20 | |
| 2010-03-01T06:00 | 10982 | 215 | -44.9 | -69.3 | 248 | 19 | |
| 2010-03-01T06:00 | 11003 | 215 | -44.9 | -69.3 | 248 | 20 | |
| 2010-03-01T06:00 | 11025 | 214 | -44.9 | -69.3 | 248 | 20 | |
| 2010-03-01T06:00 | 11046 | 213 | -45.0 | -67.8 | 248 | 20 | |
| 2010-03-01T06:00 | 11068 | 213 | -45.1 | -67.9 | 248 | 20 | |
| 2010-03-01T06:00 | 11088 | 212 | -45.1 | -69.4 | 247 | 21 | |
| 2010-03-01T06:00 | 11108 | 211 | -45.0 | -71.3 | 247 | 21 | |
| 2010-03-01T06:00 | 11129 | 211 | -45.0 | -71.3 | 247 | 21 | |
| 2010-03-01T06:00 | 11152 | 210 | -45.0 | -71.3 | 247 | 21 | |
| 2010-03-01T06:00 | 11174 | 209 | -45.0 | -71.3 | 247 | 20 | |
| 2010-03-01T06:00 | 11196 | 209 | -45.1 | -71.4 | 248 | 20 | |
| 2010-03-01T06:00 | 11218 | 208 | -45.1 | -71.4 | 248 | 20 | |
| 2010-03-01T06:00 | 11240 | 207 | -45.1 | -69.4 | 249 | 20 | |
| 2010-03-01T06:00 | 11261 | 207 | -44.8 | -69.2 | 250 | 20 | |
| 2010-03-01T06:00 | 11282 | 206 | -44.8 | -69.2 | 251 | 20 | |
| 2010-03-01T06:00 | 11302 | 205 | -44.8 | -67.7 | 251 | 20 | |
| 2010-03-01T06:00 | 11324 | 205 | -44.9 | -69.3 | 252 | 20 | |
| 2010-03-01T06:00 | 11347 | 204 | -44.9 | -69.3 | 251 | 21 | |
| 2010-03-01T06:00 | 11369 | 203 | -45.0 | -69.4 | 251 | 21 | |
| 2010-03-01T06:00 | 11390 | 203 | -45.0 | -69.4 | 251 | 21 | |
| 2010-03-01T06:00 | 11411 | 202 | -44.9 | -69.3 | 251 | 21 | |
| 2010-03-01T06:00 | 11433 | 201 | -44.7 | -71.0 | 251 | 21 | |
| 2010-03-01T06:00 | 11454 | 201 | -44.7 | -71.0 | 250 | 21 | |
| 2010-03-01T06:00 | 11475 | 200 | -44.9 | -71.2 | 250 | 21 | |
| 2010-03-01T06:00 | 11497 | 199 | -45.1 | -71.4 | 250 | 21 | |
| 2010-03-01T06:00 | 11519 | 199 | -45.2 | -71.4 | 250 | 20 | |
| 2010-03-01T06:00 | 11541 | 198 | -45.4 | -71.6 | 250 | 20 | |
| 2010-03-01T06:00 | 11563 | 197 | -45.5 | -71.7 | 250 | 20 | |
| 2010-03-01T06:00 | 11584 | 197 | -45.6 | -71.8 | 249 | 20 | |
| 2010-03-01T06:00 | 11606 | 196 | -45.6 | -71.8 | 248 | 20 | |
| 2010-03-01T06:00 | 11627 | 196 | -45.7 | -71.8 | 246 | 20 | |
| 2010-03-01T06:00 | 11649 | 195 | -45.7 | -71.8 | 244 | 20 | |
| 2010-03-01T06:00 | 11671 | 194 | -45.7 | -71.8 | 242 | 21 | |
| 2010-03-01T06:00 | 11692 | 194 | -45.4 | -71.6 | 241 | 21 | |
| 2010-03-01T06:00 | 11718 | 193 | -45.3 | -71.5 | 239 | 22 | |
| 2010-03-01T06:00 | 11742 | 192 | -45.4 | -71.6 | 239 | 22 | |
| 2010-03-01T06:00 | 11768 | 191 | -45.6 | -71.8 | 239 | 23 | |
| 2010-03-01T06:00 | 11792 | 191 | -45.7 | -71.8 | 239 | 24 | |
| 2010-03-01T06:00 | 11816 | 190 | -45.7 | -71.8 | 239 | 25 | |
| 2010-03-01T06:00 | 11838 | 189 | -45.8 | -71.9 | 240 | 25 | |
| 2010-03-01T06:00 | 11861 | 189 | -45.9 | -72.0 | 241 | 26 | |
| 2010-03-01T06:00 | 11884 | 188 | -45.9 | -72.0 | 241 | 26 | |
| 2010-03-01T06:00 | 11905 | 188 | -45.8 | -70.0 | 241 | 27 | |
| 2010-03-01T06:00 | 11929 | 187 | -45.8 | -70.0 | 241 | 27 | |
| 2010-03-01T06:00 | 11952 | 186 | -45.5 | -69.8 | 241 | 28 | |
| 2010-03-01T06:00 | 11974 | 186 | -45.6 | -69.8 | 241 | 28 | |
| 2010-03-01T06:00 | 11997 | 185 | -45.8 | -70.0 | 242 | 29 | |
| 2010-03-01T06:00 | 12019 | 184 | -45.9 | -72.0 | 242 | 29 | |
| 2010-03-01T06:00 | 12041 | 184 | -46.0 | -70.2 | 243 | 29 | |
| 2010-03-01T06:00 | 12062 | 183 | -45.9 | -70.1 | 243 | 30 | |
| 2010-03-01T06:00 | 12085 | 183 | -45.8 | -70.0 | 244 | 30 | |
| 2010-03-01T06:00 | 12107 | 182 | -45.8 | -71.9 | 244 | 30 | |
| 2010-03-01T06:00 | 12130 | 181 | -45.8 | -71.9 | 245 | 30 | |
| 2010-03-01T06:00 | 12154 | 181 | -45.7 | -71.8 | 246 | 30 | |
| 2010-03-01T06:00 | 12178 | 180 | -45.7 | -71.8 | 246 | 30 | |
| 2010-03-01T06:00 | 12201 | 179 | -45.8 | -71.9 | 247 | 30 | |
| 2010-03-01T06:00 | 12224 | 179 | -45.8 | -71.9 | 248 | 30 | |
| 2010-03-01T06:00 | 12247 | 178 | -45.8 | -71.9 | 248 | 30 | |
| 2010-03-01T06:00 | 12268 | 178 | -45.8 | -71.9 | 249 | 30 | |
| 2010-03-01T06:00 | 12291 | 177 | -45.9 | -72.0 | 249 | 29 | |
| 2010-03-01T06:00 | 12313 | 176 | -45.8 | -71.9 | 249 | 29 | |
| 2010-03-01T06:00 | 12337 | 176 | -45.9 | -72.0 | 250 | 29 | |
| 2010-03-01T06:00 | 12360 | 175 | -45.7 | -71.8 | 250 | 28 | |
| 2010-03-01T06:00 | 12383 | 175 | -45.6 | -71.8 | 251 | 28 |
Only the first 2000 rows were shown. To view the complete dataset, download it as tab-delimited text. You can still view the full matrix in your browser, but be aware that this may crash the browser due to the huge size.
